<?xml version="1.0" encoding="UTF-8" standalone="no" ?>
<gpx xmlns="http://www.topografix.com/GPX/1/1" version="1.1" xmlns:xsi="http://www.w3.org/2001/XMLSchema-instance" xsi:schemaLocation="http://www.topografix.com/GPX/1/1 http://www.topografix.com/GPX/1/1/gpx.xsd">

  <trk>
    <name>Oachner Höfeweg</name>
    <trkseg>
      <trkpt lat="46.479572039097548" lon="11.49802403524518">
        <ele>887</ele>
        <time>2009-08-08T07:00:00Z</time>
      </trkpt>
      <trkpt lat="46.479617971926928" lon="11.498072985559702">
        <ele>889</ele>
        <time>2009-08-08T07:00:05Z</time>
      </trkpt>
      <trkpt lat="46.479703970253468" lon="11.498141968622804">
        <ele>891</ele>
        <time>2009-08-08T07:00:15Z</time>
      </trkpt>
      <trkpt lat="46.479783011600375" lon="11.498183961957693">
        <ele>894</ele>
        <time>2009-08-08T07:00:24Z</time>
      </trkpt>
      <trkpt lat="46.479850988835096" lon="11.498259985819459">
        <ele>896</ele>
        <time>2009-08-08T07:00:32Z</time>
      </trkpt>
      <trkpt lat="46.479885019361973" lon="11.49834799580276">
        <ele>897</ele>
        <time>2009-08-08T07:00:39Z</time>
      </trkpt>
      <trkpt lat="46.479885019361973" lon="11.49843298830092">
        <ele>897</ele>
        <time>2009-08-08T07:00:45Z</time>
      </trkpt>
      <trkpt lat="46.479860041290522" lon="11.498487973585725">
        <ele>896</ele>
        <time>2009-08-08T07:00:50Z</time>
      </trkpt>
      <trkpt lat="46.479807989671826" lon="11.498524015769362">
        <ele>894</ele>
        <time>2009-08-08T07:00:55Z</time>
      </trkpt>
      <trkpt lat="46.479459973052144" lon="11.498634992167354">
        <ele>880</ele>
        <time>2009-08-08T07:01:31Z</time>
      </trkpt>
      <trkpt lat="46.479319995269179" lon="11.498700035735965">
        <ele>875</ele>
        <time>2009-08-08T07:01:46Z</time>
      </trkpt>
      <trkpt lat="46.479245983064175" lon="11.498710010200739">
        <ele>872</ele>
        <time>2009-08-08T07:01:53Z</time>
      </trkpt>
      <trkpt lat="46.479184962809086" lon="11.49869198910892">
        <ele>869</ele>
        <time>2009-08-08T07:02:00Z</time>
      </trkpt>
      <trkpt lat="46.479153027758002" lon="11.498652007430792">
        <ele>868</ele>
        <time>2009-08-08T07:02:04Z</time>
      </trkpt>
      <trkpt lat="46.479139029979706" lon="11.498586963862181">
        <ele>868</ele>
        <time>2009-08-08T07:02:08Z</time>
      </trkpt>
      <trkpt lat="46.479150010272861" lon="11.4984530210495">
        <ele>868</ele>
        <time>2009-08-08T07:02:18Z</time>
      </trkpt>
      <trkpt lat="46.479194015264511" lon="11.49832402355969">
        <ele>870</ele>
        <time>2009-08-08T07:02:28Z</time>
      </trkpt>
      <trkpt lat="46.479197032749653" lon="11.498294016346335">
        <ele>871</ele>
        <time>2009-08-08T07:02:30Z</time>
      </trkpt>
      <trkpt lat="46.479156967252493" lon="11.498034009709954">
        <ele>871</ele>
        <time>2009-08-08T07:02:48Z</time>
      </trkpt>
      <trkpt lat="46.479127965867519" lon="11.49778800085187">
        <ele>872</ele>
        <time>2009-08-08T07:03:05Z</time>
      </trkpt>
      <trkpt lat="46.479016989469528" lon="11.497626984491944">
        <ele>868</ele>
        <time>2009-08-08T07:03:21Z</time>
      </trkpt>
      <trkpt lat="46.478883968666196" lon="11.497551966458559">
        <ele>863</ele>
        <time>2009-08-08T07:03:35Z</time>
      </trkpt>
      <trkpt lat="46.478795036673546" lon="11.497391033917665">
        <ele>859</ele>
        <time>2009-08-08T07:03:50Z</time>
      </trkpt>
      <trkpt lat="46.478832000866532" lon="11.497176038101315">
        <ele>861</ele>
        <time>2009-08-08T07:04:05Z</time>
      </trkpt>
      <trkpt lat="46.478898972272873" lon="11.496960958465934">
        <ele>863</ele>
        <time>2009-08-08T07:04:21Z</time>
      </trkpt>
      <trkpt lat="46.478980025276542" lon="11.496574971824884">
        <ele>865</ele>
        <time>2009-08-08T07:04:49Z</time>
      </trkpt>
      <trkpt lat="46.479054037481546" lon="11.49628596380353">
        <ele>863</ele>
        <time>2009-08-08T07:05:10Z</time>
      </trkpt>
      <trkpt lat="46.47917197085917" lon="11.495996033772826">
        <ele>862</ele>
        <time>2009-08-08T07:05:33Z</time>
      </trkpt>
      <trkpt lat="46.479313038289547" lon="11.495802998542786">
        <ele>863</ele>
        <time>2009-08-08T07:05:53Z</time>
      </trkpt>
      <trkpt lat="46.479527028277516" lon="11.49564198218286">
        <ele>865</ele>
        <time>2009-08-08T07:06:17Z</time>
      </trkpt>
      <trkpt lat="46.479762978851795" lon="11.495577022433281">
        <ele>870</ele>
        <time>2009-08-08T07:06:41Z</time>
      </trkpt>
      <trkpt lat="46.47996598854661" lon="11.495462022721767">
        <ele>872</ele>
        <time>2009-08-08T07:07:03Z</time>
      </trkpt>
      <trkpt lat="46.480232030153275" lon="11.495325984433293">
        <ele>875</ele>
        <time>2009-08-08T07:07:31Z</time>
      </trkpt>
      <trkpt lat="46.480538975447416" lon="11.495169997215271">
        <ele>879</ele>
        <time>2009-08-08T07:08:04Z</time>
      </trkpt>
      <trkpt lat="46.480775009840727" lon="11.495030019432306">
        <ele>881</ele>
        <time>2009-08-08T07:08:29Z</time>
      </trkpt>
      <trkpt lat="46.480981959030032" lon="11.494912002235651">
        <ele>882</ele>
        <time>2009-08-08T07:08:52Z</time>
      </trkpt>
      <trkpt lat="46.481068963184953" lon="11.494890041649342">
        <ele>883</ele>
        <time>2009-08-08T07:09:00Z</time>
      </trkpt>
      <trkpt lat="46.481121014803648" lon="11.494884006679058">
        <ele>884</ele>
        <time>2009-08-08T07:09:06Z</time>
      </trkpt>
      <trkpt lat="46.481207013130188" lon="11.494892975315452">
        <ele>885</ele>
        <time>2009-08-08T07:09:14Z</time>
      </trkpt>
      <trkpt lat="46.481303991749883" lon="11.494946032762527">
        <ele>887</ele>
        <time>2009-08-08T07:09:25Z</time>
      </trkpt>
      <trkpt lat="46.48144899867475" lon="11.495187012478709">
        <ele>895</ele>
        <time>2009-08-08T07:09:47Z</time>
      </trkpt>
      <trkpt lat="46.481543965637684" lon="11.495351968333125">
        <ele>901</ele>
        <time>2009-08-08T07:10:01Z</time>
      </trkpt>
      <trkpt lat="46.481646979227662" lon="11.495406031608582">
        <ele>904</ele>
        <time>2009-08-08T07:10:12Z</time>
      </trkpt>
      <trkpt lat="46.481714034453034" lon="11.495394967496395">
        <ele>904</ele>
        <time>2009-08-08T07:10:19Z</time>
      </trkpt>
      <trkpt lat="46.481763990595937" lon="11.495366971939802">
        <ele>903</ele>
        <time>2009-08-08T07:10:25Z</time>
      </trkpt>
      <trkpt lat="46.481810007244349" lon="11.495288014411926">
        <ele>901</ele>
        <time>2009-08-08T07:10:32Z</time>
      </trkpt>
      <trkpt lat="46.48185501806438" lon="11.495198998600245">
        <ele>898</ele>
        <time>2009-08-08T07:10:39Z</time>
      </trkpt>
      <trkpt lat="46.481800032779574" lon="11.49536102078855">
        <ele>903</ele>
        <time>2009-08-08T07:10:52Z</time>
      </trkpt>
      <trkpt lat="46.481786035001278" lon="11.495390022173524">
        <ele>904</ele>
        <time>2009-08-08T07:10:54Z</time>
      </trkpt>
      <trkpt lat="46.481790980324149" lon="11.495398990809917">
        <ele>904</ele>
        <time>2009-08-08T07:10:55Z</time>
      </trkpt>
      <trkpt lat="46.481836996972561" lon="11.495362026616931">
        <ele>903</ele>
        <time>2009-08-08T07:11:00Z</time>
      </trkpt>
      <trkpt lat="46.481869015842676" lon="11.495321039110422">
        <ele>901</ele>
        <time>2009-08-08T07:11:05Z</time>
      </trkpt>
      <trkpt lat="46.481893993914127" lon="11.495249038562179">
        <ele>899</ele>
        <time>2009-08-08T07:11:10Z</time>
      </trkpt>
      <trkpt lat="46.481930036097765" lon="11.49518902413547">
        <ele>898</ele>
        <time>2009-08-08T07:11:16Z</time>
      </trkpt>
      <trkpt lat="46.481956019997597" lon="11.495177038013935">
        <ele>897</ele>
        <time>2009-08-08T07:11:18Z</time>
      </trkpt>
      <trkpt lat="46.482000024989247" lon="11.495163962244987">
        <ele>897</ele>
        <time>2009-08-08T07:11:23Z</time>
      </trkpt>
      <trkpt lat="46.482055010274053" lon="11.495163040235639">
        <ele>897</ele>
        <time>2009-08-08T07:11:29Z</time>
      </trkpt>
      <trkpt lat="46.482123993337154" lon="11.495171003043652">
        <ele>897</ele>
        <time>2009-08-08T07:11:35Z</time>
      </trkpt>
      <trkpt lat="46.482164980843663" lon="11.495183994993567">
        <ele>897</ele>
        <time>2009-08-08T07:11:40Z</time>
      </trkpt>
      <trkpt lat="46.482261959463358" lon="11.495209978893399">
        <ele>898</ele>
        <time>2009-08-08T07:11:50Z</time>
      </trkpt>
      <trkpt lat="46.482364973053336" lon="11.495246021077037">
        <ele>898</ele>
        <time>2009-08-08T07:12:00Z</time>
      </trkpt>
      <trkpt lat="46.482521966099739" lon="11.495319027453661">
        <ele>900</ele>
        <time>2009-08-08T07:12:17Z</time>
      </trkpt>
      <trkpt lat="46.482616011053324" lon="11.495368983596563">
        <ele>901</ele>
        <time>2009-08-08T07:12:27Z</time>
      </trkpt>
      <trkpt lat="46.482606958597898" lon="11.495409971103072">
        <ele>902</ele>
        <time>2009-08-08T07:12:30Z</time>
      </trkpt>
      <trkpt lat="46.482637971639633" lon="11.495431009680033">
        <ele>903</ele>
        <time>2009-08-08T07:12:33Z</time>
      </trkpt>
      <trkpt lat="46.482665967196226" lon="11.495457999408245">
        <ele>904</ele>
        <time>2009-08-08T07:12:36Z</time>
      </trkpt>
      <trkpt lat="46.482717012986541" lon="11.49549001827836">
        <ele>905</ele>
        <time>2009-08-08T07:12:42Z</time>
      </trkpt>
      <trkpt lat="46.48290996439755" lon="11.495591020211577">
        <ele>908</ele>
        <time>2009-08-08T07:13:03Z</time>
      </trkpt>
      <trkpt lat="46.483022030442953" lon="11.495646005496383">
        <ele>909</ele>
        <time>2009-08-08T07:13:14Z</time>
      </trkpt>
      <trkpt lat="46.483043991029263" lon="11.495656985789537">
        <ele>910</ele>
        <time>2009-08-08T07:13:17Z</time>
      </trkpt>
      <trkpt lat="46.483084978535771" lon="11.495653968304396">
        <ele>910</ele>
        <time>2009-08-08T07:13:21Z</time>
      </trkpt>
      <trkpt lat="46.483164019882679" lon="11.495695961639285">
        <ele>911</ele>
        <time>2009-08-08T07:13:29Z</time>
      </trkpt>
      <trkpt lat="46.483222022652626" lon="11.495711971074343">
        <ele>912</ele>
        <time>2009-08-08T07:13:35Z</time>
      </trkpt>
      <trkpt lat="46.483348002657294" lon="11.495785983279347">
        <ele>915</ele>
        <time>2009-08-08T07:13:49Z</time>
      </trkpt>
      <trkpt lat="46.483391001820564" lon="11.49579101242125">
        <ele>916</ele>
        <time>2009-08-08T07:13:53Z</time>
      </trkpt>
      <trkpt lat="46.48342302069068" lon="11.495811967179179">
        <ele>918</ele>
        <time>2009-08-08T07:13:57Z</time>
      </trkpt>
      <trkpt lat="46.483442969620228" lon="11.495829988270998">
        <ele>919</ele>
        <time>2009-08-08T07:13:59Z</time>
      </trkpt>
      <trkpt lat="46.483455039560795" lon="11.495839962735772">
        <ele>919</ele>
        <time>2009-08-08T07:14:00Z</time>
      </trkpt>
      <trkpt lat="46.483470965176821" lon="11.495849015191197">
        <ele>920</ele>
        <time>2009-08-08T07:14:02Z</time>
      </trkpt>
      <trkpt lat="46.483603985980153" lon="11.495911041274667">
        <ele>924</ele>
        <time>2009-08-08T07:14:16Z</time>
      </trkpt>
      <trkpt lat="46.483685960993171" lon="11.49589997716248">
        <ele>925</ele>
        <time>2009-08-08T07:14:24Z</time>
      </trkpt>
      <trkpt lat="46.483791992068291" lon="11.495957979932427">
        <ele>928</ele>
        <time>2009-08-08T07:14:36Z</time>
      </trkpt>
      <trkpt lat="46.483873967081308" lon="11.496045989915729">
        <ele>932</ele>
        <time>2009-08-08T07:14:46Z</time>
      </trkpt>
      <trkpt lat="46.483930964022875" lon="11.496059987694025">
        <ele>934</ele>
        <time>2009-08-08T07:14:52Z</time>
      </trkpt>
      <trkpt lat="46.483974969014525" lon="11.496020006015897">
        <ele>933</ele>
        <time>2009-08-08T07:14:57Z</time>
      </trkpt>
      <trkpt lat="46.484002964571118" lon="11.49598203599453">
        <ele>932</ele>
        <time>2009-08-08T07:15:01Z</time>
      </trkpt>
      <trkpt lat="46.484060967341065" lon="11.495959991589189">
        <ele>933</ele>
        <time>2009-08-08T07:15:07Z</time>
      </trkpt>
      <trkpt lat="46.484125005081296" lon="11.495930990204215">
        <ele>933</ele>
        <time>2009-08-08T07:15:13Z</time>
      </trkpt>
      <trkpt lat="46.484206980094314" lon="11.49592000991106">
        <ele>934</ele>
        <time>2009-08-08T07:15:21Z</time>
      </trkpt>
      <trkpt lat="46.48428400978446" lon="11.495862007141113">
        <ele>934</ele>
        <time>2009-08-08T07:15:30Z</time>
      </trkpt>
      <trkpt lat="46.484331032261252" lon="11.495837029069662">
        <ele>934</ele>
        <time>2009-08-08T07:15:35Z</time>
      </trkpt>
      <trkpt lat="46.484381994232535" lon="11.495820013806224">
        <ele>934</ele>
        <time>2009-08-08T07:15:40Z</time>
      </trkpt>
      <trkpt lat="46.484422981739044" lon="11.495806016027927">
        <ele>934</ele>
        <time>2009-08-08T07:15:45Z</time>
      </trkpt>
      <trkpt lat="46.484492970630527" lon="11.49581003934145">
        <ele>936</ele>
        <time>2009-08-08T07:15:52Z</time>
      </trkpt>
      <trkpt lat="46.484548039734364" lon="11.495752036571503">
        <ele>934</ele>
        <time>2009-08-08T07:15:58Z</time>
      </trkpt>
      <trkpt lat="46.484615011140704" lon="11.49572404101491">
        <ele>935</ele>
        <time>2009-08-08T07:16:05Z</time>
      </trkpt>
      <trkpt lat="46.484719030559063" lon="11.495723035186529">
        <ele>937</ele>
        <time>2009-08-08T07:16:16Z</time>
      </trkpt>
      <trkpt lat="46.484807040542364" lon="11.495681963860989">
        <ele>937</ele>
        <time>2009-08-08T07:16:25Z</time>
      </trkpt>
      <trkpt lat="46.484873006120324" lon="11.495694033801556">
        <ele>939</ele>
        <time>2009-08-08T07:16:32Z</time>
      </trkpt>
      <trkpt lat="46.484956992790103" lon="11.495686993002892">
        <ele>940</ele>
        <time>2009-08-08T07:16:40Z</time>
      </trkpt>
      <trkpt lat="46.485016001388431" lon="11.495682969689369">
        <ele>942</ele>
        <time>2009-08-08T07:16:46Z</time>
      </trkpt>
      <trkpt lat="46.485112980008125" lon="11.495651034638286">
        <ele>943</ele>
        <time>2009-08-08T07:16:56Z</time>
      </trkpt>
      <trkpt lat="46.485191015526652" lon="11.495676012709737">
        <ele>946</ele>
        <time>2009-08-08T07:17:04Z</time>
      </trkpt>
      <trkpt lat="46.485253041610122" lon="11.495663020759821">
        <ele>947</ele>
        <time>2009-08-08T07:17:10Z</time>
      </trkpt>
      <trkpt lat="46.485269973054528" lon="11.495652962476015">
        <ele>947</ele>
        <time>2009-08-08T07:17:12Z</time>
      </trkpt>
      <trkpt lat="46.485307021066546" lon="11.49559898301959">
        <ele>946</ele>
        <time>2009-08-08T07:17:17Z</time>
      </trkpt>
      <trkpt lat="46.485338034108281" lon="11.49555497802794">
        <ele>945</ele>
        <time>2009-08-08T07:17:22Z</time>
      </trkpt>
      <trkpt lat="46.485395031049848" lon="11.495485994964838">
        <ele>944</ele>
        <time>2009-08-08T07:17:29Z</time>
      </trkpt>
      <trkpt lat="46.485451022163033" lon="11.495335958898067">
        <ele>940</ele>
        <time>2009-08-08T07:17:41Z</time>
      </trkpt>
      <trkpt lat="46.485511036589742" lon="11.495252978056669">
        <ele>939</ele>
        <time>2009-08-08T07:17:49Z</time>
      </trkpt>
      <trkpt lat="46.485577002167702" lon="11.495208973065019">
        <ele>940</ele>
        <time>2009-08-08T07:17:57Z</time>
      </trkpt>
      <trkpt lat="46.485654031857848" lon="11.495138984173536">
        <ele>940</ele>
        <time>2009-08-08T07:18:06Z</time>
      </trkpt>
      <trkpt lat="46.485732989385724" lon="11.495080981403589">
        <ele>941</ele>
        <time>2009-08-08T07:18:15Z</time>
      </trkpt>
      <trkpt lat="46.485785963013768" lon="11.495006969198585">
        <ele>940</ele>
        <time>2009-08-08T07:18:22Z</time>
      </trkpt>
      <trkpt lat="46.485846983268857" lon="11.494956007227302">
        <ele>941</ele>
        <time>2009-08-08T07:18:29Z</time>
      </trkpt>
      <trkpt lat="46.485879002138972" lon="11.494932034984231">
        <ele>942</ele>
        <time>2009-08-08T07:18:33Z</time>
      </trkpt>
      <trkpt lat="46.485923007130623" lon="11.49486699141562">
        <ele>942</ele>
        <time>2009-08-08T07:18:39Z</time>
      </trkpt>
      <trkpt lat="46.485952008515596" lon="11.494788033887744">
        <ele>941</ele>
        <time>2009-08-08T07:18:45Z</time>
      </trkpt>
      <trkpt lat="46.485998025164008" lon="11.494721984490752">
        <ele>941</ele>
        <time>2009-08-08T07:18:52Z</time>
      </trkpt>
      <trkpt lat="46.486015040427446" lon="11.494678985327482">
        <ele>941</ele>
        <time>2009-08-08T07:18:55Z</time>
      </trkpt>
      <trkpt lat="46.486029038205743" lon="11.494605978950858">
        <ele>940</ele>
        <time>2009-08-08T07:19:00Z</time>
      </trkpt>
      <trkpt lat="46.486018979921937" lon="11.494613019749522">
        <ele>939</ele>
        <time>2009-08-08T07:19:01Z</time>
      </trkpt>
      <trkpt lat="46.486015040427446" lon="11.494607990607619">
        <ele>939</ele>
        <time>2009-08-08T07:19:02Z</time>
      </trkpt>
      <trkpt lat="46.485999030992389" lon="11.494573038071394">
        <ele>937</ele>
        <time>2009-08-08T07:19:05Z</time>
      </trkpt>
      <trkpt lat="46.485988972708583" lon="11.494415961205959">
        <ele>933</ele>
        <time>2009-08-08T07:19:16Z</time>
      </trkpt>
      <trkpt lat="46.486017974093556" lon="11.494204988703132">
        <ele>928</ele>
        <time>2009-08-08T07:19:31Z</time>
      </trkpt>
      <trkpt lat="46.486056027933955" lon="11.494089988991618">
        <ele>928</ele>
        <time>2009-08-08T07:19:39Z</time>
      </trkpt>
      <trkpt lat="46.486087962985039" lon="11.493985969573259">
        <ele>928</ele>
        <time>2009-08-08T07:19:47Z</time>
      </trkpt>
      <trkpt lat="46.486043035984039" lon="11.493926038965583">
        <ele>924</ele>
        <time>2009-08-08T07:19:53Z</time>
      </trkpt>
      <trkpt lat="46.486004982143641" lon="11.493906006217003">
        <ele>922</ele>
        <time>2009-08-08T07:19:57Z</time>
      </trkpt>
      <trkpt lat="46.485996013507247" lon="11.493896031752229">
        <ele>922</ele>
        <time>2009-08-08T07:19:59Z</time>
      </trkpt>
      <trkpt lat="46.485995007678866" lon="11.493854960426688">
        <ele>921</ele>
        <time>2009-08-08T07:20:01Z</time>
      </trkpt>
      <trkpt lat="46.486020991578698" lon="11.493692016229033">
        <ele>920</ele>
        <time>2009-08-08T07:20:13Z</time>
      </trkpt>
      <trkpt lat="46.486047981306911" lon="11.493581961840391">
        <ele>919</ele>
        <time>2009-08-08T07:20:21Z</time>
      </trkpt>
      <trkpt lat="46.486023003235459" lon="11.493458999320865">
        <ele>916</ele>
        <time>2009-08-08T07:20:30Z</time>
      </trkpt>
      <trkpt lat="46.485999030992389" lon="11.493379035964608">
        <ele>913</ele>
        <time>2009-08-08T07:20:36Z</time>
      </trkpt>
      <trkpt lat="46.486023003235459" lon="11.493458999320865">
        <ele>916</ele>
        <time>2009-08-08T07:20:42Z</time>
      </trkpt>
      <trkpt lat="46.485999030992389" lon="11.493379035964608">
        <ele>913</ele>
        <time>2009-08-08T07:20:48Z</time>
      </trkpt>
      <trkpt lat="46.485972041264176" lon="11.493293959647417">
        <ele>910</ele>
        <time>2009-08-08T07:20:54Z</time>
      </trkpt>
      <trkpt lat="46.485962988808751" lon="11.493205027654767">
        <ele>909</ele>
        <time>2009-08-08T07:21:00Z</time>
      </trkpt>
      <trkpt lat="46.485941028222442" lon="11.49308399297297">
        <ele>905</ele>
        <time>2009-08-08T07:21:09Z</time>
      </trkpt>
      <trkpt lat="46.485923007130623" lon="11.492952983826399">
        <ele>902</ele>
        <time>2009-08-08T07:21:18Z</time>
      </trkpt>
      <trkpt lat="46.485908003523946" lon="11.492847036570311">
        <ele>900</ele>
        <time>2009-08-08T07:21:26Z</time>
      </trkpt>
      <trkpt lat="46.485899034887552" lon="11.492801019921899">
        <ele>899</ele>
        <time>2009-08-08T07:21:29Z</time>
      </trkpt>
      <trkpt lat="46.485875984653831" lon="11.492647966369987">
        <ele>895</ele>
        <time>2009-08-08T07:21:40Z</time>
      </trkpt>
      <trkpt lat="46.485876990482211" lon="11.492493990808725">
        <ele>893</ele>
        <time>2009-08-08T07:21:50Z</time>
      </trkpt>
      <trkpt lat="46.485870033502579" lon="11.492430958896875">
        <ele>892</ele>
        <time>2009-08-08T07:21:55Z</time>
      </trkpt>
      <trkpt lat="46.485890988260508" lon="11.492392988875508">
        <ele>892</ele>
        <time>2009-08-08T07:21:58Z</time>
      </trkpt>
      <trkpt lat="46.485930969938636" lon="11.492242030799389">
        <ele>892</ele>
        <time>2009-08-08T07:22:09Z</time>
      </trkpt>
      <trkpt lat="46.485978998243809" lon="11.492127031087875">
        <ele>893</ele>
        <time>2009-08-08T07:22:19Z</time>
      </trkpt>
      <trkpt lat="46.485999030992389" lon="11.491952016949654">
        <ele>891</ele>
        <time>2009-08-08T07:22:31Z</time>
      </trkpt>
      <trkpt lat="46.485992996022105" lon="11.491917986422777">
        <ele>890</ele>
        <time>2009-08-08T07:22:33Z</time>
      </trkpt>
      <trkpt lat="46.485975980758667" lon="11.491818996146321">
        <ele>887</ele>
        <time>2009-08-08T07:22:40Z</time>
      </trkpt>
      <trkpt lat="46.485959971323609" lon="11.491716988384724">
        <ele>885</ele>
        <time>2009-08-08T07:22:47Z</time>
      </trkpt>
      <trkpt lat="46.485956031829119" lon="11.491646999493241">
        <ele>883</ele>
        <time>2009-08-08T07:22:52Z</time>
      </trkpt>
      <trkpt lat="46.485962988808751" lon="11.491590002551675">
        <ele>883</ele>
        <time>2009-08-08T07:22:56Z</time>
      </trkpt>
      <trkpt lat="46.485990984365344" lon="11.491440972313285">
        <ele>881</ele>
        <time>2009-08-08T07:23:07Z</time>
      </trkpt>
      <trkpt lat="46.486010011285543" lon="11.491314992308617">
        <ele>879</ele>
        <time>2009-08-08T07:23:16Z</time>
      </trkpt>
      <trkpt lat="46.486044963821769" lon="11.491222037002444">
        <ele>878</ele>
        <time>2009-08-08T07:23:23Z</time>
      </trkpt>
      <trkpt lat="46.4860899746418" lon="11.491082981228828">
        <ele>877</ele>
        <time>2009-08-08T07:23:34Z</time>
      </trkpt>
      <trkpt lat="46.486113024875522" lon="11.491013998165727">
        <ele>877</ele>
        <time>2009-08-08T07:23:39Z</time>
      </trkpt>
      <trkpt lat="46.486138002946973" lon="11.490962030366063">
        <ele>877</ele>
        <time>2009-08-08T07:23:43Z</time>
      </trkpt>
      <trkpt lat="46.48619600571692" lon="11.490835966542363">
        <ele>876</ele>
        <time>2009-08-08T07:23:54Z</time>
      </trkpt>
      <trkpt lat="46.486204974353313" lon="11.490825992077589">
        <ele>876</ele>
        <time>2009-08-08T07:23:55Z</time>
      </trkpt>
      <trkpt lat="46.486230958253145" lon="11.490782992914319">
        <ele>876</ele>
        <time>2009-08-08T07:23:59Z</time>
      </trkpt>
      <trkpt lat="46.486255014315248" lon="11.490733036771417">
        <ele>876</ele>
        <time>2009-08-08T07:24:03Z</time>
      </trkpt>
      <trkpt lat="46.486267000436783" lon="11.490660030394793">
        <ele>875</ele>
        <time>2009-08-08T07:24:08Z</time>
      </trkpt>
      <trkpt lat="46.486290972679853" lon="11.490607978776097">
        <ele>874</ele>
        <time>2009-08-08T07:24:13Z</time>
      </trkpt>
      <trkpt lat="46.48634796962142" lon="11.490531032904983">
        <ele>874</ele>
        <time>2009-08-08T07:24:20Z</time>
      </trkpt>
      <trkpt lat="46.48641200736165" lon="11.49039801210165">
        <ele>873</ele>
        <time>2009-08-08T07:24:32Z</time>
      </trkpt>
      <trkpt lat="46.486491970717907" lon="11.49024797603488">
        <ele>872</ele>
        <time>2009-08-08T07:24:45Z</time>
      </trkpt>
      <trkpt lat="46.486524995416403" lon="11.490176981315017">
        <ele>872</ele>
        <time>2009-08-08T07:24:51Z</time>
      </trkpt>
      <trkpt lat="46.486544022336602" lon="11.49016298353672">
        <ele>872</ele>
        <time>2009-08-08T07:24:53Z</time>
      </trkpt>
      <trkpt lat="46.486585009843111" lon="11.490095006301999">
        <ele>872</ele>
        <time>2009-08-08T07:24:59Z</time>
      </trkpt>
      <trkpt lat="46.486676959320903" lon="11.489983024075627">
        <ele>872</ele>
        <time>2009-08-08T07:25:11Z</time>
      </trkpt>
      <trkpt lat="46.486782990396023" lon="11.489869030192494">
        <ele>870</ele>
        <time>2009-08-08T07:25:24Z</time>
      </trkpt>
      <trkpt lat="46.486857002601027" lon="11.489768028259277">
        <ele>868</ele>
        <time>2009-08-08T07:25:34Z</time>
      </trkpt>
      <trkpt lat="46.486972002312541" lon="11.489663003012538">
        <ele>867</ele>
        <time>2009-08-08T07:25:48Z</time>
      </trkpt>
      <trkpt lat="46.487047020345926" lon="11.489565018564463">
        <ele>865</ele>
        <time>2009-08-08T07:25:58Z</time>
      </trkpt>
      <trkpt lat="46.487082978710532" lon="11.489531993865967">
        <ele>864</ele>
        <time>2009-08-08T07:26:02Z</time>
      </trkpt>
      <trkpt lat="46.487104017287493" lon="11.489487988874316">
        <ele>863</ele>
        <time>2009-08-08T07:26:06Z</time>
      </trkpt>
      <trkpt lat="46.487137963995337" lon="11.489447001367807">
        <ele>862</ele>
        <time>2009-08-08T07:26:10Z</time>
      </trkpt>
      <trkpt lat="46.487176017835736" lon="11.489425040781498">
        <ele>862</ele>
        <time>2009-08-08T07:26:15Z</time>
      </trkpt>
      <trkpt lat="46.487204013392329" lon="11.489396961405873">
        <ele>861</ele>
        <time>2009-08-08T07:26:18Z</time>
      </trkpt>
      <trkpt lat="46.487280959263444" lon="11.48932496085763">
        <ele>860</ele>
        <time>2009-08-08T07:26:27Z</time>
      </trkpt>
      <trkpt lat="46.487336028367281" lon="11.489270981401205">
        <ele>859</ele>
        <time>2009-08-08T07:26:34Z</time>
      </trkpt>
      <trkpt lat="46.487482963129878" lon="11.48917299695313">
        <ele>857</ele>
        <time>2009-08-08T07:26:50Z</time>
      </trkpt>
      <trkpt lat="46.487598968669772" lon="11.489091021940112">
        <ele>855</ele>
        <time>2009-08-08T07:27:03Z</time>
      </trkpt>
      <trkpt lat="46.48774397559464" lon="11.489006029441953">
        <ele>854</ele>
        <time>2009-08-08T07:27:19Z</time>
      </trkpt>
      <trkpt lat="46.487841960042715" lon="11.488950038328767">
        <ele>853</ele>
        <time>2009-08-08T07:27:29Z</time>
      </trkpt>
      <trkpt lat="46.487954026088119" lon="11.488893963396549">
        <ele>853</ele>
        <time>2009-08-08T07:27:41Z</time>
      </trkpt>
      <trkpt lat="46.487994007766247" lon="11.488868985325098">
        <ele>853</ele>
        <time>2009-08-08T07:27:45Z</time>
      </trkpt>
      <trkpt lat="46.488127028569579" lon="11.48876597173512">
        <ele>851</ele>
        <time>2009-08-08T07:28:01Z</time>
      </trkpt>
      <trkpt lat="46.488162986934185" lon="11.488726995885372">
        <ele>851</ele>
        <time>2009-08-08T07:28:05Z</time>
      </trkpt>
      <trkpt lat="46.488203974440694" lon="11.488667987287045">
        <ele>850</ele>
        <time>2009-08-08T07:28:11Z</time>
      </trkpt>
      <trkpt lat="46.488226018846035" lon="11.488648960366845">
        <ele>849</ele>
        <time>2009-08-08T07:28:13Z</time>
      </trkpt>
      <trkpt lat="46.488199029117823" lon="11.488611996173859">
        <ele>848</ele>
        <time>2009-08-08T07:28:17Z</time>
      </trkpt>
      <trkpt lat="46.488177990540862" lon="11.488625993952155">
        <ele>848</ele>
        <time>2009-08-08T07:28:19Z</time>
      </trkpt>
      <trkpt lat="46.488162986934185" lon="11.488625993952155">
        <ele>848</ele>
        <time>2009-08-08T07:28:21Z</time>
      </trkpt>
      <trkpt lat="46.488083023577929" lon="11.48861400783062">
        <ele>846</ele>
        <time>2009-08-08T07:28:29Z</time>
      </trkpt>
      <trkpt lat="46.487950002774596" lon="11.488604033365846">
        <ele>843</ele>
        <time>2009-08-08T07:28:42Z</time>
      </trkpt>
      <trkpt lat="46.487911026924849" lon="11.488592969253659">
        <ele>842</ele>
        <time>2009-08-08T07:28:46Z</time>
      </trkpt>
      <trkpt lat="46.487881019711494" lon="11.488605961203575">
        <ele>842</ele>
        <time>2009-08-08T07:28:49Z</time>
      </trkpt>
      <trkpt lat="46.487797033041716" lon="11.488607972860336">
        <ele>841</ele>
        <time>2009-08-08T07:28:58Z</time>
      </trkpt>
      <trkpt lat="46.487752022221684" lon="11.488617025315762">
        <ele>841</ele>
        <time>2009-08-08T07:29:02Z</time>
      </trkpt>
      <trkpt lat="46.487639034166932" lon="11.488611996173859">
        <ele>839</ele>
        <time>2009-08-08T07:29:14Z</time>
      </trkpt>
      <trkpt lat="46.48757197894156" lon="11.488619036972523">
        <ele>838</ele>
        <time>2009-08-08T07:29:20Z</time>
      </trkpt>
      <trkpt lat="46.487453039735556" lon="11.488602021709085">
        <ele>835</ele>
        <time>2009-08-08T07:29:32Z</time>
      </trkpt>
      <trkpt lat="46.48735798895359" lon="11.488591963425279">
        <ele>833</ele>
        <time>2009-08-08T07:29:42Z</time>
      </trkpt>
      <trkpt lat="46.487269978970289" lon="11.488602021709085">
        <ele>832</ele>
        <time>2009-08-08T07:29:51Z</time>
      </trkpt>
      <trkpt lat="46.487240977585316" lon="11.488643009215593">
        <ele>833</ele>
        <time>2009-08-08T07:29:55Z</time>
      </trkpt>
      <trkpt lat="46.487167971208692" lon="11.488662958145142">
        <ele>833</ele>
        <time>2009-08-08T07:30:02Z</time>
      </trkpt>
      <trkpt lat="46.487103011459112" lon="11.488606967031956">
        <ele>830</ele>
        <time>2009-08-08T07:30:10Z</time>
      </trkpt>
      <trkpt lat="46.487112985923886" lon="11.488591963425279">
        <ele>829</ele>
        <time>2009-08-08T07:30:11Z</time>
      </trkpt>
      <trkpt lat="46.487069986760616" lon="11.488563967868686">
        <ele>827</ele>
        <time>2009-08-08T07:30:16Z</time>
      </trkpt>
      <trkpt lat="46.486954987049103" lon="11.488592969253659">
        <ele>827</ele>
        <time>2009-08-08T07:30:28Z</time>
      </trkpt>
      <trkpt lat="46.486892038956285" lon="11.48859397508204">
        <ele>825</ele>
        <time>2009-08-08T07:30:34Z</time>
      </trkpt>
      <trkpt lat="46.48688399232924" lon="11.488575031980872">
        <ele>825</ele>
        <time>2009-08-08T07:30:35Z</time>
      </trkpt>
      <trkpt lat="46.48690402507782" lon="11.488499008119106">
        <ele>822</ele>
        <time>2009-08-08T07:30:41Z</time>
      </trkpt>
      <trkpt lat="46.486981976777315" lon="11.488461038097739">
        <ele>822</ele>
        <time>2009-08-08T07:30:49Z</time>
      </trkpt>
      <trkpt lat="46.487136036157608" lon="11.488358024507761">
        <ele>821</ele>
        <time>2009-08-08T07:31:06Z</time>
      </trkpt>
      <trkpt lat="46.487170988693833" lon="11.4883369859308">
        <ele>821</ele>
        <time>2009-08-08T07:31:10Z</time>
      </trkpt>
      <trkpt lat="46.487252963706851" lon="11.488307984545827">
        <ele>821</ele>
        <time>2009-08-08T07:31:19Z</time>
      </trkpt>
      <trkpt lat="46.487429989501834" lon="11.488158032298088">
        <ele>820</ele>
        <time>2009-08-08T07:31:39Z</time>
      </trkpt>
      <trkpt lat="46.487456979230046" lon="11.488217040896416">
        <ele>822</ele>
        <time>2009-08-08T07:31:44Z</time>
      </trkpt>
      <trkpt lat="46.487640962004662" lon="11.488108998164535">
        <ele>823</ele>
        <time>2009-08-08T07:32:04Z</time>
      </trkpt>
      <trkpt lat="46.487772976979613" lon="11.487931972369552">
        <ele>821</ele>
        <time>2009-08-08T07:32:22Z</time>
      </trkpt>
      <trkpt lat="46.48780700750649" lon="11.487855026498437">
        <ele>819</ele>
        <time>2009-08-08T07:32:28Z</time>
      </trkpt>
      <trkpt lat="46.487858975306153" lon="11.487746983766556">
        <ele>818</ele>
        <time>2009-08-08T07:32:37Z</time>
      </trkpt>
      <trkpt lat="46.48787003941834" lon="11.487724017351866">
        <ele>817</ele>
        <time>2009-08-08T07:32:39Z</time>
      </trkpt>
      <trkpt lat="46.487876996397972" lon="11.487682024016976">
        <ele>816</ele>
        <time>2009-08-08T07:32:42Z</time>
      </trkpt>
      <trkpt lat="46.48789300583303" lon="11.487681018188596">
        <ele>816</ele>
        <time>2009-08-08T07:32:44Z</time>
      </trkpt>
      <trkpt lat="46.487899040803313" lon="11.487698033452034">
        <ele>817</ele>
        <time>2009-08-08T07:32:45Z</time>
      </trkpt>
      <trkpt lat="46.487926030531526" lon="11.487658973783255">
        <ele>816</ele>
        <time>2009-08-08T07:32:49Z</time>
      </trkpt>
      <trkpt lat="46.487964000552893" lon="11.487602982670069">
        <ele>816</ele>
        <time>2009-08-08T07:32:54Z</time>
      </trkpt>
      <trkpt lat="46.487973975017667" lon="11.487629972398281">
        <ele>816</ele>
        <time>2009-08-08T07:32:56Z</time>
      </trkpt>
      <trkpt lat="46.488028960302472" lon="11.487633995711803">
        <ele>817</ele>
        <time>2009-08-08T07:33:02Z</time>
      </trkpt>
      <trkpt lat="46.488119987770915" lon="11.487659979611635">
        <ele>820</ele>
        <time>2009-08-08T07:33:11Z</time>
      </trkpt>
      <trkpt lat="46.4882140327245" lon="11.487631984055042">
        <ele>821</ele>
        <time>2009-08-08T07:33:21Z</time>
      </trkpt>
      <trkpt lat="46.488276980817318" lon="11.487515978515148">
        <ele>818</ele>
        <time>2009-08-08T07:33:31Z</time>
      </trkpt>
      <trkpt lat="46.488283015787601" lon="11.487484965473413">
        <ele>818</ele>
        <time>2009-08-08T07:33:33Z</time>
      </trkpt>
      <trkpt lat="46.488287039101124" lon="11.487400978803635">
        <ele>815</ele>
        <time>2009-08-08T07:33:39Z</time>
      </trkpt>
      <trkpt lat="46.488325009122491" lon="11.487297965213656">
        <ele>812</ele>
        <time>2009-08-08T07:33:47Z</time>
      </trkpt>
      <trkpt lat="46.488399021327496" lon="11.487196041271091">
        <ele>808</ele>
        <time>2009-08-08T07:33:57Z</time>
      </trkpt>
      <trkpt lat="46.488548973575234" lon="11.487199980765581">
        <ele>809</ele>
        <time>2009-08-08T07:34:12Z</time>
      </trkpt>
      <trkpt lat="46.488622985780239" lon="11.487219007685781">
        <ele>809</ele>
        <time>2009-08-08T07:34:20Z</time>
      </trkpt>
      <trkpt lat="46.488689035177231" lon="11.487254966050386">
        <ele>811</ele>
        <time>2009-08-08T07:34:27Z</time>
      </trkpt>
      <trkpt lat="46.488781990483403" lon="11.487241974100471">
        <ele>810</ele>
        <time>2009-08-08T07:34:36Z</time>
      </trkpt>
      <trkpt lat="46.488844016566873" lon="11.487147007137537">
        <ele>807</ele>
        <time>2009-08-08T07:34:45Z</time>
      </trkpt>
      <trkpt lat="46.488848961889744" lon="11.487128986045718">
        <ele>806</ele>
        <time>2009-08-08T07:34:47Z</time>
      </trkpt>
      <trkpt lat="46.488831024616957" lon="11.487090010195971">
        <ele>804</ele>
        <time>2009-08-08T07:34:50Z</time>
      </trkpt>
      <trkpt lat="46.488833958283067" lon="11.487048016861081">
        <ele>803</ele>
        <time>2009-08-08T07:34:53Z</time>
      </trkpt>
      <trkpt lat="46.488885004073381" lon="11.487005017697811">
        <ele>801</ele>
        <time>2009-08-08T07:34:59Z</time>
      </trkpt>
      <trkpt lat="46.488919034600258" lon="11.486972998827696">
        <ele>800</ele>
        <time>2009-08-08T07:35:03Z</time>
      </trkpt>
      <trkpt lat="46.488963961601257" lon="11.486935028806329">
        <ele>798</ele>
        <time>2009-08-08T07:35:08Z</time>
      </trkpt>
      <trkpt lat="46.488992962986231" lon="11.486904015764594">
        <ele>797</ele>
        <time>2009-08-08T07:35:11Z</time>
      </trkpt>
      <trkpt lat="46.489064963534474" lon="11.486873002722859">
        <ele>795</ele>
        <time>2009-08-08T07:35:19Z</time>
      </trkpt>
      <trkpt lat="46.489149034023285" lon="11.486865039914846">
        <ele>795</ele>
        <time>2009-08-08T07:35:27Z</time>
      </trkpt>
      <trkpt lat="46.489192033186555" lon="11.486926982179284">
        <ele>798</ele>
        <time>2009-08-08T07:35:33Z</time>
      </trkpt>
      <trkpt lat="46.489236038178205" lon="11.486996971070766">
        <ele>801</ele>
        <time>2009-08-08T07:35:40Z</time>
      </trkpt>
      <trkpt lat="46.489351959899068" lon="11.486949026584625">
        <ele>801</ele>
        <time>2009-08-08T07:35:52Z</time>
      </trkpt>
      <trkpt lat="46.48939898237586" lon="11.487006023526192">
        <ele>804</ele>
        <time>2009-08-08T07:35:58Z</time>
      </trkpt>
      <trkpt lat="46.489435024559498" lon="11.487050028517842">
        <ele>806</ele>
        <time>2009-08-08T07:36:03Z</time>
      </trkpt>
      <trkpt lat="46.489498978480697" lon="11.487038964405656">
        <ele>806</ele>
        <time>2009-08-08T07:36:09Z</time>
      </trkpt>
      <trkpt lat="46.489550024271011" lon="11.487007029354572">
        <ele>806</ele>
        <time>2009-08-08T07:36:15Z</time>
      </trkpt>
      <trkpt lat="46.489642979577184" lon="11.48700300604105">
        <ele>807</ele>
        <time>2009-08-08T07:36:24Z</time>
      </trkpt>
      <trkpt lat="46.489673992618918" lon="11.487037036567926">
        <ele>808</ele>
        <time>2009-08-08T07:36:28Z</time>
      </trkpt>
      <trkpt lat="46.489716991782188" lon="11.487009963020682">
        <ele>808</ele>
        <time>2009-08-08T07:36:33Z</time>
      </trkpt>
      <trkpt lat="46.489764014258981" lon="11.487006023526192">
        <ele>808</ele>
        <time>2009-08-08T07:36:38Z</time>
      </trkpt>
      <trkpt lat="46.489816987887025" lon="11.487005017697811">
        <ele>809</ele>
        <time>2009-08-08T07:36:43Z</time>
      </trkpt>
      <trkpt lat="46.489875996485353" lon="11.486966041848063">
        <ele>809</ele>
        <time>2009-08-08T07:36:49Z</time>
      </trkpt>
      <trkpt lat="46.489943973720074" lon="11.486962018534541">
        <ele>810</ele>
        <time>2009-08-08T07:36:56Z</time>
      </trkpt>
      <trkpt lat="46.48995696566999" lon="11.486966963857412">
        <ele>810</ele>
        <time>2009-08-08T07:36:57Z</time>
      </trkpt>
      <trkpt lat="46.489896029233932" lon="11.486883983016014">
        <ele>808</ele>
        <time>2009-08-08T07:37:06Z</time>
      </trkpt>
      <trkpt lat="46.489821011200547" lon="11.486914996057749">
        <ele>807</ele>
        <time>2009-08-08T07:37:14Z</time>
      </trkpt>
      <trkpt lat="46.489769965410233" lon="11.486861016601324">
        <ele>805</ele>
        <time>2009-08-08T07:37:20Z</time>
      </trkpt>
      <trkpt lat="46.48973903618753" lon="11.486781975254416">
        <ele>803</ele>
        <time>2009-08-08T07:37:26Z</time>
      </trkpt>
      <trkpt lat="46.489711962640285" lon="11.486739981919527">
        <ele>801</ele>
        <time>2009-08-08T07:37:30Z</time>
      </trkpt>
      <trkpt lat="46.489672986790538" lon="11.486643003299832">
        <ele>798</ele>
        <time>2009-08-08T07:37:38Z</time>
      </trkpt>
      <trkpt lat="46.489647002890706" lon="11.486557004973292">
        <ele>796</ele>
        <time>2009-08-08T07:37:44Z</time>
      </trkpt>
      <trkpt lat="46.489620013162494" lon="11.486465977504849">
        <ele>795</ele>
        <time>2009-08-08T07:37:51Z</time>
      </trkpt>
      <trkpt lat="46.489614984020591" lon="11.48640101775527">
        <ele>794</ele>
        <time>2009-08-08T07:37:56Z</time>
      </trkpt>
      <trkpt lat="46.489624036476016" lon="11.486399006098509">
        <ele>794</ele>
        <time>2009-08-08T07:37:57Z</time>
      </trkpt>
      <trkpt lat="46.489647002890706" lon="11.486462960019708">
        <ele>796</ele>
        <time>2009-08-08T07:38:02Z</time>
      </trkpt>
      <trkpt lat="46.489715985953808" lon="11.486518029123545">
        <ele>798</ele>
        <time>2009-08-08T07:38:10Z</time>
      </trkpt>
      <trkpt lat="46.489722020924091" lon="11.486538983881474">
        <ele>798</ele>
        <time>2009-08-08T07:38:11Z</time>
      </trkpt>
      <trkpt lat="46.489758985117078" lon="11.486544013023376">
        <ele>799</ele>
        <time>2009-08-08T07:38:15Z</time>
      </trkpt>
      <trkpt lat="46.489770971238613" lon="11.486539989709854">
        <ele>800</ele>
        <time>2009-08-08T07:38:16Z</time>
      </trkpt>
      <trkpt lat="46.489724032580853" lon="11.486438987776637">
        <ele>798</ele>
        <time>2009-08-08T07:38:24Z</time>
      </trkpt>
      <trkpt lat="46.489701988175511" lon="11.486400011926889">
        <ele>797</ele>
        <time>2009-08-08T07:38:28Z</time>
      </trkpt>
      <trkpt lat="46.489682961255312" lon="11.486280988901854">
        <ele>795</ele>
        <time>2009-08-08T07:38:36Z</time>
      </trkpt>
      <trkpt lat="46.489682961255312" lon="11.486241007223725">
        <ele>795</ele>
        <time>2009-08-08T07:38:39Z</time>
      </trkpt>
      <trkpt lat="46.489669969305396" lon="11.486176969483495">
        <ele>794</ele>
        <time>2009-08-08T07:38:44Z</time>
      </trkpt>
      <trkpt lat="46.489673992618918" lon="11.486116033047438">
        <ele>793</ele>
        <time>2009-08-08T07:38:48Z</time>
      </trkpt>
      <trkpt lat="46.489674998447299" lon="11.486049983650446">
        <ele>793</ele>
        <time>2009-08-08T07:38:53Z</time>
      </trkpt>
      <trkpt lat="46.48969897069037" lon="11.486005978658795">
        <ele>793</ele>
        <time>2009-08-08T07:38:56Z</time>
      </trkpt>
      <trkpt lat="46.489665023982525" lon="11.485901037231088">
        <ele>791</ele>
        <time>2009-08-08T07:39:04Z</time>
      </trkpt>
      <trkpt lat="46.489628981798887" lon="11.485815960913897">
        <ele>789</ele>
        <time>2009-08-08T07:39:11Z</time>
      </trkpt>
      <trkpt lat="46.489599980413914" lon="11.485700039193034">
        <ele>787</ele>
        <time>2009-08-08T07:39:20Z</time>
      </trkpt>
      <trkpt lat="46.489559998735785" lon="11.485497029498219">
        <ele>785</ele>
        <time>2009-08-08T07:39:34Z</time>
      </trkpt>
      <trkpt lat="46.489550024271011" lon="11.48543500341475">
        <ele>784</ele>
        <time>2009-08-08T07:39:39Z</time>
      </trkpt>
      <trkpt lat="46.489538960158825" lon="11.48539200425148">
        <ele>783</ele>
        <time>2009-08-08T07:39:42Z</time>
      </trkpt>
      <trkpt lat="46.489510964602232" lon="11.485178014263511">
        <ele>781</ele>
        <time>2009-08-08T07:39:57Z</time>
      </trkpt>
      <trkpt lat="46.489465031772852" lon="11.484964024275541">
        <ele>778</ele>
        <time>2009-08-08T07:40:13Z</time>
      </trkpt>
      <trkpt lat="46.489465031772852" lon="11.484799990430474">
        <ele>777</ele>
        <time>2009-08-08T07:40:24Z</time>
      </trkpt>
      <trkpt lat="46.489507025107741" lon="11.484627993777394">
        <ele>779</ele>
        <time>2009-08-08T07:40:36Z</time>
      </trkpt>
      <trkpt lat="46.489630993455648" lon="11.484481981024146">
        <ele>782</ele>
        <time>2009-08-08T07:40:52Z</time>
      </trkpt>
      <trkpt lat="46.489735012874007" lon="11.484401011839509">
        <ele>785</ele>
        <time>2009-08-08T07:41:04Z</time>
      </trkpt>
      <trkpt lat="46.489783963188529" lon="11.484353989362717">
        <ele>787</ele>
        <time>2009-08-08T07:41:10Z</time>
      </trkpt>
      <trkpt lat="46.489883959293365" lon="11.484258016571403">
        <ele>789</ele>
        <time>2009-08-08T07:41:22Z</time>
      </trkpt>
      <trkpt lat="46.490013962611556" lon="11.484098006039858">
        <ele>790</ele>
        <time>2009-08-08T07:41:39Z</time>
      </trkpt>
      <trkpt lat="46.490112030878663" lon="11.48397303186357">
        <ele>790</ele>
        <time>2009-08-08T07:41:52Z</time>
      </trkpt>
      <trkpt lat="46.490147989243269" lon="11.483936989679933">
        <ele>791</ele>
        <time>2009-08-08T07:41:57Z</time>
      </trkpt>
      <trkpt lat="46.490218983963132" lon="11.483896002173424">
        <ele>791</ele>
        <time>2009-08-08T07:42:04Z</time>
      </trkpt>
      <trkpt lat="46.490286039188504" lon="11.483863983303308">
        <ele>792</ele>
        <time>2009-08-08T07:42:11Z</time>
      </trkpt>
      <trkpt lat="46.490340018644929" lon="11.483840011060238">
        <ele>793</ele>
        <time>2009-08-08T07:42:17Z</time>
      </trkpt>
      <trkpt lat="46.490447977557778" lon="11.483793994411826">
        <ele>794</ele>
        <time>2009-08-08T07:42:28Z</time>
      </trkpt>
      <trkpt lat="46.49055602028966" lon="11.483727023005486">
        <ele>795</ele>
        <time>2009-08-08T07:42:40Z</time>
      </trkpt>
      <trkpt lat="46.490603964775801" lon="11.483670026063919">
        <ele>795</ele>
        <time>2009-08-08T07:42:46Z</time>
      </trkpt>
      <trkpt lat="46.490663979202509" lon="11.483627026900649">
        <ele>795</ele>
        <time>2009-08-08T07:42:53Z</time>
      </trkpt>
      <trkpt lat="46.490728016942739" lon="11.483561983332038">
        <ele>795</ele>
        <time>2009-08-08T07:43:01Z</time>
      </trkpt>
      <trkpt lat="46.490792976692319" lon="11.483534993603826">
        <ele>795</ele>
        <time>2009-08-08T07:43:08Z</time>
      </trkpt>
      <trkpt lat="46.490856008604169" lon="11.483529964461923">
        <ele>796</ele>
        <time>2009-08-08T07:43:14Z</time>
      </trkpt>
      <trkpt lat="46.491008978337049" lon="11.483540022745728">
        <ele>800</ele>
        <time>2009-08-08T07:43:29Z</time>
      </trkpt>
      <trkpt lat="46.491157002747059" lon="11.48354203440249">
        <ele>804</ele>
        <time>2009-08-08T07:43:44Z</time>
      </trkpt>
      <trkpt lat="46.491292035207152" lon="11.48352300748229">
        <ele>807</ele>
        <time>2009-08-08T07:43:58Z</time>
      </trkpt>
      <trkpt lat="46.49135397747159" lon="11.483450001105666">
        <ele>808</ele>
        <time>2009-08-08T07:44:06Z</time>
      </trkpt>
      <trkpt lat="46.491378033533692" lon="11.483375988900661">
        <ele>807</ele>
        <time>2009-08-08T07:44:11Z</time>
      </trkpt>
      <trkpt lat="46.491334028542042" lon="11.483333995565772">
        <ele>805</ele>
        <time>2009-08-08T07:44:17Z</time>
      </trkpt>
      <trkpt lat="46.491251969709992" lon="11.483150012791157">
        <ele>803</ele>
        <time>2009-08-08T07:44:32Z</time>
      </trkpt>
      <trkpt lat="46.491179969161749" lon="11.483002994209528">
        <ele>800</ele>
        <time>2009-08-08T07:44:44Z</time>
      </trkpt>
      <trkpt lat="46.491169994696975" lon="11.482930993661284">
        <ele>799</ele>
        <time>2009-08-08T07:44:49Z</time>
      </trkpt>
      <trkpt lat="46.491112997755408" lon="11.482793027535081">
        <ele>797</ele>
        <time>2009-08-08T07:45:00Z</time>
      </trkpt>
      <trkpt lat="46.491077039390802" lon="11.482617007568479">
        <ele>794</ele>
        <time>2009-08-08T07:45:13Z</time>
      </trkpt>
      <trkpt lat="46.491065975278616" lon="11.482479041442275">
        <ele>793</ele>
        <time>2009-08-08T07:45:23Z</time>
      </trkpt>
      <trkpt lat="46.491067986935377" lon="11.482434030622244">
        <ele>793</ele>
        <time>2009-08-08T07:45:26Z</time>
      </trkpt>
      <trkpt lat="46.491059018298984" lon="11.482350965961814">
        <ele>792</ele>
        <time>2009-08-08T07:45:32Z</time>
      </trkpt>
      <trkpt lat="46.491049965843558" lon="11.4822359662503">
        <ele>791</ele>
        <time>2009-08-08T07:45:40Z</time>
      </trkpt>
      <trkpt lat="46.491053989157081" lon="11.482070004567504">
        <ele>790</ele>
        <time>2009-08-08T07:45:51Z</time>
      </trkpt>
      <trkpt lat="46.491068992763758" lon="11.481986017897725">
        <ele>790</ele>
        <time>2009-08-08T07:45:57Z</time>
      </trkpt>
      <trkpt lat="46.491080978885293" lon="11.481930026784539">
        <ele>790</ele>
        <time>2009-08-08T07:46:01Z</time>
      </trkpt>
      <trkpt lat="46.491130013018847" lon="11.481775967404246">
        <ele>791</ele>
        <time>2009-08-08T07:46:13Z</time>
      </trkpt>
      <trkpt lat="46.491150967776775" lon="11.48171603679657">
        <ele>792</ele>
        <time>2009-08-08T07:46:17Z</time>
      </trkpt>
      <trkpt lat="46.491167983040214" lon="11.4816730376333">
        <ele>792</ele>
        <time>2009-08-08T07:46:21Z</time>
      </trkpt>
      <trkpt lat="46.491188015788794" lon="11.481616962701082">
        <ele>792</ele>
        <time>2009-08-08T07:46:25Z</time>
      </trkpt>
      <trkpt lat="46.491203019395471" lon="11.481555020436645">
        <ele>791</ele>
        <time>2009-08-08T07:46:30Z</time>
      </trkpt>
      <trkpt lat="46.491210982203484" lon="11.481472039595246">
        <ele>790</ele>
        <time>2009-08-08T07:46:36Z</time>
      </trkpt>
      <trkpt lat="46.491216011345387" lon="11.481368020176888">
        <ele>789</ele>
        <time>2009-08-08T07:46:43Z</time>
      </trkpt>
      <trkpt lat="46.491240989416838" lon="11.481273975223303">
        <ele>788</ele>
        <time>2009-08-08T07:46:50Z</time>
      </trkpt>
      <trkpt lat="46.491272002458572" lon="11.481109019368887">
        <ele>786</ele>
        <time>2009-08-08T07:47:02Z</time>
      </trkpt>
      <trkpt lat="46.491280971094966" lon="11.480946997180581">
        <ele>784</ele>
        <time>2009-08-08T07:47:13Z</time>
      </trkpt>
      <trkpt lat="46.491286000236869" lon="11.480840966105461">
        <ele>782</ele>
        <time>2009-08-08T07:47:20Z</time>
      </trkpt>
      <trkpt lat="46.491293963044882" lon="11.480766031891108">
        <ele>780</ele>
        <time>2009-08-08T07:47:25Z</time>
      </trkpt>
      <trkpt lat="46.491305027157068" lon="11.480726972222328">
        <ele>779</ele>
        <time>2009-08-08T07:47:28Z</time>
      </trkpt>
      <trkpt lat="46.491332016885281" lon="11.48064399138093">
        <ele>778</ele>
        <time>2009-08-08T07:47:34Z</time>
      </trkpt>
      <trkpt lat="46.491333022713661" lon="11.480532009154558">
        <ele>775</ele>
        <time>2009-08-08T07:47:42Z</time>
      </trkpt>
      <trkpt lat="46.49131097830832" lon="11.480467971414328">
        <ele>772</ele>
        <time>2009-08-08T07:47:47Z</time>
      </trkpt>
      <trkpt lat="46.491255993023515" lon="11.480412986129522">
        <ele>769</ele>
        <time>2009-08-08T07:47:54Z</time>
      </trkpt>
      <trkpt lat="46.491298992186785" lon="11.480268985033035">
        <ele>766</ele>
        <time>2009-08-08T07:48:05Z</time>
      </trkpt>
      <trkpt lat="46.491362024098635" lon="11.480059018358588">
        <ele>762</ele>
        <time>2009-08-08T07:48:20Z</time>
      </trkpt>
      <trkpt lat="46.491448022425175" lon="11.479850979521871">
        <ele>758</ele>
        <time>2009-08-08T07:48:37Z</time>
      </trkpt>
      <trkpt lat="46.491548018530011" lon="11.479705972597003">
        <ele>756</ele>
        <time>2009-08-08T07:48:51Z</time>
      </trkpt>
      <trkpt lat="46.491662012413144" lon="11.479622991755605">
        <ele>757</ele>
        <time>2009-08-08T07:49:04Z</time>
      </trkpt>
      <trkpt lat="46.491819005459547" lon="11.479519978165627">
        <ele>757</ele>
        <time>2009-08-08T07:49:21Z</time>
      </trkpt>
      <trkpt lat="46.49197599850595" lon="11.479415958747268">
        <ele>757</ele>
        <time>2009-08-08T07:49:39Z</time>
      </trkpt>
      <trkpt lat="46.49214799515903" lon="11.479353010654449">
        <ele>758</ele>
        <time>2009-08-08T07:49:56Z</time>
      </trkpt>
      <trkpt lat="46.49229702539742" lon="11.479289978742599">
        <ele>759</ele>
        <time>2009-08-08T07:50:12Z</time>
      </trkpt>
      <trkpt lat="46.492862971499562" lon="11.479083029553294">
        <ele>761</ele>
        <time>2009-08-08T07:51:10Z</time>
      </trkpt>
      <trkpt lat="46.493291035294533" lon="11.478957971557975">
        <ele>763</ele>
        <time>2009-08-08T07:51:54Z</time>
      </trkpt>
      <trkpt lat="46.493577025830746" lon="11.478937016800046">
        <ele>768</ele>
        <time>2009-08-08T07:52:23Z</time>
      </trkpt>
      <trkpt lat="46.493849018588662" lon="11.478915978223085">
        <ele>773</ele>
        <time>2009-08-08T07:52:50Z</time>
      </trkpt>
      <trkpt lat="46.494020009413362" lon="11.478832997381687">
        <ele>775</ele>
        <time>2009-08-08T07:53:08Z</time>
      </trkpt>
      <trkpt lat="46.494077006354928" lon="11.47868799045682">
        <ele>774</ele>
        <time>2009-08-08T07:53:20Z</time>
      </trkpt>
      <trkpt lat="46.494077006354928" lon="11.478564022108912">
        <ele>771</ele>
        <time>2009-08-08T07:53:28Z</time>
      </trkpt>
      <trkpt lat="46.494020009413362" lon="11.478397976607084">
        <ele>766</ele>
        <time>2009-08-08T07:53:41Z</time>
      </trkpt>
      <trkpt lat="46.493848012760282" lon="11.478191027417779">
        <ele>758</ele>
        <time>2009-08-08T07:54:04Z</time>
      </trkpt>
      <trkpt lat="46.493634022772312" lon="11.477963039651513">
        <ele>748</ele>
        <time>2009-08-08T07:54:30Z</time>
      </trkpt>
      <trkpt lat="46.493505025282502" lon="11.477734968066216">
        <ele>739</ele>
        <time>2009-08-08T07:54:51Z</time>
      </trkpt>
      <trkpt lat="46.493476023897529" lon="11.47752801887691">
        <ele>734</ele>
        <time>2009-08-08T07:55:05Z</time>
      </trkpt>
      <trkpt lat="46.493490021675825" lon="11.477320985868573">
        <ele>731</ele>
        <time>2009-08-08T07:55:19Z</time>
      </trkpt>
      <trkpt lat="46.493547018617392" lon="11.476988978683949">
        <ele>729</ele>
        <time>2009-08-08T07:55:43Z</time>
      </trkpt>
      <trkpt lat="46.493662018328905" lon="11.476615983992815">
        <ele>728</ele>
        <time>2009-08-08T07:56:11Z</time>
      </trkpt>
      <trkpt lat="46.493747010827065" lon="11.476222034543753">
        <ele>727</ele>
        <time>2009-08-08T07:56:40Z</time>
      </trkpt>
      <trkpt lat="46.493804007768631" lon="11.475891033187509">
        <ele>725</ele>
        <time>2009-08-08T07:57:03Z</time>
      </trkpt>
      <trkpt lat="46.493924036622047" lon="11.475559026002884">
        <ele>724</ele>
        <time>2009-08-08T07:57:29Z</time>
      </trkpt>
      <trkpt lat="46.494046999141574" lon="11.475414019078016">
        <ele>727</ele>
        <time>2009-08-08T07:57:45Z</time>
      </trkpt>
      <trkpt lat="46.49410399608314" lon="11.475351992994547">
        <ele>728</ele>
        <time>2009-08-08T07:57:52Z</time>
      </trkpt>
      <trkpt lat="46.49410399608314" lon="11.475206986069679">
        <ele>725</ele>
        <time>2009-08-08T07:58:02Z</time>
      </trkpt>
      <trkpt lat="46.494131991639733" lon="11.475041024386883">
        <ele>723</ele>
        <time>2009-08-08T07:58:14Z</time>
      </trkpt>
      <trkpt lat="46.4941889885813" lon="11.474854024127126">
        <ele>722</ele>
        <time>2009-08-08T07:58:28Z</time>
      </trkpt>
      <trkpt lat="46.494288984686136" lon="11.474667023867369">
        <ele>723</ele>
        <time>2009-08-08T07:58:44Z</time>
      </trkpt>
      <trkpt lat="46.49440398439765" lon="11.474522016942501">
        <ele>725</ele>
        <time>2009-08-08T07:59:00Z</time>
      </trkpt>
      <trkpt lat="46.494488976895809" lon="11.474314983934164">
        <ele>726</ele>
        <time>2009-08-08T07:59:16Z</time>
      </trkpt>
      <trkpt lat="46.494560977444053" lon="11.474108034744859">
        <ele>726</ele>
        <time>2009-08-08T07:59:32Z</time>
      </trkpt>
      <trkpt lat="46.494617974385619" lon="11.473859008401632">
        <ele>725</ele>
        <time>2009-08-08T07:59:50Z</time>
      </trkpt>
      <trkpt lat="46.494631972163916" lon="11.473568994551897">
        <ele>722</ele>
        <time>2009-08-08T08:00:10Z</time>
      </trkpt>
      <trkpt lat="46.494587967172265" lon="11.472718985751271">
        <ele>711</ele>
        <time>2009-08-08T08:01:09Z</time>
      </trkpt>
      <trkpt lat="46.494544968008995" lon="11.471972996369004">
        <ele>706</ele>
        <time>2009-08-08T08:02:01Z</time>
      </trkpt>
      <trkpt lat="46.494534993544221" lon="11.471501011401415">
        <ele>705</ele>
        <time>2009-08-08T08:02:33Z</time>
      </trkpt>
      <trkpt lat="46.494545973837376" lon="11.471307976171374">
        <ele>705</ele>
        <time>2009-08-08T08:02:47Z</time>
      </trkpt>
      <trkpt lat="46.494543040171266" lon="11.471045035868883">
        <ele>704</ele>
        <time>2009-08-08T08:03:05Z</time>
      </trkpt>
      <trkpt lat="46.494538011029363" lon="11.470770025625825">
        <ele>703</ele>
        <time>2009-08-08T08:03:24Z</time>
      </trkpt>
      <trkpt lat="46.494551002979279" lon="11.470559975132346">
        <ele>704</ele>
        <time>2009-08-08T08:03:38Z</time>
      </trkpt>
      <trkpt lat="46.49455402046442" lon="11.470444975420833">
        <ele>705</ele>
        <time>2009-08-08T08:03:46Z</time>
      </trkpt>
      <trkpt lat="46.494516972452402" lon="11.470261998474598">
        <ele>702</ele>
        <time>2009-08-08T08:04:00Z</time>
      </trkpt>
      <trkpt lat="46.49449098855257" lon="11.469774004071951">
        <ele>700</ele>
        <time>2009-08-08T08:04:33Z</time>
      </trkpt>
      <trkpt lat="46.49449098855257" lon="11.469632014632225">
        <ele>700</ele>
        <time>2009-08-08T08:04:43Z</time>
      </trkpt>
      <trkpt lat="46.494502974674106" lon="11.469501005485654">
        <ele>701</ele>
        <time>2009-08-08T08:04:52Z</time>
      </trkpt>
      <trkpt lat="46.49451001547277" lon="11.469392962753773">
        <ele>701</ele>
        <time>2009-08-08T08:05:00Z</time>
      </trkpt>
      <trkpt lat="46.49451001547277" lon="11.469274023547769">
        <ele>701</ele>
        <time>2009-08-08T08:05:08Z</time>
      </trkpt>
      <trkpt lat="46.494540022686124" lon="11.46912801079452">
        <ele>701</ele>
        <time>2009-08-08T08:05:18Z</time>
      </trkpt>
      <trkpt lat="46.494621997699142" lon="11.468991972506046">
        <ele>703</ele>
        <time>2009-08-08T08:05:31Z</time>
      </trkpt>
      <trkpt lat="46.494671031832695" lon="11.468945033848286">
        <ele>705</ele>
        <time>2009-08-08T08:05:37Z</time>
      </trkpt>
      <trkpt lat="46.494720987975597" lon="11.468856018036604">
        <ele>706</ele>
        <time>2009-08-08T08:05:45Z</time>
      </trkpt>
      <trkpt lat="46.49479097686708" lon="11.468691984191537">
        <ele>706</ele>
        <time>2009-08-08T08:05:58Z</time>
      </trkpt>
      <trkpt lat="46.494840011000633" lon="11.468621995300055">
        <ele>708</ele>
        <time>2009-08-08T08:06:05Z</time>
      </trkpt>
      <trkpt lat="46.494871024042368" lon="11.46852602250874">
        <ele>707</ele>
        <time>2009-08-08T08:06:12Z</time>
      </trkpt>
      <trkpt lat="46.494923997670412" lon="11.468428038060665">
        <ele>708</ele>
        <time>2009-08-08T08:06:21Z</time>
      </trkpt>
      <trkpt lat="46.494974959641695" lon="11.468301974236965">
        <ele>707</ele>
        <time>2009-08-08T08:06:31Z</time>
      </trkpt>
      <trkpt lat="46.495007984340191" lon="11.468190997838974">
        <ele>705</ele>
        <time>2009-08-08T08:06:39Z</time>
      </trkpt>
      <trkpt lat="46.495029022917151" lon="11.468121008947492">
        <ele>703</ele>
        <time>2009-08-08T08:06:44Z</time>
      </trkpt>
      <trkpt lat="46.495052995160222" lon="11.468036016449332">
        <ele>701</ele>
        <time>2009-08-08T08:06:51Z</time>
      </trkpt>
      <trkpt lat="46.495066992938519" lon="11.467987988144159">
        <ele>700</ele>
        <time>2009-08-08T08:06:54Z</time>
      </trkpt>
      <trkpt lat="46.49508903734386" lon="11.467953035607934">
        <ele>700</ele>
        <time>2009-08-08T08:06:58Z</time>
      </trkpt>
      <trkpt lat="46.495105968788266" lon="11.467917999252677">
        <ele>699</ele>
        <time>2009-08-08T08:07:01Z</time>
      </trkpt>
      <trkpt lat="46.495169000700116" lon="11.46788296289742">
        <ele>700</ele>
        <time>2009-08-08T08:07:07Z</time>
      </trkpt>
      <trkpt lat="46.49521803483367" lon="11.467834012582898">
        <ele>700</ele>
        <time>2009-08-08T08:07:13Z</time>
      </trkpt>
      <trkpt lat="46.495243012905121" lon="11.46775396540761">
        <ele>698</ele>
        <time>2009-08-08T08:07:19Z</time>
      </trkpt>
      <trkpt lat="46.495244018733501" lon="11.467670984566212">
        <ele>695</ele>
        <time>2009-08-08T08:07:25Z</time>
      </trkpt>
      <trkpt lat="46.495257010683417" lon="11.467565959319472">
        <ele>691</ele>
        <time>2009-08-08T08:07:32Z</time>
      </trkpt>
      <trkpt lat="46.495281988754869" lon="11.467477027326822">
        <ele>689</ele>
        <time>2009-08-08T08:07:39Z</time>
      </trkpt>
      <trkpt lat="46.495331022888422" lon="11.467421958222985">
        <ele>688</ele>
        <time>2009-08-08T08:07:45Z</time>
      </trkpt>
      <trkpt lat="46.495404029265046" lon="11.467372002080083">
        <ele>689</ele>
        <time>2009-08-08T08:07:53Z</time>
      </trkpt>
      <trkpt lat="46.495437975972891" lon="11.467307964339852">
        <ele>687</ele>
        <time>2009-08-08T08:07:59Z</time>
      </trkpt>
      <trkpt lat="46.495462032034993" lon="11.467210985720158">
        <ele>684</ele>
        <time>2009-08-08T08:08:06Z</time>
      </trkpt>
      <trkpt lat="46.495469994843006" lon="11.467121969908476">
        <ele>681</ele>
        <time>2009-08-08T08:08:12Z</time>
      </trkpt>
      <trkpt lat="46.495449962094426" lon="11.466992972418666">
        <ele>675</ele>
        <time>2009-08-08T08:08:21Z</time>
      </trkpt>
      <trkpt lat="46.495450967922807" lon="11.466878978535533">
        <ele>670</ele>
        <time>2009-08-08T08:08:29Z</time>
      </trkpt>
      <trkpt lat="46.49547996930778" lon="11.466795997694135">
        <ele>668</ele>
        <time>2009-08-08T08:08:36Z</time>
      </trkpt>
      <trkpt lat="46.495478041470051" lon="11.466728020459414">
        <ele>665</ele>
        <time>2009-08-08T08:08:40Z</time>
      </trkpt>
      <trkpt lat="46.495461026206613" lon="11.466608997434378">
        <ele>660</ele>
        <time>2009-08-08T08:08:49Z</time>
      </trkpt>
      <trkpt lat="46.495459014549851" lon="11.466534985229373">
        <ele>658</ele>
        <time>2009-08-08T08:08:54Z</time>
      </trkpt>
      <trkpt lat="46.495503019541502" lon="11.466456027701497">
        <ele>657</ele>
        <time>2009-08-08T08:09:01Z</time>
      </trkpt>
      <trkpt lat="46.495526991784573" lon="11.46642099134624">
        <ele>657</ele>
        <time>2009-08-08T08:09:04Z</time>
      </trkpt>
      <trkpt lat="46.495545012876391" lon="11.466366006061435">
        <ele>656</ele>
        <time>2009-08-08T08:09:09Z</time>
      </trkpt>
      <trkpt lat="46.495534032583237" lon="11.466296017169952">
        <ele>653</ele>
        <time>2009-08-08T08:09:14Z</time>
      </trkpt>
      <trkpt lat="46.495552975684404" lon="11.466223010793328">
        <ele>651</ele>
        <time>2009-08-08T08:09:19Z</time>
      </trkpt>
      <trkpt lat="46.495564039796591" lon="11.466201972216368">
        <ele>651</ele>
        <time>2009-08-08T08:09:21Z</time>
      </trkpt>
      <trkpt lat="46.495568985119462" lon="11.466138018295169">
        <ele>649</ele>
        <time>2009-08-08T08:09:25Z</time>
      </trkpt>
      <trkpt lat="46.495602009817958" lon="11.466057971119881">
        <ele>648</ele>
        <time>2009-08-08T08:09:32Z</time>
      </trkpt>
      <trkpt lat="46.49562799371779" lon="11.466015977784991">
        <ele>648</ele>
        <time>2009-08-08T08:09:35Z</time>
      </trkpt>
      <trkpt lat="46.495683984830976" lon="11.465993011370301">
        <ele>650</ele>
        <time>2009-08-08T08:09:41Z</time>
      </trkpt>
      <trkpt lat="46.495755985379219" lon="11.465983036905527">
        <ele>653</ele>
        <time>2009-08-08T08:09:49Z</time>
      </trkpt>
      <trkpt lat="46.495814993977547" lon="11.465977001935244">
        <ele>655</ele>
        <time>2009-08-08T08:09:55Z</time>
      </trkpt>
      <trkpt lat="46.495878025889397" lon="11.465946994721889">
        <ele>658</ele>
        <time>2009-08-08T08:10:01Z</time>
      </trkpt>
      <trkpt lat="46.495910966768861" lon="11.465911036357284">
        <ele>659</ele>
        <time>2009-08-08T08:10:05Z</time>
      </trkpt>
      <trkpt lat="46.49595296010375" lon="11.46584096364677">
        <ele>659</ele>
        <time>2009-08-08T08:10:12Z</time>
      </trkpt>
      <trkpt lat="46.495996965095401" lon="11.465781033039093">
        <ele>661</ele>
        <time>2009-08-08T08:10:18Z</time>
      </trkpt>
      <trkpt lat="46.4960159920156" lon="11.465779021382332">
        <ele>662</ele>
        <time>2009-08-08T08:10:20Z</time>
      </trkpt>
      <trkpt lat="46.496021021157503" lon="11.465761000290513">
        <ele>661</ele>
        <time>2009-08-08T08:10:21Z</time>
      </trkpt>
      <trkpt lat="46.496010040864348" lon="11.465730993077159">
        <ele>660</ele>
        <time>2009-08-08T08:10:23Z</time>
      </trkpt>
      <trkpt lat="46.495966035872698" lon="11.465655975043774">
        <ele>655</ele>
        <time>2009-08-08T08:10:30Z</time>
      </trkpt>
      <trkpt lat="46.495895041152835" lon="11.465342994779348">
        <ele>641</ele>
        <time>2009-08-08T08:10:53Z</time>
      </trkpt>
      <trkpt lat="46.495882971212268" lon="11.465224977582693">
        <ele>637</ele>
        <time>2009-08-08T08:11:01Z</time>
      </trkpt>
      <trkpt lat="46.495896968990564" lon="11.465106038376689">
        <ele>635</ele>
        <time>2009-08-08T08:11:09Z</time>
      </trkpt>
      <trkpt lat="46.495955977588892" lon="11.464994978159666">
        <ele>635</ele>
        <time>2009-08-08T08:11:19Z</time>
      </trkpt>
      <trkpt lat="46.496007023379207" lon="11.464942004531622">
        <ele>638</ele>
        <time>2009-08-08T08:11:25Z</time>
      </trkpt>
      <trkpt lat="46.496082963421941" lon="11.464917026460171">
        <ele>642</ele>
        <time>2009-08-08T08:11:33Z</time>
      </trkpt>
      <trkpt lat="46.496155969798565" lon="11.464909985661507">
        <ele>646</ele>
        <time>2009-08-08T08:11:41Z</time>
      </trkpt>
      <trkpt lat="46.496219001710415" lon="11.464884001761675">
        <ele>649</ele>
        <time>2009-08-08T08:11:47Z</time>
      </trkpt>
      <trkpt lat="46.496259989216924" lon="11.464832033962011">
        <ele>651</ele>
        <time>2009-08-08T08:11:53Z</time>
      </trkpt>
      <trkpt lat="46.49631598033011" lon="11.464718040078878">
        <ele>652</ele>
        <time>2009-08-08T08:12:02Z</time>
      </trkpt>
      <trkpt lat="46.496399966999888" lon="11.464592982083559">
        <ele>655</ele>
        <time>2009-08-08T08:12:14Z</time>
      </trkpt>
      <trkpt lat="46.496421005576849" lon="11.46455098874867">
        <ele>655</ele>
        <time>2009-08-08T08:12:18Z</time>
      </trkpt>
      <trkpt lat="46.496430980041623" lon="11.464482005685568">
        <ele>654</ele>
        <time>2009-08-08T08:12:23Z</time>
      </trkpt>
      <trkpt lat="46.496435003355145" lon="11.464395001530647">
        <ele>653</ele>
        <time>2009-08-08T08:12:29Z</time>
      </trkpt>
      <trkpt lat="46.49642201140523" lon="11.46431596018374">
        <ele>651</ele>
        <time>2009-08-08T08:12:34Z</time>
      </trkpt>
      <trkpt lat="46.496384041383862" lon="11.464237002655864">
        <ele>648</ele>
        <time>2009-08-08T08:12:41Z</time>
      </trkpt>
      <trkpt lat="46.496322015300393" lon="11.46446499042213">
        <ele>649</ele>
        <time>2009-08-08T08:12:58Z</time>
      </trkpt>
      <trkpt lat="46.496297037228942" lon="11.464522993192077">
        <ele>648</ele>
        <time>2009-08-08T08:13:03Z</time>
      </trkpt>
      <trkpt lat="46.496267030015588" lon="11.464577978476882">
        <ele>648</ele>
        <time>2009-08-08T08:13:07Z</time>
      </trkpt>
      <trkpt lat="46.49622998200357" lon="11.464625000953674">
        <ele>646</ele>
        <time>2009-08-08T08:13:12Z</time>
      </trkpt>
      <trkpt lat="46.496190000325441" lon="11.464664982631803">
        <ele>645</ele>
        <time>2009-08-08T08:13:17Z</time>
      </trkpt>
      <trkpt lat="46.496150018647313" lon="11.464689038693905">
        <ele>643</ele>
        <time>2009-08-08T08:13:22Z</time>
      </trkpt>
      <trkpt lat="46.49610199034214" lon="11.464706975966692">
        <ele>641</ele>
        <time>2009-08-08T08:13:27Z</time>
      </trkpt>
      <trkpt lat="46.496028983965516" lon="11.464715022593737">
        <ele>637</ele>
        <time>2009-08-08T08:13:34Z</time>
      </trkpt>
      <trkpt lat="46.496010962873697" lon="11.464709993451834">
        <ele>636</ele>
        <time>2009-08-08T08:13:36Z</time>
      </trkpt>
      <trkpt lat="46.49599595926702" lon="11.464695995673537">
        <ele>635</ele>
        <time>2009-08-08T08:13:38Z</time>
      </trkpt>
      <trkpt lat="46.495985984802246" lon="11.464673029258847">
        <ele>634</ele>
        <time>2009-08-08T08:13:39Z</time>
      </trkpt>
      <trkpt lat="46.495982967317104" lon="11.464646039530635">
        <ele>633</ele>
        <time>2009-08-08T08:13:41Z</time>
      </trkpt>
      <trkpt lat="46.495982967317104" lon="11.464618965983391">
        <ele>633</ele>
        <time>2009-08-08T08:13:43Z</time>
      </trkpt>
      <trkpt lat="46.495989002287388" lon="11.46459499374032">
        <ele>633</ele>
        <time>2009-08-08T08:13:45Z</time>
      </trkpt>
      <trkpt lat="46.495998976752162" lon="11.464577978476882">
        <ele>634</ele>
        <time>2009-08-08T08:13:47Z</time>
      </trkpt>
      <trkpt lat="46.496010962873697" lon="11.464564986526966">
        <ele>634</ele>
        <time>2009-08-08T08:13:48Z</time>
      </trkpt>
      <trkpt lat="46.496049016714096" lon="11.464547971263528">
        <ele>636</ele>
        <time>2009-08-08T08:13:52Z</time>
      </trkpt>
      <trkpt lat="46.496073994785547" lon="11.464531039819121">
        <ele>637</ele>
        <time>2009-08-08T08:13:55Z</time>
      </trkpt>
      <trkpt lat="46.496096961200237" lon="11.464510001242161">
        <ele>638</ele>
        <time>2009-08-08T08:13:57Z</time>
      </trkpt>
      <trkpt lat="46.496112970635295" lon="11.464489968493581">
        <ele>638</ele>
        <time>2009-08-08T08:14:00Z</time>
      </trkpt>
      <trkpt lat="46.496126968413591" lon="11.464462978765368">
        <ele>639</ele>
        <time>2009-08-08T08:14:02Z</time>
      </trkpt>
      <trkpt lat="46.496130991727114" lon="11.464417967945337">
        <ele>638</ele>
        <time>2009-08-08T08:14:05Z</time>
      </trkpt>
      <trkpt lat="46.496129985898733" lon="11.464382009580731">
        <ele>638</ele>
        <time>2009-08-08T08:14:07Z</time>
      </trkpt>
      <trkpt lat="46.496125040575862" lon="11.464355019852519">
        <ele>637</ele>
        <time>2009-08-08T08:14:09Z</time>
      </trkpt>
      <trkpt lat="46.496120011433959" lon="11.464321995154023">
        <ele>637</ele>
        <time>2009-08-08T08:14:12Z</time>
      </trkpt>
      <trkpt lat="46.496106013655663" lon="11.464284025132656">
        <ele>636</ele>
        <time>2009-08-08T08:14:15Z</time>
      </trkpt>
      <trkpt lat="46.496023032814264" lon="11.464132983237505">
        <ele>631</ele>
        <time>2009-08-08T08:14:28Z</time>
      </trkpt>
      <trkpt lat="46.496009035035968" lon="11.464102976024151">
        <ele>631</ele>
        <time>2009-08-08T08:14:30Z</time>
      </trkpt>
      <trkpt lat="46.495967963710427" lon="11.464050002396107">
        <ele>629</ele>
        <time>2009-08-08T08:14:36Z</time>
      </trkpt>
      <trkpt lat="46.495934017002583" lon="11.463976996019483">
        <ele>629</ele>
        <time>2009-08-08T08:14:42Z</time>
      </trkpt>
      <trkpt lat="46.495903003960848" lon="11.463860990479589">
        <ele>629</ele>
        <time>2009-08-08T08:14:51Z</time>
      </trkpt>
      <trkpt lat="46.495892023667693" lon="11.463767029345036">
        <ele>629</ele>
        <time>2009-08-08T08:14:57Z</time>
      </trkpt>
      <trkpt lat="46.495862016454339" lon="11.463687987998128">
        <ele>629</ele>
        <time>2009-08-08T08:15:03Z</time>
      </trkpt>
      <trkpt lat="46.495827985927463" lon="11.463623028248549">
        <ele>628</ele>
        <time>2009-08-08T08:15:09Z</time>
      </trkpt>
      <trkpt lat="46.495812982320786" lon="11.463540969416499">
        <ele>628</ele>
        <time>2009-08-08T08:15:15Z</time>
      </trkpt>
      <trkpt lat="46.495789010077715" lon="11.46328498609364">
        <ele>631</ele>
        <time>2009-08-08T08:15:33Z</time>
      </trkpt>
      <trkpt lat="46.495760008692741" lon="11.463087005540729">
        <ele>635</ele>
        <time>2009-08-08T08:15:47Z</time>
      </trkpt>
      <trkpt lat="46.4957379642874" lon="11.46291802637279">
        <ele>639</ele>
        <time>2009-08-08T08:15:58Z</time>
      </trkpt>
      <trkpt lat="46.495703011751175" lon="11.462799003347754">
        <ele>641</ele>
        <time>2009-08-08T08:16:07Z</time>
      </trkpt>
      <trkpt lat="46.49564903229475" lon="11.462661037221551">
        <ele>642</ele>
        <time>2009-08-08T08:16:18Z</time>
      </trkpt>
      <trkpt lat="46.495597986504436" lon="11.46248996257782">
        <ele>644</ele>
        <time>2009-08-08T08:16:31Z</time>
      </trkpt>
      <trkpt lat="46.495553981512785" lon="11.462298016995192">
        <ele>646</ele>
        <time>2009-08-08T08:16:45Z</time>
      </trkpt>
      <trkpt lat="46.495478041470051" lon="11.462077992036939">
        <ele>647</ele>
        <time>2009-08-08T08:17:02Z</time>
      </trkpt>
      <trkpt lat="46.495395982638001" lon="11.461902977898717">
        <ele>646</ele>
        <time>2009-08-08T08:17:17Z</time>
      </trkpt>
      <trkpt lat="46.495291041210294" lon="11.461689993739128">
        <ele>646</ele>
        <time>2009-08-08T08:17:35Z</time>
      </trkpt>
      <trkpt lat="46.495142010971904" lon="11.461409032344818">
        <ele>644</ele>
        <time>2009-08-08T08:17:59Z</time>
      </trkpt>
      <trkpt lat="46.494959034025669" lon="11.460940986871719">
        <ele>648</ele>
        <time>2009-08-08T08:18:36Z</time>
      </trkpt>
      <trkpt lat="46.494909999892116" lon="11.460691960528493">
        <ele>648</ele>
        <time>2009-08-08T08:18:54Z</time>
      </trkpt>
      <trkpt lat="46.494873035699129" lon="11.460573021322489">
        <ele>648</ele>
        <time>2009-08-08T08:19:03Z</time>
      </trkpt>
      <trkpt lat="46.494870018213987" lon="11.46049196831882">
        <ele>648</ele>
        <time>2009-08-08T08:19:09Z</time>
      </trkpt>
      <trkpt lat="46.494902037084103" lon="11.460428014397621">
        <ele>648</ele>
        <time>2009-08-08T08:19:14Z</time>
      </trkpt>
      <trkpt lat="46.494964985176921" lon="11.460330029949546">
        <ele>635</ele>
        <time>2009-08-08T08:19:24Z</time>
      </trkpt>
      <trkpt lat="46.494989963248372" lon="11.460283007472754">
        <ele>635</ele>
        <time>2009-08-08T08:19:28Z</time>
      </trkpt>
      <trkpt lat="46.495017036795616" lon="11.460197009146214">
        <ele>639</ele>
        <time>2009-08-08T08:19:34Z</time>
      </trkpt>
      <trkpt lat="46.495050983503461" lon="11.460130959749222">
        <ele>639</ele>
        <time>2009-08-08T08:19:40Z</time>
      </trkpt>
      <trkpt lat="46.495089959353209" lon="11.460084021091461">
        <ele>640</ele>
        <time>2009-08-08T08:19:45Z</time>
      </trkpt>
      <trkpt lat="46.495159026235342" lon="11.460014032199979">
        <ele>642</ele>
        <time>2009-08-08T08:19:54Z</time>
      </trkpt>
      <trkpt lat="46.495246030390263" lon="11.459919987246394">
        <ele>642</ele>
        <time>2009-08-08T08:20:04Z</time>
      </trkpt>
      <trkpt lat="46.495310990139842" lon="11.459789983928204">
        <ele>640</ele>
        <time>2009-08-08T08:20:15Z</time>
      </trkpt>
      <trkpt lat="46.495334962382913" lon="11.459688981994987">
        <ele>638</ele>
        <time>2009-08-08T08:20:23Z</time>
      </trkpt>
      <trkpt lat="46.495366981253028" lon="11.459595020860434">
        <ele>637</ele>
        <time>2009-08-08T08:20:30Z</time>
      </trkpt>
      <trkpt lat="46.49543596431613" lon="11.459483038634062">
        <ele>636</ele>
        <time>2009-08-08T08:20:40Z</time>
      </trkpt>
      <trkpt lat="46.495513999834657" lon="11.459398968145251">
        <ele>637</ele>
        <time>2009-08-08T08:20:50Z</time>
      </trkpt>
      <trkpt lat="46.495597986504436" lon="11.459353035315871">
        <ele>640</ele>
        <time>2009-08-08T08:20:59Z</time>
      </trkpt>
      <trkpt lat="46.495690019801259" lon="11.45926502533257">
        <ele>642</ele>
        <time>2009-08-08T08:21:10Z</time>
      </trkpt>
      <trkpt lat="46.495739975944161" lon="11.459255972877145">
        <ele>645</ele>
        <time>2009-08-08T08:21:15Z</time>
      </trkpt>
      <trkpt lat="46.495769983157516" lon="11.45928799174726">
        <ele>647</ele>
        <time>2009-08-08T08:21:19Z</time>
      </trkpt>
      <trkpt lat="46.495779035612941" lon="11.459328979253769">
        <ele>648</ele>
        <time>2009-08-08T08:21:22Z</time>
      </trkpt>
      <trkpt lat="46.495765959843993" lon="11.4593739900738">
        <ele>649</ele>
        <time>2009-08-08T08:21:25Z</time>
      </trkpt>
      <trkpt lat="46.49573695845902" lon="11.459456970915198">
        <ele>650</ele>
        <time>2009-08-08T08:21:32Z</time>
      </trkpt>
      <trkpt lat="46.49567199870944" lon="11.459554033353925">
        <ele>649</ele>
        <time>2009-08-08T08:21:41Z</time>
      </trkpt>
      <trkpt lat="46.495619025081396" lon="11.459597032517195">
        <ele>648</ele>
        <time>2009-08-08T08:21:47Z</time>
      </trkpt>
      <trkpt lat="46.495588012039661" lon="11.459657968953252">
        <ele>648</ele>
        <time>2009-08-08T08:21:52Z</time>
      </trkpt>
      <trkpt lat="46.495554987341166" lon="11.459775986149907">
        <ele>650</ele>
        <time>2009-08-08T08:22:01Z</time>
      </trkpt>
      <trkpt lat="46.495532020926476" lon="11.459939014166594">
        <ele>654</ele>
        <time>2009-08-08T08:22:13Z</time>
      </trkpt>
      <trkpt lat="46.495531015098095" lon="11.460129031911492">
        <ele>658</ele>
        <time>2009-08-08T08:22:26Z</time>
      </trkpt>
      <trkpt lat="46.495538977906108" lon="11.46019097417593">
        <ele>659</ele>
        <time>2009-08-08T08:22:30Z</time>
      </trkpt>
      <trkpt lat="46.495594969019294" lon="11.460245037451386">
        <ele>662</ele>
        <time>2009-08-08T08:22:37Z</time>
      </trkpt>
      <trkpt lat="46.495730001479387" lon="11.460288036614656">
        <ele>667</ele>
        <time>2009-08-08T08:22:51Z</time>
      </trkpt>
      <trkpt lat="46.495857993140817" lon="11.460332963615656">
        <ele>672</ele>
        <time>2009-08-08T08:23:04Z</time>
      </trkpt>
      <trkpt lat="46.495925970375538" lon="11.460331035777926">
        <ele>671</ele>
        <time>2009-08-08T08:23:11Z</time>
      </trkpt>
      <trkpt lat="46.495969975367188" lon="11.460321983322501">
        <ele>671</ele>
        <time>2009-08-08T08:23:15Z</time>
      </trkpt>
      <trkpt lat="46.496077012270689" lon="11.460240008309484">
        <ele>669</ele>
        <time>2009-08-08T08:23:27Z</time>
      </trkpt>
      <trkpt lat="46.496136020869017" lon="11.460210001096129">
        <ele>668</ele>
        <time>2009-08-08T08:23:34Z</time>
      </trkpt>
      <trkpt lat="46.496224030852318" lon="11.460182005539536">
        <ele>667</ele>
        <time>2009-08-08T08:23:43Z</time>
      </trkpt>
      <trkpt lat="46.496257977560163" lon="11.460191980004311">
        <ele>666</ele>
        <time>2009-08-08T08:23:46Z</time>
      </trkpt>
      <trkpt lat="46.496330983936787" lon="11.460202960297465">
        <ele>666</ele>
        <time>2009-08-08T08:23:53Z</time>
      </trkpt>
      <trkpt lat="46.49635897949338" lon="11.460200026631355">
        <ele>666</ele>
        <time>2009-08-08T08:23:56Z</time>
      </trkpt>
      <trkpt lat="46.496367026120424" lon="11.460207989439368">
        <ele>666</ele>
        <time>2009-08-08T08:23:57Z</time>
      </trkpt>
      <trkpt lat="46.496369959786534" lon="11.460227016359568">
        <ele>666</ele>
        <time>2009-08-08T08:23:58Z</time>
      </trkpt>
      <trkpt lat="46.49635897949338" lon="11.460351990535855">
        <ele>669</ele>
        <time>2009-08-08T08:24:07Z</time>
      </trkpt>
      <trkpt lat="46.496338024735451" lon="11.46053496748209">
        <ele>672</ele>
        <time>2009-08-08T08:24:20Z</time>
      </trkpt>
      <trkpt lat="46.496322015300393" lon="11.460611997172236">
        <ele>674</ele>
        <time>2009-08-08T08:24:26Z</time>
      </trkpt>
      <trkpt lat="46.496284967288375" lon="11.460664970800281">
        <ele>675</ele>
        <time>2009-08-08T08:24:31Z</time>
      </trkpt>
      <trkpt lat="46.496257977560163" lon="11.460728002712131">
        <ele>676</ele>
        <time>2009-08-08T08:24:36Z</time>
      </trkpt>
      <trkpt lat="46.496252026408911" lon="11.46083596162498">
        <ele>678</ele>
        <time>2009-08-08T08:24:43Z</time>
      </trkpt>
      <trkpt lat="46.49625001475215" lon="11.46092195995152">
        <ele>678</ele>
        <time>2009-08-08T08:24:49Z</time>
      </trkpt>
      <trkpt lat="46.496274992823601" lon="11.461036037653685">
        <ele>678</ele>
        <time>2009-08-08T08:24:58Z</time>
      </trkpt>
      <trkpt lat="46.496305000036955" lon="11.461138967424631">
        <ele>679</ele>
        <time>2009-08-08T08:25:05Z</time>
      </trkpt>
      <trkpt lat="46.49635998532176" lon="11.46126301959157">
        <ele>679</ele>
        <time>2009-08-08T08:25:15Z</time>
      </trkpt>
      <trkpt lat="46.496427962556481" lon="11.461381036788225">
        <ele>680</ele>
        <time>2009-08-08T08:25:26Z</time>
      </trkpt>
      <trkpt lat="46.496515972539783" lon="11.46152202039957">
        <ele>682</ele>
        <time>2009-08-08T08:25:39Z</time>
      </trkpt>
      <trkpt lat="46.496568024158478" lon="11.461634002625942">
        <ele>684</ele>
        <time>2009-08-08T08:25:49Z</time>
      </trkpt>
      <trkpt lat="46.496599037200212" lon="11.461741961538792">
        <ele>684</ele>
        <time>2009-08-08T08:25:57Z</time>
      </trkpt>
      <trkpt lat="46.496632983908057" lon="11.461879005655646">
        <ele>685</ele>
        <time>2009-08-08T08:26:07Z</time>
      </trkpt>
      <trkpt lat="46.496695009991527" lon="11.461984030902386">
        <ele>685</ele>
        <time>2009-08-08T08:26:16Z</time>
      </trkpt>
      <trkpt lat="46.496761981397867" lon="11.462048990651965">
        <ele>684</ele>
        <time>2009-08-08T08:26:24Z</time>
      </trkpt>
      <trkpt lat="46.496820989996195" lon="11.462082015350461">
        <ele>684</ele>
        <time>2009-08-08T08:26:30Z</time>
      </trkpt>
      <trkpt lat="46.496868012472987" lon="11.462106993421912">
        <ele>684</ele>
        <time>2009-08-08T08:26:36Z</time>
      </trkpt>
      <trkpt lat="46.49691604077816" lon="11.462144963443279">
        <ele>684</ele>
        <time>2009-08-08T08:26:41Z</time>
      </trkpt>
      <trkpt lat="46.496977983042598" lon="11.462230961769819">
        <ele>684</ele>
        <time>2009-08-08T08:26:50Z</time>
      </trkpt>
      <trkpt lat="46.497012013569474" lon="11.462283013388515">
        <ele>685</ele>
        <time>2009-08-08T08:26:55Z</time>
      </trkpt>
      <trkpt lat="46.497061969712377" lon="11.462340010330081">
        <ele>685</ele>
        <time>2009-08-08T08:27:01Z</time>
      </trkpt>
      <trkpt lat="46.497121984139085" lon="11.46240497007966">
        <ele>686</ele>
        <time>2009-08-08T08:27:08Z</time>
      </trkpt>
      <trkpt lat="46.497200019657612" lon="11.462515024468303">
        <ele>687</ele>
        <time>2009-08-08T08:27:19Z</time>
      </trkpt>
      <trkpt lat="46.497302027419209" lon="11.462609991431236">
        <ele>687</ele>
        <time>2009-08-08T08:27:32Z</time>
      </trkpt>
      <trkpt lat="46.497417027130723" lon="11.462647961452603">
        <ele>688</ele>
        <time>2009-08-08T08:27:43Z</time>
      </trkpt>
      <trkpt lat="46.497550969943404" lon="11.462650978937745">
        <ele>689</ele>
        <time>2009-08-08T08:27:57Z</time>
      </trkpt>
      <trkpt lat="46.497691031545401" lon="11.462650978937745">
        <ele>687</ele>
        <time>2009-08-08T08:28:11Z</time>
      </trkpt>
      <trkpt lat="46.497764959931374" lon="11.462633963674307">
        <ele>687</ele>
        <time>2009-08-08T08:28:18Z</time>
      </trkpt>
      <trkpt lat="46.497890017926693" lon="11.462606973946095">
        <ele>686</ele>
        <time>2009-08-08T08:28:31Z</time>
      </trkpt>
      <trkpt lat="46.497975010424852" lon="11.462628012523055">
        <ele>685</ele>
        <time>2009-08-08T08:28:40Z</time>
      </trkpt>
      <trkpt lat="46.498011974617839" lon="11.462671011686325">
        <ele>685</ele>
        <time>2009-08-08T08:28:44Z</time>
      </trkpt>
      <trkpt lat="46.498035024851561" lon="11.462723985314369">
        <ele>685</ele>
        <time>2009-08-08T08:28:49Z</time>
      </trkpt>
      <trkpt lat="46.498070983216166" lon="11.462833033874631">
        <ele>686</ele>
        <time>2009-08-08T08:28:57Z</time>
      </trkpt>
      <trkpt lat="46.498113982379436" lon="11.46298298612237">
        <ele>687</ele>
        <time>2009-08-08T08:29:08Z</time>
      </trkpt>
      <trkpt lat="46.498179025948048" lon="11.463142996653914">
        <ele>688</ele>
        <time>2009-08-08T08:29:21Z</time>
      </trkpt>
      <trkpt lat="46.498189000412822" lon="11.463216003030539">
        <ele>689</ele>
        <time>2009-08-08T08:29:26Z</time>
      </trkpt>
      <trkpt lat="46.498181959614158" lon="11.463336031883955">
        <ele>690</ele>
        <time>2009-08-08T08:29:34Z</time>
      </trkpt>
      <trkpt lat="46.498175002634525" lon="11.463461006060243">
        <ele>690</ele>
        <time>2009-08-08T08:29:43Z</time>
      </trkpt>
      <trkpt lat="46.498152036219835" lon="11.463576005771756">
        <ele>690</ele>
        <time>2009-08-08T08:29:51Z</time>
      </trkpt>
      <trkpt lat="46.498111970722675" lon="11.463717995211482">
        <ele>690</ele>
        <time>2009-08-08T08:30:02Z</time>
      </trkpt>
      <trkpt lat="46.498107025399804" lon="11.463748002424836">
        <ele>690</ele>
        <time>2009-08-08T08:30:04Z</time>
      </trkpt>
      <trkpt lat="46.498121023178101" lon="11.463769963011146">
        <ele>690</ele>
        <time>2009-08-08T08:30:06Z</time>
      </trkpt>
      <trkpt lat="46.498137032613158" lon="11.463802987709641">
        <ele>690</ele>
        <time>2009-08-08T08:30:09Z</time>
      </trkpt>
      <trkpt lat="46.498147007077932" lon="11.463870964944363">
        <ele>690</ele>
        <time>2009-08-08T08:30:14Z</time>
      </trkpt>
      <trkpt lat="46.498165028169751" lon="11.464097024872899">
        <ele>691</ele>
        <time>2009-08-08T08:30:29Z</time>
      </trkpt>
      <trkpt lat="46.498183971270919" lon="11.46422702819109">
        <ele>692</ele>
        <time>2009-08-08T08:30:39Z</time>
      </trkpt>
      <trkpt lat="46.498209033161402" lon="11.464321995154023">
        <ele>693</ele>
        <time>2009-08-08T08:30:46Z</time>
      </trkpt>
      <trkpt lat="46.49824901483953" lon="11.46440195851028">
        <ele>694</ele>
        <time>2009-08-08T08:30:52Z</time>
      </trkpt>
      <trkpt lat="46.498364014551044" lon="11.464562974870205">
        <ele>695</ele>
        <time>2009-08-08T08:31:08Z</time>
      </trkpt>
      <trkpt lat="46.498493012040854" lon="11.464801020920277">
        <ele>696</ele>
        <time>2009-08-08T08:31:29Z</time>
      </trkpt>
      <trkpt lat="46.498541040346026" lon="11.464906968176365">
        <ele>696</ele>
        <time>2009-08-08T08:31:38Z</time>
      </trkpt>
      <trkpt lat="46.498587979003787" lon="11.465022973716259">
        <ele>697</ele>
        <time>2009-08-08T08:31:47Z</time>
      </trkpt>
      <trkpt lat="46.49865897372365" lon="11.465154988691211">
        <ele>698</ele>
        <time>2009-08-08T08:31:59Z</time>
      </trkpt>
      <trkpt lat="46.498697027564049" lon="11.465205028653145">
        <ele>699</ele>
        <time>2009-08-08T08:32:04Z</time>
      </trkpt>
      <trkpt lat="46.498742960393429" lon="11.465251967310905">
        <ele>699</ele>
        <time>2009-08-08T08:32:10Z</time>
      </trkpt>
      <trkpt lat="46.498793000355363" lon="11.465321034193039">
        <ele>699</ele>
        <time>2009-08-08T08:32:17Z</time>
      </trkpt>
      <trkpt lat="46.498854020610452" lon="11.465362021699548">
        <ele>699</ele>
        <time>2009-08-08T08:32:23Z</time>
      </trkpt>
      <trkpt lat="46.498909005895257" lon="11.465394040569663">
        <ele>698</ele>
        <time>2009-08-08T08:32:29Z</time>
      </trkpt>
      <trkpt lat="46.498993998393416" lon="11.46541097201407">
        <ele>697</ele>
        <time>2009-08-08T08:32:38Z</time>
      </trkpt>
      <trkpt lat="46.499057030305266" lon="11.465439973399043">
        <ele>697</ele>
        <time>2009-08-08T08:32:45Z</time>
      </trkpt>
      <trkpt lat="46.499096006155014" lon="11.465499987825751">
        <ele>697</ele>
        <time>2009-08-08T08:32:50Z</time>
      </trkpt>
      <trkpt lat="46.499132970348001" lon="11.465572994202375">
        <ele>697</ele>
        <time>2009-08-08T08:32:57Z</time>
      </trkpt>
      <trkpt lat="46.499137999489903" lon="11.465595960617065">
        <ele>698</ele>
        <time>2009-08-08T08:32:58Z</time>
      </trkpt>
      <trkpt lat="46.499130958691239" lon="11.46562403999269">
        <ele>698</ele>
        <time>2009-08-08T08:33:00Z</time>
      </trkpt>
      <trkpt lat="46.499112015590072" lon="11.465651029720902">
        <ele>699</ele>
        <time>2009-08-08T08:33:03Z</time>
      </trkpt>
      <trkpt lat="46.499061975628138" lon="11.46569000557065">
        <ele>700</ele>
        <time>2009-08-08T08:33:09Z</time>
      </trkpt>
      <trkpt lat="46.498988969251513" lon="11.465794024989009">
        <ele>702</ele>
        <time>2009-08-08T08:33:19Z</time>
      </trkpt>
      <trkpt lat="46.499076979234815" lon="11.465758988633752">
        <ele>701</ele>
        <time>2009-08-08T08:33:28Z</time>
      </trkpt>
      <trkpt lat="46.499163983389735" lon="11.465726969763637">
        <ele>699</ele>
        <time>2009-08-08T08:33:37Z</time>
      </trkpt>
      <trkpt lat="46.499261967837811" lon="11.465677013620734">
        <ele>695</ele>
        <time>2009-08-08T08:33:48Z</time>
      </trkpt>
      <trkpt lat="46.499365987256169" lon="11.465601995587349">
        <ele>690</ele>
        <time>2009-08-08T08:33:59Z</time>
      </trkpt>
      <trkpt lat="46.499470006674528" lon="11.465514991432428">
        <ele>686</ele>
        <time>2009-08-08T08:34:11Z</time>
      </trkpt>
      <trkpt lat="46.499504959210753" lon="11.465480960905552">
        <ele>684</ele>
        <time>2009-08-08T08:34:15Z</time>
      </trkpt>
      <trkpt lat="46.49953898973763" lon="11.465501999482512">
        <ele>683</ele>
        <time>2009-08-08T08:34:19Z</time>
      </trkpt>
      <trkpt lat="46.499633034691215" lon="11.465536030009389">
        <ele>680</ele>
        <time>2009-08-08T08:34:29Z</time>
      </trkpt>
      <trkpt lat="46.499682990834117" lon="11.465564025565982">
        <ele>679</ele>
        <time>2009-08-08T08:34:34Z</time>
      </trkpt>
      <trkpt lat="46.499777035787702" lon="11.465636026114225">
        <ele>677</ele>
        <time>2009-08-08T08:34:45Z</time>
      </trkpt>
      <trkpt lat="46.499863034114242" lon="11.465673996135592">
        <ele>674</ele>
        <time>2009-08-08T08:34:54Z</time>
      </trkpt>
      <trkpt lat="46.499907961115241" lon="11.465721018612385">
        <ele>673</ele>
        <time>2009-08-08T08:34:59Z</time>
      </trkpt>
      <trkpt lat="46.499934028834105" lon="11.465814979746938">
        <ele>674</ele>
        <time>2009-08-08T08:35:06Z</time>
      </trkpt>
      <trkpt lat="46.49996998719871" lon="11.465940037742257">
        <ele>674</ele>
        <time>2009-08-08T08:35:16Z</time>
      </trkpt>
      <trkpt lat="46.499993959441781" lon="11.466051014140248">
        <ele>675</ele>
        <time>2009-08-08T08:35:24Z</time>
      </trkpt>
      <trkpt lat="46.500022960826755" lon="11.466128965839744">
        <ele>674</ele>
        <time>2009-08-08T08:35:30Z</time>
      </trkpt>
      <trkpt lat="46.500065959990025" lon="11.466239020228386">
        <ele>674</ele>
        <time>2009-08-08T08:35:39Z</time>
      </trkpt>
      <trkpt lat="46.500114994123578" lon="11.466406993567944">
        <ele>674</ele>
        <time>2009-08-08T08:35:51Z</time>
      </trkpt>
      <trkpt lat="46.500177020207047" lon="11.466571027413011">
        <ele>673</ele>
        <time>2009-08-08T08:36:04Z</time>
      </trkpt>
      <trkpt lat="46.500233011320233" lon="11.466743024066091">
        <ele>674</ele>
        <time>2009-08-08T08:36:17Z</time>
      </trkpt>
      <trkpt lat="46.500289002433419" lon="11.466898005455732">
        <ele>676</ele>
        <time>2009-08-08T08:36:29Z</time>
      </trkpt>
      <trkpt lat="46.500363014638424" lon="11.467004958540201">
        <ele>676</ele>
        <time>2009-08-08T08:36:40Z</time>
      </trkpt>
      <trkpt lat="46.500437026843429" lon="11.467125993221998">
        <ele>677</ele>
        <time>2009-08-08T08:36:51Z</time>
      </trkpt>
      <trkpt lat="46.500532999634743" lon="11.467239987105131">
        <ele>677</ele>
        <time>2009-08-08T08:37:03Z</time>
      </trkpt>
      <trkpt lat="46.500616986304522" lon="11.467375019565225">
        <ele>678</ele>
        <time>2009-08-08T08:37:16Z</time>
      </trkpt>
      <trkpt lat="46.50069703347981" lon="11.467502005398273">
        <ele>679</ele>
        <time>2009-08-08T08:37:28Z</time>
      </trkpt>
      <trkpt lat="46.500739026814699" lon="11.467588003724813">
        <ele>680</ele>
        <time>2009-08-08T08:37:35Z</time>
      </trkpt>
      <trkpt lat="46.500755036249757" lon="11.467612981796265">
        <ele>680</ele>
        <time>2009-08-08T08:37:38Z</time>
      </trkpt>
      <trkpt lat="46.500790994614363" lon="11.467628991231322">
        <ele>679</ele>
        <time>2009-08-08T08:37:41Z</time>
      </trkpt>
      <trkpt lat="46.500833993777633" lon="11.467610970139503">
        <ele>678</ele>
        <time>2009-08-08T08:37:46Z</time>
      </trkpt>
      <trkpt lat="46.500897025689483" lon="11.467574005946517">
        <ele>676</ele>
        <time>2009-08-08T08:37:53Z</time>
      </trkpt>
      <trkpt lat="46.500916974619031" lon="11.46753896959126">
        <ele>675</ele>
        <time>2009-08-08T08:37:56Z</time>
      </trkpt>
      <trkpt lat="46.50093600153923" lon="11.467450959607959">
        <ele>672</ele>
        <time>2009-08-08T08:38:02Z</time>
      </trkpt>
      <trkpt lat="46.50095502845943" lon="11.467364961281419">
        <ele>670</ele>
        <time>2009-08-08T08:38:08Z</time>
      </trkpt>
      <trkpt lat="46.500994004309177" lon="11.467271000146866">
        <ele>666</ele>
        <time>2009-08-08T08:38:16Z</time>
      </trkpt>
      <trkpt lat="46.501037003472447" lon="11.46721500903368">
        <ele>664</ele>
        <time>2009-08-08T08:38:22Z</time>
      </trkpt>
      <trkpt lat="46.50108402594924" lon="11.467182990163565">
        <ele>662</ele>
        <time>2009-08-08T08:38:27Z</time>
      </trkpt>
      <trkpt lat="46.501144962385297" lon="11.467192964628339">
        <ele>662</ele>
        <time>2009-08-08T08:38:33Z</time>
      </trkpt>
      <trkpt lat="46.501216040924191" lon="11.467208974063396">
        <ele>661</ele>
        <time>2009-08-08T08:38:40Z</time>
      </trkpt>
      <trkpt lat="46.501311007887125" lon="11.467253984883428">
        <ele>662</ele>
        <time>2009-08-08T08:38:50Z</time>
      </trkpt>
      <trkpt lat="46.501377979293466" lon="11.467292960733175">
        <ele>662</ele>
        <time>2009-08-08T08:38:58Z</time>
      </trkpt>
      <trkpt lat="46.501418966799974" lon="11.467337971553206">
        <ele>663</ele>
        <time>2009-08-08T08:39:03Z</time>
      </trkpt>
      <trkpt lat="46.501476969569921" lon="11.467411983758211">
        <ele>665</ele>
        <time>2009-08-08T08:39:10Z</time>
      </trkpt>
      <trkpt lat="46.501552993431687" lon="11.46753896959126">
        <ele>668</ele>
        <time>2009-08-08T08:39:22Z</time>
      </trkpt>
      <trkpt lat="46.501638991758227" lon="11.467657992616296">
        <ele>670</ele>
        <time>2009-08-08T08:39:34Z</time>
      </trkpt>
      <trkpt lat="46.501702023670077" lon="11.467755977064371">
        <ele>671</ele>
        <time>2009-08-08T08:39:43Z</time>
      </trkpt>
      <trkpt lat="46.501737982034683" lon="11.467829989269376">
        <ele>672</ele>
        <time>2009-08-08T08:39:49Z</time>
      </trkpt>
      <trkpt lat="46.501779975369573" lon="11.467950018122792">
        <ele>673</ele>
        <time>2009-08-08T08:39:59Z</time>
      </trkpt>
      <trkpt lat="46.501849964261055" lon="11.468067029491067">
        <ele>674</ele>
        <time>2009-08-08T08:40:09Z</time>
      </trkpt>
      <trkpt lat="46.501973010599613" lon="11.468216981738806">
        <ele>675</ele>
        <time>2009-08-08T08:40:25Z</time>
      </trkpt>
      <trkpt lat="46.502063032239676" lon="11.468321001157165">
        <ele>675</ele>
        <time>2009-08-08T08:40:37Z</time>
      </trkpt>
      <trkpt lat="46.502141989767551" lon="11.468438012525439">
        <ele>676</ele>
        <time>2009-08-08T08:40:48Z</time>
      </trkpt>
      <trkpt lat="46.502235028892756" lon="11.468533985316753">
        <ele>676</ele>
        <time>2009-08-08T08:41:00Z</time>
      </trkpt>
      <trkpt lat="46.502302000299096" lon="11.468586958944798">
        <ele>676</ele>
        <time>2009-08-08T08:41:07Z</time>
      </trkpt>
      <trkpt lat="46.502364026382565" lon="11.46861202083528">
        <ele>676</ele>
        <time>2009-08-08T08:41:14Z</time>
      </trkpt>
      <trkpt lat="46.502429991960526" lon="11.468642028048635">
        <ele>675</ele>
        <time>2009-08-08T08:41:21Z</time>
      </trkpt>
      <trkpt lat="46.502487994730473" lon="11.468689972534776">
        <ele>675</ele>
        <time>2009-08-08T08:41:27Z</time>
      </trkpt>
      <trkpt lat="46.502536023035645" lon="11.468748981133103">
        <ele>676</ele>
        <time>2009-08-08T08:41:34Z</time>
      </trkpt>
      <trkpt lat="46.50256703607738" lon="11.468812013044953">
        <ele>677</ele>
        <time>2009-08-08T08:41:39Z</time>
      </trkpt>
      <trkpt lat="46.50261196307838" lon="11.468908991664648">
        <ele>678</ele>
        <time>2009-08-08T08:41:47Z</time>
      </trkpt>
      <trkpt lat="46.502646999433637" lon="11.46897797472775">
        <ele>679</ele>
        <time>2009-08-08T08:41:53Z</time>
      </trkpt>
      <trkpt lat="46.50265596807003" lon="11.46904201246798">
        <ele>681</ele>
        <time>2009-08-08T08:41:58Z</time>
      </trkpt>
      <trkpt lat="46.502694021910429" lon="11.469117030501366">
        <ele>682</ele>
        <time>2009-08-08T08:42:04Z</time>
      </trkpt>
      <trkpt lat="46.502797035500407" lon="11.469207974150777">
        <ele>681</ele>
        <time>2009-08-08T08:42:16Z</time>
      </trkpt>
      <trkpt lat="46.502899965271354" lon="11.469280980527401">
        <ele>680</ele>
        <time>2009-08-08T08:42:28Z</time>
      </trkpt>
      <trkpt lat="46.502989986911416" lon="11.469375025480986">
        <ele>679</ele>
        <time>2009-08-08T08:42:39Z</time>
      </trkpt>
      <trkpt lat="46.503052012994885" lon="11.469421964138746">
        <ele>678</ele>
        <time>2009-08-08T08:42:46Z</time>
      </trkpt>
      <trkpt lat="46.503114961087704" lon="11.469463035464287">
        <ele>678</ele>
        <time>2009-08-08T08:42:53Z</time>
      </trkpt>
      <trkpt lat="46.503177992999554" lon="11.469512991607189">
        <ele>677</ele>
        <time>2009-08-08T08:43:00Z</time>
      </trkpt>
      <trkpt lat="46.503252005204558" lon="11.469593960791826">
        <ele>678</ele>
        <time>2009-08-08T08:43:09Z</time>
      </trkpt>
      <trkpt lat="46.503395000472665" lon="11.469698986038566">
        <ele>676</ele>
        <time>2009-08-08T08:43:25Z</time>
      </trkpt>
      <trkpt lat="46.50349298492074" lon="11.46972899325192">
        <ele>673</ele>
        <time>2009-08-08T08:43:35Z</time>
      </trkpt>
      <trkpt lat="46.503525003790855" lon="11.469762017950416">
        <ele>673</ele>
        <time>2009-08-08T08:43:39Z</time>
      </trkpt>
      <trkpt lat="46.503559034317732" lon="11.46981499157846">
        <ele>674</ele>
        <time>2009-08-08T08:43:44Z</time>
      </trkpt>
      <trkpt lat="46.503601027652621" lon="11.469848016276956">
        <ele>673</ele>
        <time>2009-08-08T08:43:49Z</time>
      </trkpt>
      <trkpt lat="46.503606978803873" lon="11.46987902931869">
        <ele>674</ele>
        <time>2009-08-08T08:43:51Z</time>
      </trkpt>
      <trkpt lat="46.503606978803873" lon="11.469941977411509">
        <ele>676</ele>
        <time>2009-08-08T08:43:55Z</time>
      </trkpt>
      <trkpt lat="46.503594992682338" lon="11.469997968524694">
        <ele>678</ele>
        <time>2009-08-08T08:44:00Z</time>
      </trkpt>
      <trkpt lat="46.503605972975492" lon="11.470067035406828">
        <ele>680</ele>
        <time>2009-08-08T08:44:04Z</time>
      </trkpt>
      <trkpt lat="46.503602033481002" lon="11.470173988491297">
        <ele>683</ele>
        <time>2009-08-08T08:44:12Z</time>
      </trkpt>
      <trkpt lat="46.503609996289015" lon="11.470275996252894">
        <ele>685</ele>
        <time>2009-08-08T08:44:19Z</time>
      </trkpt>
      <trkpt lat="46.503637991845608" lon="11.470384038984776">
        <ele>687</ele>
        <time>2009-08-08T08:44:27Z</time>
      </trkpt>
      <trkpt lat="46.503675039857626" lon="11.470513958483934">
        <ele>690</ele>
        <time>2009-08-08T08:44:36Z</time>
      </trkpt>
      <trkpt lat="46.503714015707374" lon="11.470614038407803">
        <ele>691</ele>
        <time>2009-08-08T08:44:44Z</time>
      </trkpt>
      <trkpt lat="46.503762966021895" lon="11.470744963735342">
        <ele>693</ele>
        <time>2009-08-08T08:44:55Z</time>
      </trkpt>
      <trkpt lat="46.503788027912378" lon="11.470865998417139">
        <ele>695</ele>
        <time>2009-08-08T08:45:03Z</time>
      </trkpt>
      <trkpt lat="46.503779981285334" lon="11.470955014228821">
        <ele>697</ele>
        <time>2009-08-08T08:45:10Z</time>
      </trkpt>
      <trkpt lat="46.503796996548772" lon="11.47105903364718">
        <ele>697</ele>
        <time>2009-08-08T08:45:17Z</time>
      </trkpt>
      <trkpt lat="46.503843013197184" lon="11.471224995329976">
        <ele>698</ele>
        <time>2009-08-08T08:45:29Z</time>
      </trkpt>
      <trkpt lat="46.50390001013875" lon="11.471262965351343">
        <ele>697</ele>
        <time>2009-08-08T08:45:36Z</time>
      </trkpt>
      <trkpt lat="46.50394300930202" lon="11.471271011978388">
        <ele>695</ele>
        <time>2009-08-08T08:45:40Z</time>
      </trkpt>
      <trkpt lat="46.503962036222219" lon="11.471301019191742">
        <ele>695</ele>
        <time>2009-08-08T08:45:43Z</time>
      </trkpt>
      <trkpt lat="46.50396496988833" lon="11.471348041668534">
        <ele>696</ele>
        <time>2009-08-08T08:45:46Z</time>
      </trkpt>
      <trkpt lat="46.503958012908697" lon="11.4714499656111">
        <ele>697</ele>
        <time>2009-08-08T08:45:53Z</time>
      </trkpt>
      <trkpt lat="46.503978967666626" lon="11.471561025828123">
        <ele>698</ele>
        <time>2009-08-08T08:46:01Z</time>
      </trkpt>
      <trkpt lat="46.504037976264954" lon="11.471673008054495">
        <ele>698</ele>
        <time>2009-08-08T08:46:11Z</time>
      </trkpt>
      <trkpt lat="46.504116011783481" lon="11.471746014431119">
        <ele>696</ele>
        <time>2009-08-08T08:46:20Z</time>
      </trkpt>
      <trkpt lat="46.504132021218538" lon="11.471746014431119">
        <ele>696</ele>
        <time>2009-08-08T08:46:22Z</time>
      </trkpt>
      <trkpt lat="46.504192035645247" lon="11.471752971410751">
        <ele>694</ele>
        <time>2009-08-08T08:46:28Z</time>
      </trkpt>
      <trkpt lat="46.504259007051587" lon="11.471841987222433">
        <ele>693</ele>
        <time>2009-08-08T08:46:37Z</time>
      </trkpt>
      <trkpt lat="46.504308041185141" lon="11.471905019134283">
        <ele>692</ele>
        <time>2009-08-08T08:46:43Z</time>
      </trkpt>
      <trkpt lat="46.504331007599831" lon="11.471977019682527">
        <ele>692</ele>
        <time>2009-08-08T08:46:49Z</time>
      </trkpt>
      <trkpt lat="46.504443995654583" lon="11.47209101356566">
        <ele>690</ele>
        <time>2009-08-08T08:47:03Z</time>
      </trkpt>
      <trkpt lat="46.504614986479282" lon="11.472254963591695">
        <ele>687</ele>
        <time>2009-08-08T08:47:23Z</time>
      </trkpt>
      <trkpt lat="46.504710037261248" lon="11.472358983010054">
        <ele>685</ele>
        <time>2009-08-08T08:47:35Z</time>
      </trkpt>
      <trkpt lat="46.504821013659239" lon="11.472489992156625">
        <ele>682</ele>
        <time>2009-08-08T08:47:49Z</time>
      </trkpt>
      <trkpt lat="46.504901982843876" lon="11.472564004361629">
        <ele>681</ele>
        <time>2009-08-08T08:47:59Z</time>
      </trkpt>
      <trkpt lat="46.504928972572088" lon="11.472691996023059">
        <ele>682</ele>
        <time>2009-08-08T08:48:08Z</time>
      </trkpt>
      <trkpt lat="46.504969960078597" lon="11.472714962437749">
        <ele>681</ele>
        <time>2009-08-08T08:48:13Z</time>
      </trkpt>
      <trkpt lat="46.504985969513655" lon="11.472774976864457">
        <ele>681</ele>
        <time>2009-08-08T08:48:17Z</time>
      </trkpt>
      <trkpt lat="46.504929978400469" lon="11.472987039014697">
        <ele>686</ele>
        <time>2009-08-08T08:48:33Z</time>
      </trkpt>
      <trkpt lat="46.504973983392119" lon="11.473120981827378">
        <ele>687</ele>
        <time>2009-08-08T08:48:43Z</time>
      </trkpt>
      <trkpt lat="46.504981024190784" lon="11.473201029002666">
        <ele>688</ele>
        <time>2009-08-08T08:48:48Z</time>
      </trkpt>
      <trkpt lat="46.505054030567408" lon="11.473347963765264">
        <ele>686</ele>
        <time>2009-08-08T08:49:01Z</time>
      </trkpt>
      <trkpt lat="46.505126031115651" lon="11.473659016191959">
        <ele>686</ele>
        <time>2009-08-08T08:49:24Z</time>
      </trkpt>
      <trkpt lat="46.505126031115651" lon="11.473991023376584">
        <ele>691</ele>
        <time>2009-08-08T08:49:46Z</time>
      </trkpt>
      <trkpt lat="46.505069034174085" lon="11.474301991984248">
        <ele>696</ele>
        <time>2009-08-08T08:50:09Z</time>
      </trkpt>
      <trkpt lat="46.504983035847545" lon="11.474654031917453">
        <ele>702</ele>
        <time>2009-08-08T08:50:34Z</time>
      </trkpt>
      <trkpt lat="46.504887985065579" lon="11.47490800358355">
        <ele>707</ele>
        <time>2009-08-08T08:50:54Z</time>
      </trkpt>
      <trkpt lat="46.504881028085947" lon="11.474934993311763">
        <ele>707</ele>
        <time>2009-08-08T08:50:56Z</time>
      </trkpt>
      <trkpt lat="46.504875998944044" lon="11.474967012181878">
        <ele>708</ele>
        <time>2009-08-08T08:50:59Z</time>
      </trkpt>
      <trkpt lat="46.50486895814538" lon="11.475024009123445">
        <ele>708</ele>
        <time>2009-08-08T08:51:03Z</time>
      </trkpt>
      <trkpt lat="46.504875998944044" lon="11.474967012181878">
        <ele>708</ele>
        <time>2009-08-08T08:51:07Z</time>
      </trkpt>
      <trkpt lat="46.50486895814538" lon="11.475024009123445">
        <ele>708</ele>
        <time>2009-08-08T08:51:11Z</time>
      </trkpt>
      <trkpt lat="46.504860995337367" lon="11.475048987194896">
        <ele>709</ele>
        <time>2009-08-08T08:51:12Z</time>
      </trkpt>
      <trkpt lat="46.504840962588787" lon="11.475089974701405">
        <ele>710</ele>
        <time>2009-08-08T08:51:16Z</time>
      </trkpt>
      <trkpt lat="46.504826964810491" lon="11.475130962207913">
        <ele>710</ele>
        <time>2009-08-08T08:51:19Z</time>
      </trkpt>
      <trkpt lat="46.504768962040544" lon="11.475420976057649">
        <ele>714</ele>
        <time>2009-08-08T08:51:40Z</time>
      </trkpt>
      <trkpt lat="46.504725962877274" lon="11.475670002400875">
        <ele>717</ele>
        <time>2009-08-08T08:51:58Z</time>
      </trkpt>
      <trkpt lat="46.504740966483951" lon="11.476084990426898">
        <ele>722</ele>
        <time>2009-08-08T08:52:26Z</time>
      </trkpt>
      <trkpt lat="46.504869963973761" lon="11.476353965699673">
        <ele>720</ele>
        <time>2009-08-08T08:52:49Z</time>
      </trkpt>
      <trkpt lat="46.505055958405137" lon="11.476602992042899">
        <ele>716</ele>
        <time>2009-08-08T08:53:14Z</time>
      </trkpt>
      <trkpt lat="46.505242036655545" lon="11.476851012557745">
        <ele>717</ele>
        <time>2009-08-08T08:53:40Z</time>
      </trkpt>
      <trkpt lat="46.505485028028488" lon="11.47711998783052">
        <ele>716</ele>
        <time>2009-08-08T08:54:10Z</time>
      </trkpt>
      <trkpt lat="46.505929017439485" lon="11.47774200886488">
        <ele>709</ele>
        <time>2009-08-08T08:55:12Z</time>
      </trkpt>
      <trkpt lat="46.506043011322618" lon="11.477949041873217">
        <ele>709</ele>
        <time>2009-08-08T08:55:30Z</time>
      </trkpt>
      <trkpt lat="46.506139989942312" lon="11.478161020204425">
        <ele>710</ele>
        <time>2009-08-08T08:55:48Z</time>
      </trkpt>
      <trkpt lat="46.50617997162044" lon="11.478401999920607">
        <ele>711</ele>
        <time>2009-08-08T08:56:05Z</time>
      </trkpt>
      <trkpt lat="46.506150970235467" lon="11.478702994063497">
        <ele>714</ele>
        <time>2009-08-08T08:56:26Z</time>
      </trkpt>
      <trkpt lat="46.506118029356003" lon="11.478973980993032">
        <ele>716</ele>
        <time>2009-08-08T08:56:45Z</time>
      </trkpt>
      <trkpt lat="46.506120963022113" lon="11.479251002892852">
        <ele>717</ele>
        <time>2009-08-08T08:57:04Z</time>
      </trkpt>
      <trkpt lat="46.506018033251166" lon="11.479668002575636">
        <ele>723</ele>
        <time>2009-08-08T08:57:35Z</time>
      </trkpt>
      <trkpt lat="46.505919964984059" lon="11.47991300560534">
        <ele>729</ele>
        <time>2009-08-08T08:57:54Z</time>
      </trkpt>
      <trkpt lat="46.505937986075878" lon="11.480218023061752">
        <ele>731</ele>
        <time>2009-08-08T08:58:15Z</time>
      </trkpt>
      <trkpt lat="46.50600696913898" lon="11.480477023869753">
        <ele>730</ele>
        <time>2009-08-08T08:58:34Z</time>
      </trkpt>
      <trkpt lat="46.506095984950662" lon="11.480969041585922">
        <ele>731</ele>
        <time>2009-08-08T08:59:09Z</time>
      </trkpt>
      <trkpt lat="46.506154993548989" lon="11.481433985754848">
        <ele>733</ele>
        <time>2009-08-08T08:59:42Z</time>
      </trkpt>
      <trkpt lat="46.506215007975698" lon="11.48178200237453">
        <ele>733</ele>
        <time>2009-08-08T09:00:07Z</time>
      </trkpt>
      <trkpt lat="46.506153987720609" lon="11.481990963220596">
        <ele>738</ele>
        <time>2009-08-08T09:00:23Z</time>
      </trkpt>
      <trkpt lat="46.506134960800409" lon="11.48219296708703">
        <ele>741</ele>
        <time>2009-08-08T09:00:37Z</time>
      </trkpt>
      <trkpt lat="46.505976039916277" lon="11.482756985351443">
        <ele>751</ele>
        <time>2009-08-08T09:01:19Z</time>
      </trkpt>
      <trkpt lat="46.505826003849506" lon="11.483085975050926">
        <ele>759</ele>
        <time>2009-08-08T09:01:46Z</time>
      </trkpt>
      <trkpt lat="46.505746962502599" lon="11.483159987255931">
        <ele>763</ele>
        <time>2009-08-08T09:01:55Z</time>
      </trkpt>
      <trkpt lat="46.505672028288245" lon="11.483101984485984">
        <ele>767</ele>
        <time>2009-08-08T09:02:04Z</time>
      </trkpt>
      <trkpt lat="46.505601033568382" lon="11.482998970896006">
        <ele>769</ele>
        <time>2009-08-08T09:02:14Z</time>
      </trkpt>
      <trkpt lat="46.505569014698267" lon="11.482818005606532">
        <ele>770</ele>
        <time>2009-08-08T09:02:27Z</time>
      </trkpt>
      <trkpt lat="46.505549987778068" lon="11.482579037547112">
        <ele>769</ele>
        <time>2009-08-08T09:02:43Z</time>
      </trkpt>
      <trkpt lat="46.505577983334661" lon="11.48223202675581">
        <ele>767</ele>
        <time>2009-08-08T09:03:07Z</time>
      </trkpt>
      <trkpt lat="46.505497014150023" lon="11.481924997642636">
        <ele>771</ele>
        <time>2009-08-08T09:03:30Z</time>
      </trkpt>
      <trkpt lat="46.505446974188089" lon="11.481760963797569">
        <ele>774</ele>
        <time>2009-08-08T09:03:42Z</time>
      </trkpt>
      <trkpt lat="46.505486033856869" lon="11.48167597129941">
        <ele>772</ele>
        <time>2009-08-08T09:03:50Z</time>
      </trkpt>
      <trkpt lat="46.505442028865218" lon="11.481468016281724">
        <ele>772</ele>
        <time>2009-08-08T09:04:05Z</time>
      </trkpt>
      <trkpt lat="46.505410009995103" lon="11.48124597966671">
        <ele>772</ele>
        <time>2009-08-08T09:04:20Z</time>
      </trkpt>
      <trkpt lat="46.505391988903284" lon="11.481100972741842">
        <ele>771</ele>
        <time>2009-08-08T09:04:30Z</time>
      </trkpt>
      <trkpt lat="46.505241030827165" lon="11.481087980791926">
        <ele>780</ele>
        <time>2009-08-08T09:04:45Z</time>
      </trkpt>
      <trkpt lat="46.504978006705642" lon="11.480911960825324">
        <ele>793</ele>
        <time>2009-08-08T09:05:14Z</time>
      </trkpt>
      <trkpt lat="46.505055958405137" lon="11.481193006038666">
        <ele>790</ele>
        <time>2009-08-08T09:05:35Z</time>
      </trkpt>
      <trkpt lat="46.505300961434841" lon="11.481430968269706">
        <ele>779</ele>
        <time>2009-08-08T09:06:05Z</time>
      </trkpt>
      <trkpt lat="46.505349995568395" lon="11.48163003847003">
        <ele>778</ele>
        <time>2009-08-08T09:06:19Z</time>
      </trkpt>
      <trkpt lat="46.505353013053536" lon="11.481794994324446">
        <ele>778</ele>
        <time>2009-08-08T09:06:31Z</time>
      </trkpt>
      <trkpt lat="46.505267014726996" lon="11.481926003471017">
        <ele>782</ele>
        <time>2009-08-08T09:06:43Z</time>
      </trkpt>
      <trkpt lat="46.505229966714978" lon="11.482058018445969">
        <ele>785</ele>
        <time>2009-08-08T09:06:53Z</time>
      </trkpt>
      <trkpt lat="46.505256034433842" lon="11.482196990400553">
        <ele>783</ele>
        <time>2009-08-08T09:07:03Z</time>
      </trkpt>
      <trkpt lat="46.505218986421824" lon="11.482345014810562">
        <ele>785</ele>
        <time>2009-08-08T09:07:14Z</time>
      </trkpt>
      <trkpt lat="46.505144974216819" lon="11.48244702257216">
        <ele>789</ele>
        <time>2009-08-08T09:07:24Z</time>
      </trkpt>
      <trkpt lat="46.505065010860562" lon="11.482590017840266">
        <ele>794</ele>
        <time>2009-08-08T09:07:37Z</time>
      </trkpt>
      <trkpt lat="46.505012037232518" lon="11.482760002836585">
        <ele>798</ele>
        <time>2009-08-08T09:07:50Z</time>
      </trkpt>
      <trkpt lat="46.504964008927345" lon="11.482948008924723">
        <ele>801</ele>
        <time>2009-08-08T09:08:04Z</time>
      </trkpt>
      <trkpt lat="46.505058975890279" lon="11.48313500918448">
        <ele>798</ele>
        <time>2009-08-08T09:08:20Z</time>
      </trkpt>
      <trkpt lat="46.505130976438522" lon="11.483298037201166">
        <ele>795</ele>
        <time>2009-08-08T09:08:33Z</time>
      </trkpt>
      <trkpt lat="46.505127036944032" lon="11.483465004712343">
        <ele>797</ele>
        <time>2009-08-08T09:08:45Z</time>
      </trkpt>
      <trkpt lat="46.505158971995115" lon="11.483649993315339">
        <ele>798</ele>
        <time>2009-08-08T09:08:58Z</time>
      </trkpt>
      <trkpt lat="46.505220998078585" lon="11.483806986361742">
        <ele>797</ele>
        <time>2009-08-08T09:09:10Z</time>
      </trkpt>
      <trkpt lat="46.505271960049868" lon="11.483985017985106">
        <ele>797</ele>
        <time>2009-08-08T09:09:23Z</time>
      </trkpt>
      <trkpt lat="46.505401963368058" lon="11.484242007136345">
        <ele>794</ele>
        <time>2009-08-08T09:09:45Z</time>
      </trkpt>
      <trkpt lat="46.505487961694598" lon="11.484501007944345">
        <ele>792</ele>
        <time>2009-08-08T09:10:05Z</time>
      </trkpt>
      <trkpt lat="46.505457032471895" lon="11.484705023467541">
        <ele>795</ele>
        <time>2009-08-08T09:10:20Z</time>
      </trkpt>
      <trkpt lat="46.505442028865218" lon="11.484851958230138">
        <ele>797</ele>
        <time>2009-08-08T09:10:30Z</time>
      </trkpt>
      <trkpt lat="46.505287969484925" lon="11.485025966539979">
        <ele>806</ele>
        <time>2009-08-08T09:10:49Z</time>
      </trkpt>
      <trkpt lat="46.505145980045199" lon="11.485120011493564">
        <ele>814</ele>
        <time>2009-08-08T09:11:05Z</time>
      </trkpt>
      <trkpt lat="46.505174981430173" lon="11.485326960682869">
        <ele>814</ele>
        <time>2009-08-08T09:11:20Z</time>
      </trkpt>
      <trkpt lat="46.505247987806797" lon="11.485470039770007">
        <ele>811</ele>
        <time>2009-08-08T09:11:32Z</time>
      </trkpt>
      <trkpt lat="46.505337003618479" lon="11.485809003934264">
        <ele>807</ele>
        <time>2009-08-08T09:11:57Z</time>
      </trkpt>
      <trkpt lat="46.505418978631496" lon="11.486062975600362">
        <ele>805</ele>
        <time>2009-08-08T09:12:16Z</time>
      </trkpt>
      <trkpt lat="46.505401041358709" lon="11.486343014985323">
        <ele>808</ele>
        <time>2009-08-08T09:12:35Z</time>
      </trkpt>
      <trkpt lat="46.505347983911633" lon="11.486545018851757">
        <ele>813</ele>
        <time>2009-08-08T09:12:50Z</time>
      </trkpt>
      <trkpt lat="46.505306996405125" lon="11.486764959990978">
        <ele>816</ele>
        <time>2009-08-08T09:13:06Z</time>
      </trkpt>
      <trkpt lat="46.505238013342023" lon="11.487037036567926">
        <ele>818</ele>
        <time>2009-08-08T09:13:26Z</time>
      </trkpt>
      <trkpt lat="46.505118990316987" lon="11.487400978803635">
        <ele>821</ele>
        <time>2009-08-08T09:13:54Z</time>
      </trkpt>
      <trkpt lat="46.505046989768744" lon="11.487610023468733">
        <ele>822</ele>
        <time>2009-08-08T09:14:10Z</time>
      </trkpt>
      <trkpt lat="46.504970965906978" lon="11.487728040665388">
        <ele>825</ele>
        <time>2009-08-08T09:14:21Z</time>
      </trkpt>
      <trkpt lat="46.504913968965411" lon="11.487794006243348">
        <ele>828</ele>
        <time>2009-08-08T09:14:29Z</time>
      </trkpt>
      <trkpt lat="46.504785977303982" lon="11.487908000126481">
        <ele>833</ele>
        <time>2009-08-08T09:14:44Z</time>
      </trkpt>
      <trkpt lat="46.504710959270597" lon="11.487958962097764">
        <ele>836</ele>
        <time>2009-08-08T09:14:52Z</time>
      </trkpt>
      <trkpt lat="46.504664020612836" lon="11.488033980131149">
        <ele>837</ele>
        <time>2009-08-08T09:14:59Z</time>
      </trkpt>
      <trkpt lat="46.504596965387464" lon="11.488129030913115">
        <ele>840</ele>
        <time>2009-08-08T09:15:08Z</time>
      </trkpt>
      <trkpt lat="46.504610041156411" lon="11.488243024796247">
        <ele>838</ele>
        <time>2009-08-08T09:15:16Z</time>
      </trkpt>
      <trkpt lat="46.504715988412499" lon="11.488363975659013">
        <ele>833</ele>
        <time>2009-08-08T09:15:30Z</time>
      </trkpt>
      <trkpt lat="46.504751024767756" lon="11.488475035876036">
        <ele>832</ele>
        <time>2009-08-08T09:15:38Z</time>
      </trkpt>
      <trkpt lat="46.504787988960743" lon="11.488806959241629">
        <ele>831</ele>
        <time>2009-08-08T09:16:01Z</time>
      </trkpt>
      <trkpt lat="46.504927966743708" lon="11.48932202719152">
        <ele>828</ele>
        <time>2009-08-08T09:16:40Z</time>
      </trkpt>
      <trkpt lat="46.504983035847545" lon="11.489647999405861">
        <ele>827</ele>
        <time>2009-08-08T09:17:03Z</time>
      </trkpt>
      <trkpt lat="46.505016982555389" lon="11.490222997963428">
        <ele>826</ele>
        <time>2009-08-08T09:17:42Z</time>
      </trkpt>
      <trkpt lat="46.505026035010815" lon="11.490382002666593">
        <ele>826</ele>
        <time>2009-08-08T09:17:53Z</time>
      </trkpt>
      <trkpt lat="46.505001978948712" lon="11.490556010976434">
        <ele>827</ele>
        <time>2009-08-08T09:18:06Z</time>
      </trkpt>
      <trkpt lat="46.504906006157398" lon="11.490780981257558">
        <ele>830</ele>
        <time>2009-08-08T09:18:24Z</time>
      </trkpt>
      <trkpt lat="46.504788994789124" lon="11.491027995944023">
        <ele>830</ele>
        <time>2009-08-08T09:18:45Z</time>
      </trkpt>
      <trkpt lat="46.504751024767756" lon="11.49136402644217">
        <ele>825</ele>
        <time>2009-08-08T09:19:08Z</time>
      </trkpt>
      <trkpt lat="46.504698973149061" lon="11.491481959819794">
        <ele>825</ele>
        <time>2009-08-08T09:19:18Z</time>
      </trkpt>
      <trkpt lat="46.504637030884624" lon="11.491619003936648">
        <ele>825</ele>
        <time>2009-08-08T09:19:29Z</time>
      </trkpt>
      <trkpt lat="46.504536028951406" lon="11.491782031953335">
        <ele>827</ele>
        <time>2009-08-08T09:19:44Z</time>
      </trkpt>
      <trkpt lat="46.504466040059924" lon="11.491956040263176">
        <ele>827</ele>
        <time>2009-08-08T09:19:58Z</time>
      </trkpt>
      <trkpt lat="46.504412982612848" lon="11.492029968649149">
        <ele>829</ele>
        <time>2009-08-08T09:20:05Z</time>
      </trkpt>
      <trkpt lat="46.504336036741734" lon="11.492184028029442">
        <ele>830</ele>
        <time>2009-08-08T09:20:19Z</time>
      </trkpt>
      <trkpt lat="46.504250960424542" lon="11.492358036339283">
        <ele>832</ele>
        <time>2009-08-08T09:20:33Z</time>
      </trkpt>
      <trkpt lat="46.504190023988485" lon="11.492656012997031">
        <ele>832</ele>
        <time>2009-08-08T09:20:55Z</time>
      </trkpt>
      <trkpt lat="46.504149958491325" lon="11.492895986884832">
        <ele>832</ele>
        <time>2009-08-08T09:21:12Z</time>
      </trkpt>
      <trkpt lat="46.504064965993166" lon="11.493291025981307">
        <ele>832</ele>
        <time>2009-08-08T09:21:40Z</time>
      </trkpt>
      <trkpt lat="46.504021966829896" lon="11.49359998293221">
        <ele>832</ele>
        <time>2009-08-08T09:22:02Z</time>
      </trkpt>
      <trkpt lat="46.504022972658277" lon="11.493892008438706">
        <ele>832</ele>
        <time>2009-08-08T09:22:22Z</time>
      </trkpt>
      <trkpt lat="46.503993971273303" lon="11.494118990376592">
        <ele>833</ele>
        <time>2009-08-08T09:22:38Z</time>
      </trkpt>
      <trkpt lat="46.503982990980148" lon="11.494449991732836">
        <ele>834</ele>
        <time>2009-08-08T09:23:01Z</time>
      </trkpt>
      <trkpt lat="46.503974022343755" lon="11.494683008641005">
        <ele>834</ele>
        <time>2009-08-08T09:23:17Z</time>
      </trkpt>
      <trkpt lat="46.503975028172135" lon="11.494982996955514">
        <ele>835</ele>
        <time>2009-08-08T09:23:38Z</time>
      </trkpt>
      <trkpt lat="46.503971004858613" lon="11.495205033570528">
        <ele>837</ele>
        <time>2009-08-08T09:23:53Z</time>
      </trkpt>
      <trkpt lat="46.503957007080317" lon="11.495364038273692">
        <ele>838</ele>
        <time>2009-08-08T09:24:04Z</time>
      </trkpt>
      <trkpt lat="46.503934962674975" lon="11.495497981086373">
        <ele>840</ele>
        <time>2009-08-08T09:24:14Z</time>
      </trkpt>
      <trkpt lat="46.504001012071967" lon="11.495463028550148">
        <ele>838</ele>
        <time>2009-08-08T09:24:21Z</time>
      </trkpt>
      <trkpt lat="46.504059014841914" lon="11.495428998023272">
        <ele>836</ele>
        <time>2009-08-08T09:24:27Z</time>
      </trkpt>
      <trkpt lat="46.504107965156436" lon="11.49536102078855">
        <ele>834</ele>
        <time>2009-08-08T09:24:34Z</time>
      </trkpt>
      <trkpt lat="46.504193963482976" lon="11.495071006938815">
        <ele>830</ele>
        <time>2009-08-08T09:24:56Z</time>
      </trkpt>
      <trkpt lat="46.504394039511681" lon="11.494635986164212">
        <ele>826</ele>
        <time>2009-08-08T09:25:32Z</time>
      </trkpt>
      <trkpt lat="46.504536028951406" lon="11.494428031146526">
        <ele>823</ele>
        <time>2009-08-08T09:25:52Z</time>
      </trkpt>
      <trkpt lat="46.50469402782619" lon="11.494303978979588">
        <ele>820</ele>
        <time>2009-08-08T09:26:10Z</time>
      </trkpt>
      <trkpt lat="46.505208006128669" lon="11.494012959301472">
        <ele>809</ele>
        <time>2009-08-08T09:27:05Z</time>
      </trkpt>
      <trkpt lat="46.505380002781749" lon="11.493929978460073">
        <ele>806</ele>
        <time>2009-08-08T09:27:24Z</time>
      </trkpt>
      <trkpt lat="46.505464995279908" lon="11.493929978460073">
        <ele>805</ele>
        <time>2009-08-08T09:27:32Z</time>
      </trkpt>
      <trkpt lat="46.505650989711285" lon="11.493951017037034">
        <ele>803</ele>
        <time>2009-08-08T09:27:51Z</time>
      </trkpt>
      <trkpt lat="46.505722990259528" lon="11.493992004543543">
        <ele>803</ele>
        <time>2009-08-08T09:27:58Z</time>
      </trkpt>
      <trkpt lat="46.505765989422798" lon="11.494054030627012">
        <ele>804</ele>
        <time>2009-08-08T09:28:05Z</time>
      </trkpt>
      <trkpt lat="46.505808988586068" lon="11.49413701146841">
        <ele>805</ele>
        <time>2009-08-08T09:28:12Z</time>
      </trkpt>
      <trkpt lat="46.505822986364365" lon="11.494241030886769">
        <ele>807</ele>
        <time>2009-08-08T09:28:19Z</time>
      </trkpt>
      <trkpt lat="46.505779987201095" lon="11.494260979816318">
        <ele>808</ele>
        <time>2009-08-08T09:28:24Z</time>
      </trkpt>
      <trkpt lat="46.505679991096258" lon="11.494302973151207">
        <ele>810</ele>
        <time>2009-08-08T09:28:34Z</time>
      </trkpt>
      <trkpt lat="46.505608996376395" lon="11.494386037811637">
        <ele>813</ele>
        <time>2009-08-08T09:28:43Z</time>
      </trkpt>
      <trkpt lat="46.505593992769718" lon="11.494488967582583">
        <ele>815</ele>
        <time>2009-08-08T09:28:50Z</time>
      </trkpt>
      <trkpt lat="46.505622994154692" lon="11.494614025577903">
        <ele>818</ele>
        <time>2009-08-08T09:28:59Z</time>
      </trkpt>
      <trkpt lat="46.505608996376395" lon="11.494717039167881">
        <ele>821</ele>
        <time>2009-08-08T09:29:07Z</time>
      </trkpt>
      <trkpt lat="46.505550993606448" lon="11.494932034984231">
        <ele>826</ele>
        <time>2009-08-08T09:29:23Z</time>
      </trkpt>
      <trkpt lat="46.505475975573063" lon="11.494950978085399">
        <ele>827</ele>
        <time>2009-08-08T09:29:30Z</time>
      </trkpt>
      <trkpt lat="46.505343038588762" lon="11.495019039139152">
        <ele>829</ele>
        <time>2009-08-08T09:29:44Z</time>
      </trkpt>
      <trkpt lat="46.505187973380089" lon="11.495138984173536">
        <ele>832</ele>
        <time>2009-08-08T09:30:02Z</time>
      </trkpt>
      <trkpt lat="46.505117984488606" lon="11.495176032185555">
        <ele>833</ele>
        <time>2009-08-08T09:30:09Z</time>
      </trkpt>
      <trkpt lat="46.505042966455221" lon="11.495305029675364">
        <ele>835</ele>
        <time>2009-08-08T09:30:21Z</time>
      </trkpt>
      <trkpt lat="46.505024023354053" lon="11.495374012738466">
        <ele>837</ele>
        <time>2009-08-08T09:30:26Z</time>
      </trkpt>
      <trkpt lat="46.505027962848544" lon="11.495569981634617">
        <ele>840</ele>
        <time>2009-08-08T09:30:40Z</time>
      </trkpt>
      <trkpt lat="46.505026035010815" lon="11.495703002437949">
        <ele>842</ele>
        <time>2009-08-08T09:30:49Z</time>
      </trkpt>
      <trkpt lat="46.504990998655558" lon="11.495916992425919">
        <ele>845</ele>
        <time>2009-08-08T09:31:04Z</time>
      </trkpt>
      <trkpt lat="46.504929978400469" lon="11.495997039601207">
        <ele>844</ele>
        <time>2009-08-08T09:31:12Z</time>
      </trkpt>
      <trkpt lat="46.504748007282615" lon="11.496189991012216">
        <ele>844</ele>
        <time>2009-08-08T09:31:35Z</time>
      </trkpt>
      <trkpt lat="46.504629990085959" lon="11.496325023472309">
        <ele>845</ele>
        <time>2009-08-08T09:31:50Z</time>
      </trkpt>
      <trkpt lat="46.504564024507999" lon="11.496382020413876">
        <ele>846</ele>
        <time>2009-08-08T09:31:58Z</time>
      </trkpt>
      <trkpt lat="46.50448196567595" lon="11.496353019028902">
        <ele>846</ele>
        <time>2009-08-08T09:32:06Z</time>
      </trkpt>
      <trkpt lat="46.504403008148074" lon="11.496346984058619">
        <ele>846</ele>
        <time>2009-08-08T09:32:14Z</time>
      </trkpt>
      <trkpt lat="46.504162028431892" lon="11.496401969343424">
        <ele>847</ele>
        <time>2009-08-08T09:32:39Z</time>
      </trkpt>
      <trkpt lat="46.503980979323387" lon="11.496457038447261">
        <ele>851</ele>
        <time>2009-08-08T09:32:57Z</time>
      </trkpt>
      <trkpt lat="46.503881989046931" lon="11.496517974883318">
        <ele>853</ele>
        <time>2009-08-08T09:33:08Z</time>
      </trkpt>
      <trkpt lat="46.503796996548772" lon="11.496629035100341">
        <ele>855</ele>
        <time>2009-08-08T09:33:19Z</time>
      </trkpt>
      <trkpt lat="46.503676967695355" lon="11.496860962361097">
        <ele>859</ele>
        <time>2009-08-08T09:33:39Z</time>
      </trkpt>
      <trkpt lat="46.503551993519068" lon="11.497156005352736">
        <ele>863</ele>
        <time>2009-08-08T09:34:03Z</time>
      </trkpt>
      <trkpt lat="46.503515029326081" lon="11.497237980365753">
        <ele>864</ele>
        <time>2009-08-08T09:34:10Z</time>
      </trkpt>
      <trkpt lat="46.503511006012559" lon="11.497320039197803">
        <ele>864</ele>
        <time>2009-08-08T09:34:16Z</time>
      </trkpt>
      <trkpt lat="46.503520980477333" lon="11.497723963111639">
        <ele>869</ele>
        <time>2009-08-08T09:34:44Z</time>
      </trkpt>
      <trkpt lat="46.503588035702705" lon="11.49798103608191">
        <ele>871</ele>
        <time>2009-08-08T09:35:02Z</time>
      </trkpt>
      <trkpt lat="46.503715021535754" lon="11.498369034379721">
        <ele>875</ele>
        <time>2009-08-08T09:35:32Z</time>
      </trkpt>
      <trkpt lat="46.5036850143224" lon="11.498514963313937">
        <ele>875</ele>
        <time>2009-08-08T09:35:43Z</time>
      </trkpt>
      <trkpt lat="46.503632962703705" lon="11.498600039631128">
        <ele>875</ele>
        <time>2009-08-08T09:35:50Z</time>
      </trkpt>
      <trkpt lat="46.503518968820572" lon="11.498656030744314">
        <ele>875</ele>
        <time>2009-08-08T09:36:02Z</time>
      </trkpt>
      <trkpt lat="46.503445962443948" lon="11.498672040179372">
        <ele>875</ele>
        <time>2009-08-08T09:36:10Z</time>
      </trkpt>
      <trkpt lat="46.503377985209227" lon="11.498633986338973">
        <ele>875</ele>
        <time>2009-08-08T09:36:17Z</time>
      </trkpt>
      <trkpt lat="46.503302967175841" lon="11.498517980799079">
        <ele>876</ele>
        <time>2009-08-08T09:36:28Z</time>
      </trkpt>
      <trkpt lat="46.503228032961488" lon="11.498431982472539">
        <ele>878</ele>
        <time>2009-08-08T09:36:38Z</time>
      </trkpt>
      <trkpt lat="46.503154020756483" lon="11.498394012451172">
        <ele>880</ele>
        <time>2009-08-08T09:36:46Z</time>
      </trkpt>
      <trkpt lat="46.503054024651647" lon="11.498374985530972">
        <ele>884</ele>
        <time>2009-08-08T09:36:56Z</time>
      </trkpt>
      <trkpt lat="46.502938019111753" lon="11.498382026329637">
        <ele>888</ele>
        <time>2009-08-08T09:37:07Z</time>
      </trkpt>
      <trkpt lat="46.502842968329787" lon="11.498375991359353">
        <ele>891</ele>
        <time>2009-08-08T09:37:17Z</time>
      </trkpt>
      <trkpt lat="46.5027179941535" lon="11.498398035764694">
        <ele>895</ele>
        <time>2009-08-08T09:37:29Z</time>
      </trkpt>
      <trkpt lat="46.50261003524065" lon="11.498430976644158">
        <ele>899</ele>
        <time>2009-08-08T09:37:40Z</time>
      </trkpt>
      <trkpt lat="46.502556977793574" lon="11.498459978029132">
        <ele>901</ele>
        <time>2009-08-08T09:37:46Z</time>
      </trkpt>
      <trkpt lat="46.50252596475184" lon="11.498509012162685">
        <ele>902</ele>
        <time>2009-08-08T09:37:51Z</time>
      </trkpt>
      <trkpt lat="46.502493023872375" lon="11.498579001054168">
        <ele>903</ele>
        <time>2009-08-08T09:37:57Z</time>
      </trkpt>
      <trkpt lat="46.50243803858757" lon="11.498675979673862">
        <ele>904</ele>
        <time>2009-08-08T09:38:05Z</time>
      </trkpt>
      <trkpt lat="46.502428986132145" lon="11.498736999928951">
        <ele>905</ele>
        <time>2009-08-08T09:38:10Z</time>
      </trkpt>
      <trkpt lat="46.502434015274048" lon="11.498806988820434">
        <ele>904</ele>
        <time>2009-08-08T09:38:14Z</time>
      </trkpt>
      <trkpt lat="46.502491012215614" lon="11.498916959390044">
        <ele>902</ele>
        <time>2009-08-08T09:38:24Z</time>
      </trkpt>
      <trkpt lat="46.502599976956844" lon="11.499062972143292">
        <ele>898</ele>
        <time>2009-08-08T09:38:39Z</time>
      </trkpt>
      <trkpt lat="46.502670971676707" lon="11.499188030138612">
        <ele>896</ele>
        <time>2009-08-08T09:38:50Z</time>
      </trkpt>
      <trkpt lat="46.502740038558841" lon="11.499345023185015">
        <ele>894</ele>
        <time>2009-08-08T09:39:03Z</time>
      </trkpt>
      <trkpt lat="46.502748001366854" lon="11.499373018741608">
        <ele>894</ele>
        <time>2009-08-08T09:39:05Z</time>
      </trkpt>
      <trkpt lat="46.50274196639657" lon="11.499394979327917">
        <ele>894</ele>
        <time>2009-08-08T09:39:07Z</time>
      </trkpt>
      <trkpt lat="46.502716988325119" lon="11.499438984319568">
        <ele>894</ele>
        <time>2009-08-08T09:39:10Z</time>
      </trkpt>
      <trkpt lat="46.502687986940145" lon="11.499520037323236">
        <ele>895</ele>
        <time>2009-08-08T09:39:17Z</time>
      </trkpt>
      <trkpt lat="46.502627972513437" lon="11.499611986801028">
        <ele>896</ele>
        <time>2009-08-08T09:39:25Z</time>
      </trkpt>
      <trkpt lat="46.502553038299084" lon="11.499688010662794">
        <ele>897</ele>
        <time>2009-08-08T09:39:35Z</time>
      </trkpt>
      <trkpt lat="46.502468967810273" lon="11.499754982069135">
        <ele>899</ele>
        <time>2009-08-08T09:39:44Z</time>
      </trkpt>
      <trkpt lat="46.502399984747171" lon="11.499765040352941">
        <ele>901</ele>
        <time>2009-08-08T09:39:51Z</time>
      </trkpt>
      <trkpt lat="46.502337036654353" lon="11.499750036746264">
        <ele>903</ele>
        <time>2009-08-08T09:39:58Z</time>
      </trkpt>
      <trkpt lat="46.502293031662703" lon="11.499702008441091">
        <ele>905</ele>
        <time>2009-08-08T09:40:03Z</time>
      </trkpt>
      <trkpt lat="46.502211978659034" lon="11.499607963487506">
        <ele>908</ele>
        <time>2009-08-08T09:40:13Z</time>
      </trkpt>
      <trkpt lat="46.502088010311127" lon="11.499469997361302">
        <ele>912</ele>
        <time>2009-08-08T09:40:29Z</time>
      </trkpt>
      <trkpt lat="46.502019027248025" lon="11.499405959621072">
        <ele>915</ele>
        <time>2009-08-08T09:40:37Z</time>
      </trkpt>
      <trkpt lat="46.501938980072737" lon="11.499364972114563">
        <ele>918</ele>
        <time>2009-08-08T09:40:46Z</time>
      </trkpt>
      <trkpt lat="46.501912996172905" lon="11.499354997649789">
        <ele>919</ele>
        <time>2009-08-08T09:40:48Z</time>
      </trkpt>
      <trkpt lat="46.501892041414976" lon="11.499358015134931">
        <ele>920</ele>
        <time>2009-08-08T09:40:51Z</time>
      </trkpt>
      <trkpt lat="46.501802019774914" lon="11.499457005411386">
        <ele>922</ele>
        <time>2009-08-08T09:41:02Z</time>
      </trkpt>
      <trkpt lat="46.501740999519825" lon="11.499664038419724">
        <ele>921</ele>
        <time>2009-08-08T09:41:17Z</time>
      </trkpt>
      <trkpt lat="46.501705041155219" lon="11.499871993437409">
        <ele>920</ele>
        <time>2009-08-08T09:41:32Z</time>
      </trkpt>
      <trkpt lat="46.501648966223001" lon="11.500071985647082">
        <ele>920</ele>
        <time>2009-08-08T09:41:47Z</time>
      </trkpt>
      <trkpt lat="46.501587023958564" lon="11.500191008672118">
        <ele>921</ele>
        <time>2009-08-08T09:41:57Z</time>
      </trkpt>
      <trkpt lat="46.501567997038364" lon="11.500224033370614">
        <ele>921</ele>
        <time>2009-08-08T09:42:00Z</time>
      </trkpt>
      <trkpt lat="46.501463977620006" lon="11.500256974250078">
        <ele>924</ele>
        <time>2009-08-08T09:42:11Z</time>
      </trkpt>
      <trkpt lat="46.501433970406651" lon="11.500233002007008">
        <ele>925</ele>
        <time>2009-08-08T09:42:14Z</time>
      </trkpt>
      <trkpt lat="46.50138602592051" lon="11.500075003132224">
        <ele>928</ele>
        <time>2009-08-08T09:42:26Z</time>
      </trkpt>
      <trkpt lat="46.501326011493802" lon="11.500012977048755">
        <ele>931</ele>
        <time>2009-08-08T09:42:34Z</time>
      </trkpt>
      <trkpt lat="46.501244958490133" lon="11.500143986195326">
        <ele>932</ele>
        <time>2009-08-08T09:42:46Z</time>
      </trkpt>
      <trkpt lat="46.501183016225696" lon="11.500343978404999">
        <ele>933</ele>
        <time>2009-08-08T09:43:01Z</time>
      </trkpt>
      <trkpt lat="46.501144962385297" lon="11.500434000045061">
        <ele>933</ele>
        <time>2009-08-08T09:43:08Z</time>
      </trkpt>
      <trkpt lat="46.501130964607" lon="11.500445986166596">
        <ele>934</ele>
        <time>2009-08-08T09:43:10Z</time>
      </trkpt>
      <trkpt lat="46.50110799819231" lon="11.500451015308499">
        <ele>934</ele>
        <time>2009-08-08T09:43:12Z</time>
      </trkpt>
      <trkpt lat="46.501070028170943" lon="11.500500971451402">
        <ele>935</ele>
        <time>2009-08-08T09:43:17Z</time>
      </trkpt>
      <trkpt lat="46.501029040664434" lon="11.500576995313168">
        <ele>936</ele>
        <time>2009-08-08T09:43:24Z</time>
      </trkpt>
      <trkpt lat="46.50093600153923" lon="11.500733988359571">
        <ele>939</ele>
        <time>2009-08-08T09:43:38Z</time>
      </trkpt>
      <trkpt lat="46.500846985727549" lon="11.500847982242703">
        <ele>941</ele>
        <time>2009-08-08T09:43:50Z</time>
      </trkpt>
      <trkpt lat="46.500755958259106" lon="11.500962981954217">
        <ele>942</ele>
        <time>2009-08-08T09:44:02Z</time>
      </trkpt>
      <trkpt lat="46.500659985467792" lon="11.501031965017319">
        <ele>943</ele>
        <time>2009-08-08T09:44:13Z</time>
      </trkpt>
      <trkpt lat="46.500572981312871" lon="11.501031965017319">
        <ele>945</ele>
        <time>2009-08-08T09:44:22Z</time>
      </trkpt>
      <trkpt lat="46.50046301074326" lon="11.501122992485762">
        <ele>947</ele>
        <time>2009-08-08T09:44:34Z</time>
      </trkpt>
      <trkpt lat="46.500440966337919" lon="11.501174038276076">
        <ele>947</ele>
        <time>2009-08-08T09:44:39Z</time>
      </trkpt>
      <trkpt lat="46.500351028516889" lon="11.501290965825319">
        <ele>948</ele>
        <time>2009-08-08T09:44:51Z</time>
      </trkpt>
      <trkpt lat="46.500305011868477" lon="11.50135500356555">
        <ele>949</ele>
        <time>2009-08-08T09:44:57Z</time>
      </trkpt>
      <trkpt lat="46.500236028805375" lon="11.501415017992258">
        <ele>950</ele>
        <time>2009-08-08T09:45:05Z</time>
      </trkpt>
      <trkpt lat="46.500178026035428" lon="11.501482995226979">
        <ele>952</ele>
        <time>2009-08-08T09:45:13Z</time>
      </trkpt>
      <trkpt lat="46.500106025487185" lon="11.501467991620302">
        <ele>953</ele>
        <time>2009-08-08T09:45:20Z</time>
      </trkpt>
      <trkpt lat="46.50014198385179" lon="11.501492969691753">
        <ele>952</ele>
        <time>2009-08-08T09:45:24Z</time>
      </trkpt>
      <trkpt lat="46.500041987746954" lon="11.501501016318798">
        <ele>955</ele>
        <time>2009-08-08T09:45:34Z</time>
      </trkpt>
      <trkpt lat="46.499893041327596" lon="11.50146204046905">
        <ele>957</ele>
        <time>2009-08-08T09:45:49Z</time>
      </trkpt>
      <trkpt lat="46.499876026064157" lon="11.501459022983909">
        <ele>958</ele>
        <time>2009-08-08T09:45:51Z</time>
      </trkpt>
      <trkpt lat="46.499679973348975" lon="11.50133203715086">
        <ele>961</ele>
        <time>2009-08-08T09:46:12Z</time>
      </trkpt>
      <trkpt lat="46.499536978080869" lon="11.50124603882432">
        <ele>964</ele>
        <time>2009-08-08T09:46:28Z</time>
      </trkpt>
      <trkpt lat="46.499458020552993" lon="11.501105977222323">
        <ele>967</ele>
        <time>2009-08-08T09:46:40Z</time>
      </trkpt>
      <trkpt lat="46.499342015013099" lon="11.500958958640695">
        <ele>971</ele>
        <time>2009-08-08T09:46:56Z</time>
      </trkpt>
      <trkpt lat="46.499269008636475" lon="11.500885030254722">
        <ele>973</ele>
        <time>2009-08-08T09:47:05Z</time>
      </trkpt>
      <trkpt lat="46.499248975887895" lon="11.500852005556226">
        <ele>974</ele>
        <time>2009-08-08T09:47:08Z</time>
      </trkpt>
      <trkpt lat="46.499189967289567" lon="11.500815041363239">
        <ele>976</ele>
        <time>2009-08-08T09:47:14Z</time>
      </trkpt>
      <trkpt lat="46.499160965904593" lon="11.50081898085773">
        <ele>976</ele>
        <time>2009-08-08T09:47:17Z</time>
      </trkpt>
      <trkpt lat="46.499106986448169" lon="11.50081898085773">
        <ele>978</ele>
        <time>2009-08-08T09:47:22Z</time>
      </trkpt>
      <trkpt lat="46.499059963971376" lon="11.50081998668611">
        <ele>979</ele>
        <time>2009-08-08T09:47:27Z</time>
      </trkpt>
      <trkpt lat="46.498987963423133" lon="11.500835996121168">
        <ele>980</ele>
        <time>2009-08-08T09:47:34Z</time>
      </trkpt>
      <trkpt lat="46.498872041702271" lon="11.500907996669412">
        <ele>981</ele>
        <time>2009-08-08T09:47:47Z</time>
      </trkpt>
      <trkpt lat="46.498818984255195" lon="11.500934986397624">
        <ele>982</ele>
        <time>2009-08-08T09:47:53Z</time>
      </trkpt>
      <trkpt lat="46.498718988150358" lon="11.500949990004301">
        <ele>984</ele>
        <time>2009-08-08T09:48:03Z</time>
      </trkpt>
      <trkpt lat="46.498668026179075" lon="11.500946972519159">
        <ele>985</ele>
        <time>2009-08-08T09:48:08Z</time>
      </trkpt>
      <trkpt lat="46.498633995652199" lon="11.500902967527509">
        <ele>986</ele>
        <time>2009-08-08T09:48:12Z</time>
      </trkpt>
      <trkpt lat="46.498583033680916" lon="11.500891987234354">
        <ele>988</ele>
        <time>2009-08-08T09:48:18Z</time>
      </trkpt>
      <trkpt lat="46.49852997623384" lon="11.500843958929181">
        <ele>990</ele>
        <time>2009-08-08T09:48:24Z</time>
      </trkpt>
      <trkpt lat="46.498473985120654" lon="11.50081998668611">
        <ele>991</ele>
        <time>2009-08-08T09:48:30Z</time>
      </trkpt>
      <trkpt lat="46.498426962643862" lon="11.500759972259402">
        <ele>993</ele>
        <time>2009-08-08T09:48:36Z</time>
      </trkpt>
      <trkpt lat="46.498366026207805" lon="11.500691995024681">
        <ele>995</ele>
        <time>2009-08-08T09:48:44Z</time>
      </trkpt>
      <trkpt lat="46.498325038701296" lon="11.500655030831695">
        <ele>996</ele>
        <time>2009-08-08T09:48:49Z</time>
      </trkpt>
      <trkpt lat="46.498254965990782" lon="11.500597028061748">
        <ele>997</ele>
        <time>2009-08-08T09:48:57Z</time>
      </trkpt>
      <trkpt lat="46.498202998191118" lon="11.500527961179614">
        <ele>999</ele>
        <time>2009-08-08T09:49:04Z</time>
      </trkpt>
      <trkpt lat="46.498158993199468" lon="11.500484962016344">
        <ele>999</ele>
        <time>2009-08-08T09:49:09Z</time>
      </trkpt>
      <trkpt lat="46.498128985986114" lon="11.500457972288132">
        <ele>1000</ele>
        <time>2009-08-08T09:49:13Z</time>
      </trkpt>
      <trkpt lat="46.498087998479605" lon="11.50040902197361">
        <ele>1001</ele>
        <time>2009-08-08T09:49:18Z</time>
      </trkpt>
      <trkpt lat="46.498039970174432" lon="11.500395024195313">
        <ele>1001</ele>
        <time>2009-08-08T09:49:23Z</time>
      </trkpt>
      <trkpt lat="46.497990014031529" lon="11.500344984233379">
        <ele>1002</ele>
        <time>2009-08-08T09:49:29Z</time>
      </trkpt>
      <trkpt lat="46.497953971847892" lon="11.500351019203663">
        <ele>1003</ele>
        <time>2009-08-08T09:49:32Z</time>
      </trkpt>
      <trkpt lat="46.497861016541719" lon="11.500253034755588">
        <ele>1005</ele>
        <time>2009-08-08T09:49:44Z</time>
      </trkpt>
      <trkpt lat="46.497805025428534" lon="11.500206012278795">
        <ele>1006</ele>
        <time>2009-08-08T09:49:50Z</time>
      </trkpt>
      <trkpt lat="46.49769002571702" lon="11.500068968161941">
        <ele>1008</ele>
        <time>2009-08-08T09:50:05Z</time>
      </trkpt>
      <trkpt lat="46.49764702655375" lon="11.500010965391994">
        <ele>1010</ele>
        <time>2009-08-08T09:50:11Z</time>
      </trkpt>
      <trkpt lat="46.497582988813519" lon="11.499954974278808">
        <ele>1011</ele>
        <time>2009-08-08T09:50:19Z</time>
      </trkpt>
      <trkpt lat="46.497486010193825" lon="11.499900994822383">
        <ele>1013</ele>
        <time>2009-08-08T09:50:29Z</time>
      </trkpt>
      <trkpt lat="46.497444016858935" lon="11.499817008152604">
        <ele>1014</ele>
        <time>2009-08-08T09:50:36Z</time>
      </trkpt>
      <trkpt lat="46.497284006327391" lon="11.499742995947599">
        <ele>1016</ele>
        <time>2009-08-08T09:50:53Z</time>
      </trkpt>
      <trkpt lat="46.497229021042585" lon="11.499711982905865">
        <ele>1017</ele>
        <time>2009-08-08T09:50:59Z</time>
      </trkpt>
      <trkpt lat="46.497188033536077" lon="11.499703014269471">
        <ele>1017</ele>
        <time>2009-08-08T09:51:03Z</time>
      </trkpt>
      <trkpt lat="46.497158026322722" lon="11.499705025926232">
        <ele>1017</ele>
        <time>2009-08-08T09:51:06Z</time>
      </trkpt>
      <trkpt lat="46.497143022716045" lon="11.499687004834414">
        <ele>1017</ele>
        <time>2009-08-08T09:51:08Z</time>
      </trkpt>
      <trkpt lat="46.497058030217886" lon="11.499655991792679">
        <ele>1018</ele>
        <time>2009-08-08T09:51:17Z</time>
      </trkpt>
      <trkpt lat="46.496979994699359" lon="11.499602012336254">
        <ele>1020</ele>
        <time>2009-08-08T09:51:26Z</time>
      </trkpt>
      <trkpt lat="46.496850997209549" lon="11.499541997909546">
        <ele>1021</ele>
        <time>2009-08-08T09:51:39Z</time>
      </trkpt>
      <trkpt lat="46.496785031631589" lon="11.499516014009714">
        <ele>1022</ele>
        <time>2009-08-08T09:51:46Z</time>
      </trkpt>
      <trkpt lat="46.496739014983177" lon="11.499506961554289">
        <ele>1023</ele>
        <time>2009-08-08T09:51:51Z</time>
      </trkpt>
      <trkpt lat="46.496687969192863" lon="11.499501010403037">
        <ele>1023</ele>
        <time>2009-08-08T09:51:56Z</time>
      </trkpt>
      <trkpt lat="46.496579004451632" lon="11.499475026503205">
        <ele>1024</ele>
        <time>2009-08-08T09:52:07Z</time>
      </trkpt>
      <trkpt lat="46.4964459836483" lon="11.499507967382669">
        <ele>1023</ele>
        <time>2009-08-08T09:52:21Z</time>
      </trkpt>
      <trkpt lat="46.496371971443295" lon="11.499569993466139">
        <ele>1023</ele>
        <time>2009-08-08T09:52:29Z</time>
      </trkpt>
      <trkpt lat="46.496328972280025" lon="11.499514002352953">
        <ele>1023</ele>
        <time>2009-08-08T09:52:35Z</time>
      </trkpt>
      <trkpt lat="46.496227970346808" lon="11.499483995139599">
        <ele>1024</ele>
        <time>2009-08-08T09:52:45Z</time>
      </trkpt>
      <trkpt lat="46.496149012818933" lon="11.49948600679636">
        <ele>1024</ele>
        <time>2009-08-08T09:52:53Z</time>
      </trkpt>
      <trkpt lat="46.496129985898733" lon="11.49950603954494">
        <ele>1024</ele>
        <time>2009-08-08T09:52:55Z</time>
      </trkpt>
      <trkpt lat="46.496003000065684" lon="11.499493969604373">
        <ele>1024</ele>
        <time>2009-08-08T09:53:08Z</time>
      </trkpt>
      <trkpt lat="46.495839972048998" lon="11.49942297488451">
        <ele>1024</ele>
        <time>2009-08-08T09:53:25Z</time>
      </trkpt>
      <trkpt lat="46.495806025341153" lon="11.499383999034762">
        <ele>1024</ele>
        <time>2009-08-08T09:53:30Z</time>
      </trkpt>
      <trkpt lat="46.495775012299418" lon="11.499373018741608">
        <ele>1025</ele>
        <time>2009-08-08T09:53:33Z</time>
      </trkpt>
      <trkpt lat="46.495679961517453" lon="11.499290959909558">
        <ele>1026</ele>
        <time>2009-08-08T09:53:44Z</time>
      </trkpt>
      <trkpt lat="46.495577031746507" lon="11.49918501265347">
        <ele>1026</ele>
        <time>2009-08-08T09:53:56Z</time>
      </trkpt>
      <trkpt lat="46.495534032583237" lon="11.499120974913239">
        <ele>1026</ele>
        <time>2009-08-08T09:54:03Z</time>
      </trkpt>
      <trkpt lat="46.495420038700104" lon="11.499001029878855">
        <ele>1026</ele>
        <time>2009-08-08T09:54:17Z</time>
      </trkpt>
      <trkpt lat="46.495399000123143" lon="11.498990971595049">
        <ele>1026</ele>
        <time>2009-08-08T09:54:19Z</time>
      </trkpt>
      <trkpt lat="46.495337979868054" lon="11.498948978260159">
        <ele>1026</ele>
        <time>2009-08-08T09:54:26Z</time>
      </trkpt>
      <trkpt lat="46.495275031775236" lon="11.498888963833451">
        <ele>1026</ele>
        <time>2009-08-08T09:54:33Z</time>
      </trkpt>
      <trkpt lat="46.495244018733501" lon="11.498857028782368">
        <ele>1025</ele>
        <time>2009-08-08T09:54:37Z</time>
      </trkpt>
      <trkpt lat="46.49522197432816" lon="11.498881001025438">
        <ele>1025</ele>
        <time>2009-08-08T09:54:40Z</time>
      </trkpt>
      <trkpt lat="46.495205964893103" lon="11.49888401851058">
        <ele>1025</ele>
        <time>2009-08-08T09:54:41Z</time>
      </trkpt>
      <trkpt lat="46.495142010971904" lon="11.498871026560664">
        <ele>1025</ele>
        <time>2009-08-08T09:54:48Z</time>
      </trkpt>
      <trkpt lat="46.495129019021988" lon="11.498857028782368">
        <ele>1025</ele>
        <time>2009-08-08T09:54:50Z</time>
      </trkpt>
      <trkpt lat="46.495079984888434" lon="11.498815035447478">
        <ele>1024</ele>
        <time>2009-08-08T09:54:55Z</time>
      </trkpt>
      <trkpt lat="46.495047966018319" lon="11.498768012970686">
        <ele>1023</ele>
        <time>2009-08-08T09:55:00Z</time>
      </trkpt>
      <trkpt lat="46.494982000440359" lon="11.498686959967017">
        <ele>1021</ele>
        <time>2009-08-08T09:55:09Z</time>
      </trkpt>
      <trkpt lat="46.494917962700129" lon="11.498573971912265">
        <ele>1020</ele>
        <time>2009-08-08T09:55:19Z</time>
      </trkpt>
      <trkpt lat="46.494816038757563" lon="11.49841102771461">
        <ele>1018</ele>
        <time>2009-08-08T09:55:34Z</time>
      </trkpt>
      <trkpt lat="46.494707996025681" lon="11.498258979991078">
        <ele>1017</ele>
        <time>2009-08-08T09:55:49Z</time>
      </trkpt>
      <trkpt lat="46.494605988264084" lon="11.498108021914959">
        <ele>1015</ele>
        <time>2009-08-08T09:56:04Z</time>
      </trkpt>
      <trkpt lat="46.494541028514504" lon="11.497947005555034">
        <ele>1013</ele>
        <time>2009-08-08T09:56:16Z</time>
      </trkpt>
      <trkpt lat="46.49451102130115" lon="11.49789403192699">
        <ele>1012</ele>
        <time>2009-08-08T09:56:21Z</time>
      </trkpt>
      <trkpt lat="46.494481014087796" lon="11.497828988358378">
        <ele>1011</ele>
        <time>2009-08-08T09:56:27Z</time>
      </trkpt>
      <trkpt lat="46.494471039623022" lon="11.497821025550365">
        <ele>1011</ele>
        <time>2009-08-08T09:56:28Z</time>
      </trkpt>
      <trkpt lat="46.49442502297461" lon="11.497799986973405">
        <ele>1011</ele>
        <time>2009-08-08T09:56:32Z</time>
      </trkpt>
      <trkpt lat="46.494333995506167" lon="11.497630001977086">
        <ele>1008</ele>
        <time>2009-08-08T09:56:47Z</time>
      </trkpt>
      <trkpt lat="46.494272975251079" lon="11.497545009478927">
        <ele>1006</ele>
        <time>2009-08-08T09:56:56Z</time>
      </trkpt>
      <trkpt lat="46.494194017723203" lon="11.497429003939033">
        <ele>1004</ele>
        <time>2009-08-08T09:57:07Z</time>
      </trkpt>
      <trkpt lat="46.494082035496831" lon="11.497256001457572">
        <ele>1001</ele>
        <time>2009-08-08T09:57:24Z</time>
      </trkpt>
      <trkpt lat="46.494010034948587" lon="11.497141001746058">
        <ele>999</ele>
        <time>2009-08-08T09:57:34Z</time>
      </trkpt>
      <trkpt lat="46.493998970836401" lon="11.497130021452904">
        <ele>999</ele>
        <time>2009-08-08T09:57:36Z</time>
      </trkpt>
      <trkpt lat="46.493944991379976" lon="11.497055003419518">
        <ele>998</ele>
        <time>2009-08-08T09:57:43Z</time>
      </trkpt>
      <trkpt lat="46.493837032467127" lon="11.496923994272947">
        <ele>996</ele>
        <time>2009-08-08T09:57:57Z</time>
      </trkpt>
      <trkpt lat="46.493698982521892" lon="11.496770018711686">
        <ele>994</ele>
        <time>2009-08-08T09:58:15Z</time>
      </trkpt>
      <trkpt lat="46.493574008345604" lon="11.496656024828553">
        <ele>993</ele>
        <time>2009-08-08T09:58:29Z</time>
      </trkpt>
      <trkpt lat="46.493387008085847" lon="11.496556028723717">
        <ele>992</ele>
        <time>2009-08-08T09:58:49Z</time>
      </trkpt>
      <trkpt lat="46.493236972019076" lon="11.49649802595377">
        <ele>992</ele>
        <time>2009-08-08T09:59:05Z</time>
      </trkpt>
      <trkpt lat="46.493076961487532" lon="11.496497020125389">
        <ele>992</ele>
        <time>2009-08-08T09:59:21Z</time>
      </trkpt>
      <trkpt lat="46.492932960391045" lon="11.496480004861951">
        <ele>993</ele>
        <time>2009-08-08T09:59:35Z</time>
      </trkpt>
      <trkpt lat="46.492788037285209" lon="11.49635000154376">
        <ele>991</ele>
        <time>2009-08-08T09:59:53Z</time>
      </trkpt>
      <trkpt lat="46.492667002603412" lon="11.496155960485339">
        <ele>989</ele>
        <time>2009-08-08T10:00:11Z</time>
      </trkpt>
      <trkpt lat="46.492587039247155" lon="11.495989998802543">
        <ele>987</ele>
        <time>2009-08-08T10:00:25Z</time>
      </trkpt>
      <trkpt lat="46.492471033707261" lon="11.495822025462985">
        <ele>986</ele>
        <time>2009-08-08T10:00:41Z</time>
      </trkpt>
      <trkpt lat="46.492351004853845" lon="11.495694033801556">
        <ele>986</ele>
        <time>2009-08-08T10:00:56Z</time>
      </trkpt>
      <trkpt lat="46.492258971557021" lon="11.495559001341462">
        <ele>986</ele>
        <time>2009-08-08T10:01:09Z</time>
      </trkpt>
      <trkpt lat="46.492193005979061" lon="11.495496975257993">
        <ele>986</ele>
        <time>2009-08-08T10:01:17Z</time>
      </trkpt>
      <trkpt lat="46.492096027359366" lon="11.495438972488046">
        <ele>986</ele>
        <time>2009-08-08T10:01:27Z</time>
      </trkpt>
      <trkpt lat="46.491969041526318" lon="11.495442995801568">
        <ele>989</ele>
        <time>2009-08-08T10:01:40Z</time>
      </trkpt>
      <trkpt lat="46.491928976029158" lon="11.495456993579865">
        <ele>990</ele>
        <time>2009-08-08T10:01:44Z</time>
      </trkpt>
      <trkpt lat="46.491877008229494" lon="11.495455987751484">
        <ele>991</ele>
        <time>2009-08-08T10:01:49Z</time>
      </trkpt>
      <trkpt lat="46.491793021559715" lon="11.495394967496395">
        <ele>991</ele>
        <time>2009-08-08T10:01:59Z</time>
      </trkpt>
      <trkpt lat="46.491724960505962" lon="11.495315004140139">
        <ele>990</ele>
        <time>2009-08-08T10:02:08Z</time>
      </trkpt>
      <trkpt lat="46.491606021299958" lon="11.495135966688395">
        <ele>987</ele>
        <time>2009-08-08T10:02:25Z</time>
      </trkpt>
      <trkpt lat="46.491478029638529" lon="11.49499598890543">
        <ele>986</ele>
        <time>2009-08-08T10:02:41Z</time>
      </trkpt>
      <trkpt lat="46.491350959986448" lon="11.494861962273717">
        <ele>987</ele>
        <time>2009-08-08T10:02:57Z</time>
      </trkpt>
      <trkpt lat="46.491270996630192" lon="11.49478199891746">
        <ele>987</ele>
        <time>2009-08-08T10:03:06Z</time>
      </trkpt>
      <trkpt lat="46.491246018558741" lon="11.494756015017629">
        <ele>987</ele>
        <time>2009-08-08T10:03:09Z</time>
      </trkpt>
      <trkpt lat="46.491126995533705" lon="11.49462902918458">
        <ele>986</ele>
        <time>2009-08-08T10:03:24Z</time>
      </trkpt>
      <trkpt lat="46.491067986935377" lon="11.494584018364549">
        <ele>986</ele>
        <time>2009-08-08T10:03:31Z</time>
      </trkpt>
      <trkpt lat="46.490808986127377" lon="11.494410010054708">
        <ele>987</ele>
        <time>2009-08-08T10:04:00Z</time>
      </trkpt>
      <trkpt lat="46.490599019452929" lon="11.494306996464729">
        <ele>988</ele>
        <time>2009-08-08T10:04:22Z</time>
      </trkpt>
      <trkpt lat="46.490398021414876" lon="11.49422300979495">
        <ele>990</ele>
        <time>2009-08-08T10:04:43Z</time>
      </trkpt>
      <trkpt lat="46.490276986733079" lon="11.494183028116822">
        <ele>991</ele>
        <time>2009-08-08T10:04:55Z</time>
      </trkpt>
      <trkpt lat="46.490162992849946" lon="11.494142040610313">
        <ele>993</ele>
        <time>2009-08-08T10:05:07Z</time>
      </trkpt>
      <trkpt lat="46.490082023665309" lon="11.494090994819999">
        <ele>993</ele>
        <time>2009-08-08T10:05:16Z</time>
      </trkpt>
      <trkpt lat="46.489970963448286" lon="11.493971971794963">
        <ele>991</ele>
        <time>2009-08-08T10:05:29Z</time>
      </trkpt>
      <trkpt lat="46.48987096734345" lon="11.493781032040715">
        <ele>988</ele>
        <time>2009-08-08T10:05:46Z</time>
      </trkpt>
      <trkpt lat="46.489856969565153" lon="11.493731997907162">
        <ele>987</ele>
        <time>2009-08-08T10:05:50Z</time>
      </trkpt>
      <trkpt lat="46.48982604034245" lon="11.49364298209548">
        <ele>985</ele>
        <time>2009-08-08T10:05:57Z</time>
      </trkpt>
      <trkpt lat="46.489791003987193" lon="11.493541980162263">
        <ele>983</ele>
        <time>2009-08-08T10:06:04Z</time>
      </trkpt>
      <trkpt lat="46.489724032580853" lon="11.493353974074125">
        <ele>979</ele>
        <time>2009-08-08T10:06:19Z</time>
      </trkpt>
      <trkpt lat="46.489608027040958" lon="11.493115006014705">
        <ele>977</ele>
        <time>2009-08-08T10:06:39Z</time>
      </trkpt>
      <trkpt lat="46.489516999572515" lon="11.492957007139921">
        <ele>976</ele>
        <time>2009-08-08T10:06:53Z</time>
      </trkpt>
      <trkpt lat="46.489503001794219" lon="11.492922976613045">
        <ele>976</ele>
        <time>2009-08-08T10:06:56Z</time>
      </trkpt>
      <trkpt lat="46.489417003467679" lon="11.492772018536925">
        <ele>975</ele>
        <time>2009-08-08T10:07:10Z</time>
      </trkpt>
      <trkpt lat="46.489337962120771" lon="11.492617037147284">
        <ele>973</ele>
        <time>2009-08-08T10:07:23Z</time>
      </trkpt>
      <trkpt lat="46.489307032898068" lon="11.492569008842111">
        <ele>972</ele>
        <time>2009-08-08T10:07:27Z</time>
      </trkpt>
      <trkpt lat="46.48924601264298" lon="11.492463983595371">
        <ele>971</ele>
        <time>2009-08-08T10:07:37Z</time>
      </trkpt>
      <trkpt lat="46.489152973517776" lon="11.492317970842123">
        <ele>969</ele>
        <time>2009-08-08T10:07:51Z</time>
      </trkpt>
      <trkpt lat="46.489009978249669" lon="11.492129964753985">
        <ele>965</ele>
        <time>2009-08-08T10:08:10Z</time>
      </trkpt>
      <trkpt lat="46.488915011286736" lon="11.49203097447753">
        <ele>963</ele>
        <time>2009-08-08T10:08:22Z</time>
      </trkpt>
      <trkpt lat="46.488843010738492" lon="11.491981018334627">
        <ele>963</ele>
        <time>2009-08-08T10:08:30Z</time>
      </trkpt>
      <trkpt lat="46.488788025453687" lon="11.491956962272525">
        <ele>963</ele>
        <time>2009-08-08T10:08:35Z</time>
      </trkpt>
      <trkpt lat="46.488716024905443" lon="11.491884039714932">
        <ele>962</ele>
        <time>2009-08-08T10:08:44Z</time>
      </trkpt>
      <trkpt lat="46.488660033792257" lon="11.491861995309591">
        <ele>962</ele>
        <time>2009-08-08T10:08:50Z</time>
      </trkpt>
      <trkpt lat="46.48858099244535" lon="11.491853026673198">
        <ele>963</ele>
        <time>2009-08-08T10:08:58Z</time>
      </trkpt>
      <trkpt lat="46.488508991897106" lon="11.491810027509928">
        <ele>962</ele>
        <time>2009-08-08T10:09:06Z</time>
      </trkpt>
      <trkpt lat="46.488339006900787" lon="11.491818996146321">
        <ele>965</ele>
        <time>2009-08-08T10:09:23Z</time>
      </trkpt>
      <trkpt lat="46.488308999687433" lon="11.491841040551662">
        <ele>965</ele>
        <time>2009-08-08T10:09:26Z</time>
      </trkpt>
      <trkpt lat="46.488209003582597" lon="11.491818996146321">
        <ele>962</ele>
        <time>2009-08-08T10:09:36Z</time>
      </trkpt>
      <trkpt lat="46.488184025511146" lon="11.49181698448956">
        <ele>962</ele>
        <time>2009-08-08T10:09:39Z</time>
      </trkpt>
      <trkpt lat="46.488204980269074" lon="11.491781026124954">
        <ele>961</ele>
        <time>2009-08-08T10:09:42Z</time>
      </trkpt>
      <trkpt lat="46.488197017461061" lon="11.491758981719613">
        <ele>960</ele>
        <time>2009-08-08T10:09:44Z</time>
      </trkpt>
      <trkpt lat="46.488198023289442" lon="11.491728974506259">
        <ele>960</ele>
        <time>2009-08-08T10:09:46Z</time>
      </trkpt>
      <trkpt lat="46.488181008026004" lon="11.491726040840149">
        <ele>959</ele>
        <time>2009-08-08T10:09:47Z</time>
      </trkpt>
      <trkpt lat="46.488162986934185" lon="11.491726962849498">
        <ele>959</ele>
        <time>2009-08-08T10:09:49Z</time>
      </trkpt>
      <trkpt lat="46.488037006929517" lon="11.49179401807487">
        <ele>958</ele>
        <time>2009-08-08T10:10:03Z</time>
      </trkpt>
      <trkpt lat="46.487908009439707" lon="11.491895020008087">
        <ele>958</ele>
        <time>2009-08-08T10:10:17Z</time>
      </trkpt>
      <trkpt lat="46.487728971987963" lon="11.492048995569348">
        <ele>958</ele>
        <time>2009-08-08T10:10:38Z</time>
      </trkpt>
      <trkpt lat="46.487642973661423" lon="11.492196014150977">
        <ele>961</ele>
        <time>2009-08-08T10:10:51Z</time>
      </trkpt>
      <trkpt lat="46.487600980326533" lon="11.492215041071177">
        <ele>961</ele>
        <time>2009-08-08T10:10:56Z</time>
      </trkpt>
      <trkpt lat="46.487538032233715" lon="11.492333980277181">
        <ele>963</ele>
        <time>2009-08-08T10:11:06Z</time>
      </trkpt>
      <trkpt lat="46.487409034743905" lon="11.492511006072164">
        <ele>964</ele>
        <time>2009-08-08T10:11:24Z</time>
      </trkpt>
      <trkpt lat="46.4873350225389" lon="11.492589041590691">
        <ele>963</ele>
        <time>2009-08-08T10:11:33Z</time>
      </trkpt>
      <trkpt lat="46.487285988405347" lon="11.492628017440438">
        <ele>962</ele>
        <time>2009-08-08T10:11:39Z</time>
      </trkpt>
      <trkpt lat="46.487223040312529" lon="11.492678979411721">
        <ele>960</ele>
        <time>2009-08-08T10:11:46Z</time>
      </trkpt>
      <trkpt lat="46.487191021442413" lon="11.492723990231752">
        <ele>960</ele>
        <time>2009-08-08T10:11:50Z</time>
      </trkpt>
      <trkpt lat="46.487100999802351" lon="11.492800014093518">
        <ele>958</ele>
        <time>2009-08-08T10:12:01Z</time>
      </trkpt>
      <trkpt lat="46.487069986760616" lon="11.492824992164969">
        <ele>957</ele>
        <time>2009-08-08T10:12:04Z</time>
      </trkpt>
      <trkpt lat="46.48695096373558" lon="11.492890035733581">
        <ele>954</ele>
        <time>2009-08-08T10:12:17Z</time>
      </trkpt>
      <trkpt lat="46.486820038408041" lon="11.492928005754948">
        <ele>949</ele>
        <time>2009-08-08T10:12:30Z</time>
      </trkpt>
      <trkpt lat="46.486718030646443" lon="11.492953989654779">
        <ele>946</ele>
        <time>2009-08-08T10:12:41Z</time>
      </trkpt>
      <trkpt lat="46.486611999571323" lon="11.493118023499846">
        <ele>944</ele>
        <time>2009-08-08T10:12:56Z</time>
      </trkpt>
      <trkpt lat="46.486549973487854" lon="11.493304017931223">
        <ele>944</ele>
        <time>2009-08-08T10:13:11Z</time>
      </trkpt>
      <trkpt lat="46.486502029001713" lon="11.493488000705838">
        <ele>943</ele>
        <time>2009-08-08T10:13:24Z</time>
      </trkpt>
      <trkpt lat="46.48645400069654" lon="11.493665026500821">
        <ele>943</ele>
        <time>2009-08-08T10:13:37Z</time>
      </trkpt>
      <trkpt lat="46.486436985433102" lon="11.493752030655742">
        <ele>943</ele>
        <time>2009-08-08T10:13:44Z</time>
      </trkpt>
      <trkpt lat="46.486427010968328" lon="11.493822019547224">
        <ele>943</ele>
        <time>2009-08-08T10:13:48Z</time>
      </trkpt>
      <trkpt lat="46.486426005139947" lon="11.493887985125184">
        <ele>944</ele>
        <time>2009-08-08T10:13:53Z</time>
      </trkpt>
      <trkpt lat="46.486334977671504" lon="11.494035003706813">
        <ele>941</ele>
        <time>2009-08-08T10:14:07Z</time>
      </trkpt>
      <trkpt lat="46.486270017921925" lon="11.494168024510145">
        <ele>940</ele>
        <time>2009-08-08T10:14:18Z</time>
      </trkpt>
      <trkpt lat="46.486216960474849" lon="11.494230972602963">
        <ele>939</ele>
        <time>2009-08-08T10:14:25Z</time>
      </trkpt>
      <trkpt lat="46.48615401238203" lon="11.494368016719818">
        <ele>939</ele>
        <time>2009-08-08T10:14:36Z</time>
      </trkpt>
      <trkpt lat="46.486081006005406" lon="11.494533978402615">
        <ele>940</ele>
        <time>2009-08-08T10:14:50Z</time>
      </trkpt>
      <trkpt lat="46.486029038205743" lon="11.494605978950858">
        <ele>940</ele>
        <time>2009-08-08T10:14:57Z</time>
      </trkpt>
      <trkpt lat="46.486015040427446" lon="11.494678985327482">
        <ele>941</ele>
        <time>2009-08-08T10:15:02Z</time>
      </trkpt>
      <trkpt lat="46.485998025164008" lon="11.494721984490752">
        <ele>941</ele>
        <time>2009-08-08T10:15:06Z</time>
      </trkpt>
      <trkpt lat="46.485952008515596" lon="11.494788033887744">
        <ele>941</ele>
        <time>2009-08-08T10:15:12Z</time>
      </trkpt>
      <trkpt lat="46.485923007130623" lon="11.49486699141562">
        <ele>942</ele>
        <time>2009-08-08T10:15:18Z</time>
      </trkpt>
      <trkpt lat="46.485879002138972" lon="11.494932034984231">
        <ele>942</ele>
        <time>2009-08-08T10:15:25Z</time>
      </trkpt>
      <trkpt lat="46.485846983268857" lon="11.494956007227302">
        <ele>941</ele>
        <time>2009-08-08T10:15:28Z</time>
      </trkpt>
      <trkpt lat="46.485785963013768" lon="11.495006969198585">
        <ele>940</ele>
        <time>2009-08-08T10:15:35Z</time>
      </trkpt>
      <trkpt lat="46.485732989385724" lon="11.495080981403589">
        <ele>941</ele>
        <time>2009-08-08T10:15:43Z</time>
      </trkpt>
      <trkpt lat="46.485654031857848" lon="11.495138984173536">
        <ele>940</ele>
        <time>2009-08-08T10:15:52Z</time>
      </trkpt>
      <trkpt lat="46.485577002167702" lon="11.495208973065019">
        <ele>940</ele>
        <time>2009-08-08T10:16:01Z</time>
      </trkpt>
      <trkpt lat="46.485511036589742" lon="11.495252978056669">
        <ele>939</ele>
        <time>2009-08-08T10:16:08Z</time>
      </trkpt>
      <trkpt lat="46.485451022163033" lon="11.495335958898067">
        <ele>940</ele>
        <time>2009-08-08T10:16:16Z</time>
      </trkpt>
      <trkpt lat="46.485395031049848" lon="11.495485994964838">
        <ele>944</ele>
        <time>2009-08-08T10:16:28Z</time>
      </trkpt>
      <trkpt lat="46.485338034108281" lon="11.49555497802794">
        <ele>945</ele>
        <time>2009-08-08T10:16:35Z</time>
      </trkpt>
      <trkpt lat="46.485307021066546" lon="11.49559898301959">
        <ele>946</ele>
        <time>2009-08-08T10:16:40Z</time>
      </trkpt>
      <trkpt lat="46.485269973054528" lon="11.495652962476015">
        <ele>947</ele>
        <time>2009-08-08T10:16:45Z</time>
      </trkpt>
      <trkpt lat="46.485253041610122" lon="11.495663020759821">
        <ele>947</ele>
        <time>2009-08-08T10:16:47Z</time>
      </trkpt>
      <trkpt lat="46.485191015526652" lon="11.495676012709737">
        <ele>946</ele>
        <time>2009-08-08T10:16:53Z</time>
      </trkpt>
      <trkpt lat="46.485112980008125" lon="11.495651034638286">
        <ele>943</ele>
        <time>2009-08-08T10:17:01Z</time>
      </trkpt>
      <trkpt lat="46.485016001388431" lon="11.495682969689369">
        <ele>942</ele>
        <time>2009-08-08T10:17:11Z</time>
      </trkpt>
      <trkpt lat="46.484956992790103" lon="11.495686993002892">
        <ele>940</ele>
        <time>2009-08-08T10:17:17Z</time>
      </trkpt>
      <trkpt lat="46.484873006120324" lon="11.495694033801556">
        <ele>939</ele>
        <time>2009-08-08T10:17:25Z</time>
      </trkpt>
      <trkpt lat="46.484807040542364" lon="11.495681963860989">
        <ele>937</ele>
        <time>2009-08-08T10:17:32Z</time>
      </trkpt>
      <trkpt lat="46.484719030559063" lon="11.495723035186529">
        <ele>937</ele>
        <time>2009-08-08T10:17:41Z</time>
      </trkpt>
      <trkpt lat="46.484615011140704" lon="11.49572404101491">
        <ele>935</ele>
        <time>2009-08-08T10:17:52Z</time>
      </trkpt>
      <trkpt lat="46.484548039734364" lon="11.495752036571503">
        <ele>934</ele>
        <time>2009-08-08T10:17:59Z</time>
      </trkpt>
      <trkpt lat="46.484492970630527" lon="11.49581003934145">
        <ele>936</ele>
        <time>2009-08-08T10:18:06Z</time>
      </trkpt>
      <trkpt lat="46.484422981739044" lon="11.495806016027927">
        <ele>934</ele>
        <time>2009-08-08T10:18:13Z</time>
      </trkpt>
      <trkpt lat="46.484381994232535" lon="11.495820013806224">
        <ele>934</ele>
        <time>2009-08-08T10:18:17Z</time>
      </trkpt>
      <trkpt lat="46.484331032261252" lon="11.495837029069662">
        <ele>934</ele>
        <time>2009-08-08T10:18:22Z</time>
      </trkpt>
      <trkpt lat="46.48428400978446" lon="11.495862007141113">
        <ele>934</ele>
        <time>2009-08-08T10:18:27Z</time>
      </trkpt>
      <trkpt lat="46.484206980094314" lon="11.49592000991106">
        <ele>934</ele>
        <time>2009-08-08T10:18:36Z</time>
      </trkpt>
      <trkpt lat="46.484125005081296" lon="11.495930990204215">
        <ele>933</ele>
        <time>2009-08-08T10:18:44Z</time>
      </trkpt>
      <trkpt lat="46.484060967341065" lon="11.495959991589189">
        <ele>933</ele>
        <time>2009-08-08T10:18:51Z</time>
      </trkpt>
      <trkpt lat="46.484002964571118" lon="11.49598203599453">
        <ele>932</ele>
        <time>2009-08-08T10:18:57Z</time>
      </trkpt>
      <trkpt lat="46.483974969014525" lon="11.496020006015897">
        <ele>933</ele>
        <time>2009-08-08T10:19:00Z</time>
      </trkpt>
      <trkpt lat="46.483930964022875" lon="11.496059987694025">
        <ele>934</ele>
        <time>2009-08-08T10:19:06Z</time>
      </trkpt>
      <trkpt lat="46.483873967081308" lon="11.496045989915729">
        <ele>932</ele>
        <time>2009-08-08T10:19:11Z</time>
      </trkpt>
      <trkpt lat="46.483791992068291" lon="11.495957979932427">
        <ele>928</ele>
        <time>2009-08-08T10:19:22Z</time>
      </trkpt>
      <trkpt lat="46.483685960993171" lon="11.49589997716248">
        <ele>925</ele>
        <time>2009-08-08T10:19:33Z</time>
      </trkpt>
      <trkpt lat="46.483603985980153" lon="11.495911041274667">
        <ele>924</ele>
        <time>2009-08-08T10:19:41Z</time>
      </trkpt>
      <trkpt lat="46.483470965176821" lon="11.495849015191197">
        <ele>920</ele>
        <time>2009-08-08T10:19:55Z</time>
      </trkpt>
      <trkpt lat="46.483455039560795" lon="11.495839962735772">
        <ele>919</ele>
        <time>2009-08-08T10:19:57Z</time>
      </trkpt>
      <trkpt lat="46.483442969620228" lon="11.495829988270998">
        <ele>919</ele>
        <time>2009-08-08T10:19:58Z</time>
      </trkpt>
      <trkpt lat="46.48342302069068" lon="11.495811967179179">
        <ele>918</ele>
        <time>2009-08-08T10:20:01Z</time>
      </trkpt>
      <trkpt lat="46.483391001820564" lon="11.49579101242125">
        <ele>916</ele>
        <time>2009-08-08T10:20:04Z</time>
      </trkpt>
      <trkpt lat="46.483348002657294" lon="11.495785983279347">
        <ele>915</ele>
        <time>2009-08-08T10:20:08Z</time>
      </trkpt>
      <trkpt lat="46.483222022652626" lon="11.495711971074343">
        <ele>912</ele>
        <time>2009-08-08T10:20:22Z</time>
      </trkpt>
      <trkpt lat="46.483164019882679" lon="11.495695961639285">
        <ele>911</ele>
        <time>2009-08-08T10:20:28Z</time>
      </trkpt>
      <trkpt lat="46.483084978535771" lon="11.495653968304396">
        <ele>910</ele>
        <time>2009-08-08T10:20:36Z</time>
      </trkpt>
      <trkpt lat="46.483043991029263" lon="11.495656985789537">
        <ele>910</ele>
        <time>2009-08-08T10:20:40Z</time>
      </trkpt>
      <trkpt lat="46.483022030442953" lon="11.495646005496383">
        <ele>909</ele>
        <time>2009-08-08T10:20:43Z</time>
      </trkpt>
      <trkpt lat="46.48290996439755" lon="11.495591020211577">
        <ele>908</ele>
        <time>2009-08-08T10:20:55Z</time>
      </trkpt>
      <trkpt lat="46.482717012986541" lon="11.49549001827836">
        <ele>905</ele>
        <time>2009-08-08T10:21:15Z</time>
      </trkpt>
      <trkpt lat="46.482665967196226" lon="11.495457999408245">
        <ele>904</ele>
        <time>2009-08-08T10:21:21Z</time>
      </trkpt>
      <trkpt lat="46.482637971639633" lon="11.495431009680033">
        <ele>903</ele>
        <time>2009-08-08T10:21:24Z</time>
      </trkpt>
      <trkpt lat="46.482606958597898" lon="11.495409971103072">
        <ele>902</ele>
        <time>2009-08-08T10:21:28Z</time>
      </trkpt>
      <trkpt lat="46.482616011053324" lon="11.495368983596563">
        <ele>901</ele>
        <time>2009-08-08T10:21:31Z</time>
      </trkpt>
      <trkpt lat="46.482521966099739" lon="11.495319027453661">
        <ele>900</ele>
        <time>2009-08-08T10:21:41Z</time>
      </trkpt>
      <trkpt lat="46.482364973053336" lon="11.495246021077037">
        <ele>898</ele>
        <time>2009-08-08T10:21:57Z</time>
      </trkpt>
      <trkpt lat="46.482261959463358" lon="11.495209978893399">
        <ele>898</ele>
        <time>2009-08-08T10:22:08Z</time>
      </trkpt>
      <trkpt lat="46.482164980843663" lon="11.495183994993567">
        <ele>897</ele>
        <time>2009-08-08T10:22:18Z</time>
      </trkpt>
      <trkpt lat="46.482123993337154" lon="11.495171003043652">
        <ele>897</ele>
        <time>2009-08-08T10:22:22Z</time>
      </trkpt>
      <trkpt lat="46.482055010274053" lon="11.495163040235639">
        <ele>897</ele>
        <time>2009-08-08T10:22:29Z</time>
      </trkpt>
      <trkpt lat="46.482000024989247" lon="11.495163962244987">
        <ele>897</ele>
        <time>2009-08-08T10:22:34Z</time>
      </trkpt>
      <trkpt lat="46.481956019997597" lon="11.495177038013935">
        <ele>897</ele>
        <time>2009-08-08T10:22:39Z</time>
      </trkpt>
      <trkpt lat="46.481930036097765" lon="11.49518902413547">
        <ele>898</ele>
        <time>2009-08-08T10:22:41Z</time>
      </trkpt>
      <trkpt lat="46.481893993914127" lon="11.495249038562179">
        <ele>899</ele>
        <time>2009-08-08T10:22:47Z</time>
      </trkpt>
      <trkpt lat="46.481869015842676" lon="11.495321039110422">
        <ele>901</ele>
        <time>2009-08-08T10:22:53Z</time>
      </trkpt>
      <trkpt lat="46.481836996972561" lon="11.495362026616931">
        <ele>903</ele>
        <time>2009-08-08T10:22:57Z</time>
      </trkpt>
      <trkpt lat="46.481790980324149" lon="11.495398990809917">
        <ele>904</ele>
        <time>2009-08-08T10:23:02Z</time>
      </trkpt>
      <trkpt lat="46.481786035001278" lon="11.495390022173524">
        <ele>904</ele>
        <time>2009-08-08T10:23:03Z</time>
      </trkpt>
      <trkpt lat="46.481800032779574" lon="11.49536102078855">
        <ele>903</ele>
        <time>2009-08-08T10:23:05Z</time>
      </trkpt>
      <trkpt lat="46.48185501806438" lon="11.495198998600245">
        <ele>898</ele>
        <time>2009-08-08T10:23:18Z</time>
      </trkpt>
      <trkpt lat="46.481810007244349" lon="11.495288014411926">
        <ele>901</ele>
        <time>2009-08-08T10:23:25Z</time>
      </trkpt>
      <trkpt lat="46.481763990595937" lon="11.495366971939802">
        <ele>903</ele>
        <time>2009-08-08T10:23:33Z</time>
      </trkpt>
      <trkpt lat="46.481714034453034" lon="11.495394967496395">
        <ele>904</ele>
        <time>2009-08-08T10:23:38Z</time>
      </trkpt>
      <trkpt lat="46.481646979227662" lon="11.495406031608582">
        <ele>904</ele>
        <time>2009-08-08T10:23:45Z</time>
      </trkpt>
      <trkpt lat="46.481543965637684" lon="11.495351968333125">
        <ele>901</ele>
        <time>2009-08-08T10:23:56Z</time>
      </trkpt>
      <trkpt lat="46.48144899867475" lon="11.495187012478709">
        <ele>895</ele>
        <time>2009-08-08T10:24:11Z</time>
      </trkpt>
      <trkpt lat="46.481303991749883" lon="11.494946032762527">
        <ele>887</ele>
        <time>2009-08-08T10:24:33Z</time>
      </trkpt>
      <trkpt lat="46.481207013130188" lon="11.494892975315452">
        <ele>885</ele>
        <time>2009-08-08T10:24:43Z</time>
      </trkpt>
      <trkpt lat="46.481121014803648" lon="11.494884006679058">
        <ele>884</ele>
        <time>2009-08-08T10:24:52Z</time>
      </trkpt>
      <trkpt lat="46.481068963184953" lon="11.494890041649342">
        <ele>883</ele>
        <time>2009-08-08T10:24:57Z</time>
      </trkpt>
      <trkpt lat="46.480981959030032" lon="11.494912002235651">
        <ele>882</ele>
        <time>2009-08-08T10:25:06Z</time>
      </trkpt>
      <trkpt lat="46.480775009840727" lon="11.495030019432306">
        <ele>881</ele>
        <time>2009-08-08T10:25:28Z</time>
      </trkpt>
      <trkpt lat="46.480538975447416" lon="11.495169997215271">
        <ele>879</ele>
        <time>2009-08-08T10:25:53Z</time>
      </trkpt>
      <trkpt lat="46.480232030153275" lon="11.495325984433293">
        <ele>875</ele>
        <time>2009-08-08T10:26:26Z</time>
      </trkpt>
      <trkpt lat="46.47996598854661" lon="11.495462022721767">
        <ele>872</ele>
        <time>2009-08-08T10:26:54Z</time>
      </trkpt>
      <trkpt lat="46.479762978851795" lon="11.495577022433281">
        <ele>870</ele>
        <time>2009-08-08T10:27:16Z</time>
      </trkpt>
      <trkpt lat="46.479527028277516" lon="11.49564198218286">
        <ele>865</ele>
        <time>2009-08-08T10:27:40Z</time>
      </trkpt>
      <trkpt lat="46.479313038289547" lon="11.495802998542786">
        <ele>863</ele>
        <time>2009-08-08T10:28:04Z</time>
      </trkpt>
      <trkpt lat="46.47917197085917" lon="11.495996033772826">
        <ele>862</ele>
        <time>2009-08-08T10:28:24Z</time>
      </trkpt>
      <trkpt lat="46.479054037481546" lon="11.49628596380353">
        <ele>863</ele>
        <time>2009-08-08T10:28:47Z</time>
      </trkpt>
      <trkpt lat="46.478980025276542" lon="11.496574971824884">
        <ele>865</ele>
        <time>2009-08-08T10:29:08Z</time>
      </trkpt>
      <trkpt lat="46.478898972272873" lon="11.496960958465934">
        <ele>863</ele>
        <time>2009-08-08T10:29:36Z</time>
      </trkpt>
      <trkpt lat="46.478832000866532" lon="11.497176038101315">
        <ele>861</ele>
        <time>2009-08-08T10:29:52Z</time>
      </trkpt>
      <trkpt lat="46.478795036673546" lon="11.497391033917665">
        <ele>859</ele>
        <time>2009-08-08T10:30:08Z</time>
      </trkpt>
      <trkpt lat="46.478883968666196" lon="11.497551966458559">
        <ele>863</ele>
        <time>2009-08-08T10:30:22Z</time>
      </trkpt>
      <trkpt lat="46.479016989469528" lon="11.497626984491944">
        <ele>868</ele>
        <time>2009-08-08T10:30:36Z</time>
      </trkpt>
      <trkpt lat="46.479127965867519" lon="11.49778800085187">
        <ele>872</ele>
        <time>2009-08-08T10:30:52Z</time>
      </trkpt>
      <trkpt lat="46.479156967252493" lon="11.498034009709954">
        <ele>871</ele>
        <time>2009-08-08T10:31:09Z</time>
      </trkpt>
      <trkpt lat="46.479197032749653" lon="11.498294016346335">
        <ele>871</ele>
        <time>2009-08-08T10:31:27Z</time>
      </trkpt>
      <trkpt lat="46.479194015264511" lon="11.49832402355969">
        <ele>870</ele>
        <time>2009-08-08T10:31:30Z</time>
      </trkpt>
      <trkpt lat="46.479150010272861" lon="11.4984530210495">
        <ele>868</ele>
        <time>2009-08-08T10:31:39Z</time>
      </trkpt>
      <trkpt lat="46.479139029979706" lon="11.498586963862181">
        <ele>868</ele>
        <time>2009-08-08T10:31:49Z</time>
      </trkpt>
      <trkpt lat="46.479153027758002" lon="11.498652007430792">
        <ele>868</ele>
        <time>2009-08-08T10:31:53Z</time>
      </trkpt>
      <trkpt lat="46.479184962809086" lon="11.49869198910892">
        <ele>869</ele>
        <time>2009-08-08T10:31:58Z</time>
      </trkpt>
      <trkpt lat="46.479245983064175" lon="11.498710010200739">
        <ele>872</ele>
        <time>2009-08-08T10:32:04Z</time>
      </trkpt>
      <trkpt lat="46.479319995269179" lon="11.498700035735965">
        <ele>875</ele>
        <time>2009-08-08T10:32:11Z</time>
      </trkpt>
      <trkpt lat="46.479459973052144" lon="11.498634992167354">
        <ele>880</ele>
        <time>2009-08-08T10:32:26Z</time>
      </trkpt>
      <trkpt lat="46.479807989671826" lon="11.498524015769362">
        <ele>894</ele>
        <time>2009-08-08T10:33:02Z</time>
      </trkpt>
      <trkpt lat="46.479860041290522" lon="11.498487973585725">
        <ele>896</ele>
        <time>2009-08-08T10:33:08Z</time>
      </trkpt>
      <trkpt lat="46.479885019361973" lon="11.49843298830092">
        <ele>897</ele>
        <time>2009-08-08T10:33:12Z</time>
      </trkpt>
      <trkpt lat="46.479885019361973" lon="11.49834799580276">
        <ele>897</ele>
        <time>2009-08-08T10:33:18Z</time>
      </trkpt>
      <trkpt lat="46.479850988835096" lon="11.498259985819459">
        <ele>896</ele>
        <time>2009-08-08T10:33:25Z</time>
      </trkpt>
      <trkpt lat="46.479783011600375" lon="11.498183961957693">
        <ele>894</ele>
        <time>2009-08-08T10:33:34Z</time>
      </trkpt>
      <trkpt lat="46.479703970253468" lon="11.498141968622804">
        <ele>891</ele>
        <time>2009-08-08T10:33:42Z</time>
      </trkpt>
      <trkpt lat="46.479617971926928" lon="11.498072985559702">
        <ele>889</ele>
        <time>2009-08-08T10:33:52Z</time>
      </trkpt>
      <trkpt lat="46.479572039097548" lon="11.49802403524518">
        <ele>887</ele>
        <time>2009-08-08T10:33:58Z</time>
      </trkpt>
    </trkseg>
  </trk>

</gpx>
